Aviation Digital Data Service (ADDS)

Output produced by METARs form (0720 UTC 26 March 2017)
found at http://aviationweather.gov/adds/metars/
 
K04V 260716Z AUTO 24005KT 10SM -RA BKN015 OVC021 03/00 A2991 RMK AO2
K04W 260659Z AUTO 05005KT 10SM OVC017 01/M01 A3002 RMK AO2
K05U 260715Z AUTO 00000KT 10SM CLR M01/M03 A3006 RMK A01
K06D 260715Z AUTO 20005KT 10SM OVC100 01/01 A2992 RMK AO2
K08D 260715Z AUTO 06004KT 10SM BKN110 03/03 A2991 RMK AO2
K0A9 260715Z AUTO 07005KT 10SM FEW043 SCT055 12/08 A3010 RMK AO2
K0CO 260715Z AUTO M1/4SM HZ OVC001 M06/M12 A2997 RMK AO2
K0E0 260715Z AUTO 28010G18KT 10SM CLR 08/M02 A2996 RMK AO2 T00841021
K0F2 260715Z AUTO 10003KT 10SM CLR 10/07 A2988 RMK AO2 T00950072
K0J4 260719Z AUTO 16004KT 10SM BKN004 BKN009 17/16 A3007 RMK AO2 CIG 003V007 T01670156 $
K0R0 260715Z AUTO 17003KT 1 1/2SM BR OVC002 15/ A3002 RMK AO2
K0R4 260715Z AUTO 19004KT 10SM OVC014 18/16 A2995 RMK AO2 T01810163
K0S9 260715Z AUTO 00000KT 10SM CLR 04/04 A3001 RMK AO2
K0V4 260715Z AUTO 00000KT 10SM CLR 11/09 A3017 RMK AO1 T01080093
K0VG 260630Z AUTO 00000KT 10SM CLR 15/09 A3010 RMK AO2
K11R 260715Z AUTO 00000KT 10SM CLR 14/13 A2993 RMK AO2 T01370129
K12N 260654Z AUTO 03004KT 02/01 A3039 RMK AO1 SLP297 P0005 T00170006
K14Y 260714Z AUTO 01004KT 10SM OVC017 01/M01 A3000 RMK AO2
K19S 260715Z AUTO 13009KT 10SM CLR 04/03 A2986 RMK AO2 T00440032
K1A5 260700Z AUTO 14006KT 10SM OVC026 15/10 A3013 RMK AO2 T01540097
K1A6 260715Z AUTO 31003KT 10SM CLR 13/10 A3005 RMK AO2 T01250095
K1A9 260715Z AUTO 00000KT 1/4SM FG BKN002 OVC095 13/13 A3005 RMK AO2 T01340134
K1F0 260715Z AUTO 00000KT 10SM CLR 08/05 A2990 RMK AO2
K1H2 260715Z AUTO 14006KT 10SM SCT080 OVC100 15/13 A2988 RMK AO2 T01460131
K1J0 260658Z AUTO 12005KT 10SM BKN100 18/18 A3007 RMK AO2 RAE52 SLP140 P0000 T01780178
K1K1 260715Z AUTO 00000KT 4SM BR OVC009 06/05 A2992 RMK AO2 T00550050
K1L0 260715Z AUTO 12003KT 10SM BKN014 OVC019 19/18 A2998 RMK AO2 T01890179
K1M4 260656Z AUTO 17008G16KT 10SM OVC005 14/13 A3001 RMK AO2 CIG 004V008 SLP182 T01390128
K1M5 260715Z AUTO 15006KT 10SM SCT055 SCT065 OVC075 14/13 A2997 RMK A01
K1P1 260715Z AUTO 00000KT 10SM CLR M07/M08 A3046 RMK AO2 T10711079
K1R7 260715Z AUTO 18007KT 6SM BR OVC003 17/16 A2999 RMK AO2
K1S5 260715Z AUTO 00000KT 10SM CLR 04/01 A3001 RMK AO2 T00360009
K1V4 260654Z AUTO M09/M11 A3047 RMK AO1 SLP331 T10941111
K1V6 260650Z AUTO 32007KT 10SM CLR 07/M02 A2980 RMK AO2
K1YT 260658Z AUTO 04003KT 10SM BKN140 05/00 A2998 RMK AO2 SLPNO T00530000 $
K20V 260714Z AUTO 00000KT 10SM SCT006 SCT009 SCT014 04/02 A2992 RMK AO2
K21D 260713Z AUTO 07005KT 10SM OVC007 02/02 A3000 RMK AO2
K22N 260715Z AUTO 05005KT 10SM OVC013 04/00 A3037 RMK AO2
K24A 260700Z AUTO 15011KT 10SM OVC018 13/10 A3017 RMK AO2 T01300096
K24J 260715Z AUTO 00000KT 4SM BR FEW040 OVC049 16/16 A3016 RMK A01
K28J 260715Z AUTO 00000KT 8SM OVC050 13/13 A3014 RMK AO2
K2A0 260715Z AUTO 00000KT 5SM BR SCT006 BKN016 OVC032 15/15 A3004 RMK A01
K2C8 260715Z AUTO 20008KT 8SM 01/00 A2996 RMK AO2
K2DP 260706Z AUTO 00000KT 10SM BKN240 10/09 A3024 RMK AO2 SLPNO $
K2F5 260715Z AUTO 15007KT 10SM SCT120 10/M03 A2985 RMK AO2
K2G4 260700Z AUTO 12012G16KT 10SM CLR 11/08 A3017 RMK AO1
K2G9 260715Z AUTO 11009KT 10SM CLR 09/06 A3018 RMK AO2
K2I0 260615Z AUTO 18007KT 10SM SCT042 OVC110 16/15 A2993 RMK AO2 T01620146
K2P2 260715Z AUTO 06007KT 5SM UP OVC005 00/00 A3009 RMK AO2 P0001 T00001003
K2V5 260555Z AUTO 10005KT 10SM CLR 05/01 A2986 RMK AO2
K2V6 260714Z AUTO 17005KT 10SM CLR 02/00 A2984 RMK AO2
K2W6 260701Z AUTO 07004KT 10SM OVC065 10/06 A3025 RMK AO1
K2WX 260656Z AUTO 04008KT 07/02 A2982 RMK AO1 SLP098 T00720022 401720017
K36U 260720Z AUTO 00000KT 10SM CLR 01/M01 A3000 RMK AO2
K3AU 260715Z AUTO 00000KT 10SM OVC008 06/05 A2993 RMK AO2
K3D2 260715Z AUTO 08009KT 5SM UP OVC003 00/00 A3006 RMK AO2 P0001 T00000000
K3F3 260715Z AUTO 00000KT 10SM CLR 12/10 A2998 RMK AO2 T01170101 PWINO
K3I2 260715Z AUTO 00000KT 10SM CLR 18/10 A3004 RMK AO2 T01800100
K3J7 260715Z AUTO 13005KT 10SM SCT095 17/13 A3011 RMK AO2
K3K3 260655Z AUTO 11009KT 10SM CLR 05/03 A2984 RMK AO2
K3LF 260715Z AUTO 17007KT 10SM SCT027 BKN075 11/11 A2985 RMK AO2 T01100106
K3N8 260715Z AUTO 14003KT 10SM BKN016 00/M02 A3000 RMK AO2 T00001017
K3R7 260715Z AUTO 21003KT 5SM BR OVC004 20/20 A2996 RMK AO2 T02000196
K3T5 260715Z AUTO 19004KT 1SM BR OVC002 19/19 A2990 RMK AO2 T01900186
K40B 260716Z AUTO 00000KT M17/M21 A3043 RMK AO1 SLP335 T11731209 52003 P0000
K40J 260715Z AUTO 10003KT 3SM BR CLR 15/13 A3013 RMK AO2 T01460128
K42J 260715Z AUTO 00000KT 8SM CLR 16/16 A3015 RMK AO1 TSNO
K46U 260700Z AUTO 00000KT 10SM SCT050 BKN060 M01/M01 A3004 RMK A01
K4A6 260655Z AUTO 00000KT 10SM BKN016 OVC090 14/14 A3004 RMK AO2
K4A9 260715Z AUTO 14005KT 10SM BKN080 15/11 A3004 RMK AO2
K4BM 260716Z AUTO 24004KT 10SM CLR M02/M04 A2998 RMK AO2
K4I3 260700Z AUTO 07004KT 10SM SCT080 SCT085 15/11 A3004 RMK AO2
K4M9 260715Z AUTO 27006KT 10SM FEW047 BKN110 12/10 A2991 RMK AO2
K4MR 260658Z AUTO 19013KT 10SM CLR 14/M04 A2982 RMK AO2 SLP056 T01391039 402220016 $
K4O4 260715Z AUTO 00000KT 10SM CLR 08/07 A2993 RMK AO2
K4R5 260715Z AUTO 05003KT 10SM OVC021 01/M01 A3007 RMK AO2 T00051006
K4V0 260715Z AUTO 00000KT 10SM SCT044 OVC065 06/04 A2992 RMK AO2 T00550036
K54J 260715Z AUTO 17006KT 10SM BKN110 17/17 A3006 RMK AO2 T01700170
K57C 260715Z AUTO 07008KT 1/2SM FG OVC003 04/04 A2993 RMK AO2 T00360036
K5A6 260715Z AUTO 00000KT 2 1/2SM BR SCT003 12/12 A2995 RMK AO2 VIS 3/4V5 T01240124
K5C1 260715Z AUTO 18005KT BKN006 16/13 A2991 RMK AO1
K5H4 260715Z AUTO 13003KT 10SM 01/01 A2994 RMK AO2 PWINO
K5M9 260715Z AUTO 19007KT 10SM BKN015 BKN065 OVC075 15/14 A2991 RMK AO2 T01450140
K5R8 260715Z AUTO 00000KT 7SM OVC024 19/19 A2995 RMK AO2 T01900188
K5SM 260714Z AUTO 25005KT 5SM BR BKN003 OVC008 M03/M03 A3000 RMK AO2
K5T9 260715Z AUTO 11005KT 10SM CLR 16/11 A2984 RMK A01
K65S 260715Z AUTO 15004KT 10SM OVC065 02/00 A2999 RMK AO2
K66R 260715Z AUTO 18005KT 7SM BKN005 OVC010 21/20 A2992 RMK AO2 T02050196
K6A1 260715Z AUTO 20005KT 10SM RA 20/17 A3013 RMK AO2 T01950170
K6A2 260715Z AUTO 17003KT 10SM SCT024 BKN037 OVC055 17/17 A3012 RMK AO2
K6B0 260715Z AUTO 00000KT 10SM CLR M07/M10 A3046 RMK AO2 T10741097
K6B9 260715Z AUTO 00000KT 10SM -UP BKN012 OVC031 02/01 A3032 RMK AO2
K6I2 260715Z AUTO 19009KT 7SM -RA BKN042 OVC050 14/14 A3001 RMK AO2 P0001
K6L4 260715Z AUTO 17007G12KT 10SM CLR 17/08 A3007 RMK AO2
K6P9 260715Z AUTO 15007KT 10SM CLR 12/06 A2989 RMK AO2
K6R3 260715Z AUTO 00000KT 7SM BKN003 OVC008 13/12 A2995 RMK AO2 T01280123
K6R6 260653Z AUTO 01006KT 16/01 A2983 RMK AO1 SLP074 T01560011
K6S2 260715Z AUTO 00000KT 10SM SCT033 BKN042 OVC049 08/05 A3002 RMK AO2
K74V 260715Z AUTO 27004KT 10SM SCT060 05/02 A2993 RMK AO2
K79J 260656Z AUTO VRB04KT 10SM CLR 17/16 A3005 RMK AO2 SLP171 T01720156
K7BM 260714Z AUTO 11008KT 10SM BKN060 OVC080 02/M02 A2992 RMK AO2
K7L2 260715Z AUTO 15007KT 10SM 02/02 A2995 RMK AO2
K7N0 260656Z AUTO 15004KT 10SM 19/18 A2999 RMK AO2 SLP157 T01890178 PNO $
K7W4 260715Z AUTO 00000KT 10SM CLR 14/11 A3017 RMK AO1 T01360105
K7W6 260700Z AUTO 00000KT 10SM CLR 11/11 A3024 RMK AO2 T01100110
K82C 260715Z AUTO 07003KT 4SM BR OVC005 02/02 A2996 RMK AO2 T00220018
K82V 260715Z AUTO 23003KT 10SM CLR 05/M02 A2984 RMK AO2 PWINO
K8A0 260715Z AUTO 14005KT 10SM SCT017 BKN070 13/13 A3002 RMK AO2
K8D3 260656Z AUTO 00000KT 02/02 A2998 RMK AO1 SLP167 T00170017
K8W2 260715Z AUTO 00000KT 10SM CLR 08/07 A3015 RMK AO1 T00820068
K9A5 260715Z AUTO 00000KT 10SM BKN010 BKN020 OVC065 16/15 A3007 RMK AO2 T01580150
K9L2 260658Z AUTO 20008KT 10SM CLR 10/04 A3001 RMK AO2 SLP154 T00960036
K9MN 260713Z AUTO 00000KT 4SM OVC003 02/02 A2995 RMK AO1 T00170018
K9V9 260715Z AUTO 11006KT 7SM OVC007 05/05 A2992 RMK AO2 T00500050
KA08 260715Z AUTO 16005KT 10SM OVC005 15/15 A3002 RMK AO2 T01480146
KA39 260715Z AUTO 00000KT 10SM CLR 16/02 A2994 RMK AO2
KAAA 260715Z AUTO 17007KT 10SM SCT110 14/14 A2983 RMK AO2 T01410138
KAAF 260653Z AUTO 00000KT 10SM FEW065 OVC090 21/19 A3010 RMK AO2 SLP192 T02060194
KAAO 260654Z AUTO 00000KT 3SM BR OVC005 06/06 A2991 RMK AO2 SLP135 T00610056 $
KAAT 260655Z AUTO 00000KT 10SM CLR 00/M03 A3005 RMK AO2 SLP178 T00001028 TSNO
KABE 260651Z 06008KT 10SM OVC012 05/01 A3037 RMK AO2 SLP284 T00500011
KABH 260656Z AUTO 10011KT A2980 RMK AO2 SLPNO $
KABI 260652Z 14012KT 10SM CLR 13/04 A2986 RMK AO2 SLP098 T01330044 $
KABQ 260652Z 03005KT 10SM FEW060 FEW110 SCT130 10/M01 A2997 RMK AO2 SLP098 T01001011 402170050
KABR 260653Z AUTO 09004KT 4SM BR OVC011 02/01 A2997 RMK AO2 SLP159 T00170006
KABY 260653Z AUTO 16003KT 8SM -RA BKN060 OVC080 18/14 A3015 RMK AO2 RAB23 SLP209 P0000 T01780144
KACB 260715Z AUTO 07003KT 10SM UP OVC013 02/00 A3009 RMK AO2 T00220002
KACJ 260715Z AUTO 16003KT 10SM SCT050 BKN075 OVC090 16/16 A3014 RMK AO2
KACK 260653Z AUTO 36005KT 10SM FEW013 01/M01 A3042 RMK AO2 SLP301 T00061006
KACP 260715Z AUTO 00000KT 3SM BR OVC005 18/17 A2996 RMK AO2 T01760173
KACQ 260714Z AUTO 07009KT 3SM BR OVC006 02/02 A2996 RMK AO2
KACT 260651Z AUTO 13005KT 10SM CLR 12/10 A2991 RMK AO2 SLP125 T01170100
KACV 260706Z AUTO 15004KT 10SM FEW010 SCT014 OVC041 08/07 A3010 RMK AO2 T00830072
KACY 260654Z 06014KT 10SM OVC060 07/03 A3033 RMK AO2 SLP270 T00720033
KADC 260714Z AUTO 09005KT 10SM OVC021 01/M02 A3000 RMK AO2
KADF 260656Z AUTO 00000KT 10SM CLR 12/10 A2994 RMK AO2 SLP143 T01170100
KADG 260653Z AUTO 10010KT 10SM OVC008 04/02 A3007 RMK AO2 SLP190 T00390022
KADH 260715Z AUTO 00000KT 10SM CLR 08/06 A2991 RMK AO2
KADM 260715Z AUTO 00000KT 10SM CLR 07/06 A2990 RMK AO2 T00720060
KADS 260715Z AUTO 12006KT 10SM CLR 15/09 A2991 RMK AO2 T01470085
KADU 260715Z AUTO 01006KT 2 1/2SM BR OVC002 03/03 A2988 RMK AO2
KADW 260658Z AUTO 07011KT 10SM BKN080 10/06 A3024 RMK AO2 SLP246 T00960056
KAEG 260347Z 24023KT 10SM SKC 13/M06 A2991
KAEJ 260715Z AUTO 33009G14KT 10SM SCT046 SCT090 BKN110 05/M02 A2988 RMK AO2 T00451018
KAEL 260712Z AUTO 04006KT 10SM OVC004 02/02 A2992 RMK AO2
KAEX 260712Z 17004KT 1SM BR BKN005 BKN010 16/16 A2993 RMK AO2 T01610161 $
KAFF 260658Z AUTO 35008KT 10SM CLR 01/M01 A2984 RMK AO2 SLP079 T00101012 401301055
KAFJ 260715Z AUTO 00000KT 10SM OVC075 12/09 A3012 RMK AO1
KAFK 260715Z AUTO 36005KT 4SM BR OVC004 05/05 A2989 RMK AO2 T00460046
KAFN 260703Z AUTO 00000KT 8SM CLR M05/M07 A3042 RMK AO2 T10501072
KAFO 260715Z AUTO 17003KT 10SM OVC035 M01/M01 A3002 RMK AO2
KAFP 260700Z AUTO 00000KT 10SM CLR 15/11 A3019 RMK AO2 T01470112
KAFW 260653Z COR 16005KT 10SM CLR 12/08 A2989 RMK AO2 SLP119 T01170078
KAGC 260653Z 10008KT 10SM BKN080 15/09 A3010 RMK AO2 SLP193 T01500089
KAGS 260653Z AUTO 00000KT 10SM CLR 14/12 A3018 RMK AO2 SLP218 T01390122
KAHN 260651Z AUTO 16006KT 10SM FEW075 OVC100 17/13 A3013 RMK AO2 SLP198 T01670128 $
KAHQ 260715Z AUTO 35007KT 3SM BR OVC003 04/04 A2991 RMK AO2 T00400035
KAIA 260653Z AUTO 15008KT 10SM CLR 04/M01 A2981 RMK AO2 SLP083 T00391011 401891072 $
KAIB 260715Z AUTO 10005KT 10SM -DZ SCT027 BKN032 OVC040 05/03 A2997 RMK AO2
KAIG 260715Z AUTO 09008KT 3SM BR OVC003 M01/M01 A3002 RMK AO2 T10071007
KAIK 260715Z AUTO 14004KT 10SM CLR 13/11 A3021 RMK AO2
KAIO 260715Z AUTO 01005KT 8SM OVC004 04/04 A2988 RMK AO2
KAIT 260713Z AUTO 08004KT 10SM OVC025 02/M02 A3001 RMK AO2
KAIZ 260656Z AUTO 21007KT 6SM -RA OVC006 A2988 RMK AO2 RAB19UPB28E50 SLPNO P0000 FZRANO $
KAJG 260715Z AUTO 18009G15KT 10SM BKN050 BKN070 OVC075 15/13 A2989 RMK AO2 T01540131
KAJL 260715Z AUTO 1/2SM FG OVC002 A2994 RMK AO2
KAJO 260656Z AUTO 00000KT 10SM FEW033 12/11 A3005 RMK AO2 SLP186 T01220111
KAJR 260715Z AUTO 15009G17KT 7SM SCT032 BKN050 OVC090 15/12 A3013 RMK AO2 T01530116
KAJZ 260715Z AUTO 06003KT 10SM BKN065 OVC090 09/01 A2989 RMK AO2 T00900014
KAKH 260654Z AUTO 21004KT 10SM CLR 15/11 A3019 RMK AO2 SLP219 T01500106
KAKO 260653Z AUTO 17011KT 10SM FEW090 06/M01 A2983 RMK AO2 SLP082 T00611011 401611017
KAKQ 260654Z AUTO 00000KT 10SM CLR 14/11 A3021 RMK AO2 SLP229 T01440111
KAKR 260654Z AUTO 09004KT 10SM BKN075 14/09 A3006 RMK AO2 SLP173 T01390094 TSNO
KALB 260651Z 01005KT 10SM SCT032 M02/M08 A3046 RMK AO2 SLP317 T10171078 $
KALI 260653Z AUTO 14006KT 5SM BR CLR 19/18 A2988 RMK AO2 SLP117 T01890183 $
KALK 260656Z AUTO 23008KT 10SM CLR 12/M03 A3003 RMK AO2 SLP089 T01221028 402440050 $
KALM 260715Z AUTO 26010KT 10SM CLR 17/M09 A2990 RMK AO2
KALN 260715Z AUTO 24009KT 10SM BKN014 OVC020 12/10 A2986 RMK AO2 T01180098
KALO 260717Z AUTO 05008KT 6SM -RA BR OVC005 04/03 A2988 RMK AO2 RAB01 P0001 T00390033
KALS 260652Z AUTO 07004KT 10SM FEW011 BKN060 OVC080 03/02 A2989 RMK AO2 RAE19 SLP079 P0000 T00280017 401441056
KALW 260653Z AUTO 14006KT 10SM CLR 07/03 A3001 RMK AO2 SLP168 T00720028 $
KALX 260715Z AUTO 00000KT 10SM SCT100 15/14 A3007 RMK AO2 T01460141
KAMA 260653Z AUTO 15012KT 10SM CLR 08/M01 A2983 RMK AO2 SLP073 T00831011
KAMG 260653Z AUTO 09003KT 10SM BKN050 OVC080 17/15 A3016 RMK AO2 SLP212 T01670150
KAMN 260711Z AUTO 07012KT 2 1/2SM -SN OVC007 03/02 A3011 RMK AO2 T00250023
KAMW 260653Z AUTO 04007KT 2SM BR OVC002 04/04 A2987 RMK AO2 SLP119 T00440044
KANB 260653Z AUTO 00000KT 10SM SCT022 BKN090 16/14 A3006 RMK AO2 SLP173 T01560144
KAND 260656Z AUTO 15005KT 10SM CLR 16/11 A3015 RMK AO2 SLP204 T01560111
KANE 260714Z AUTO 08007KT 10SM -DZ OVC013 03/03 A2999 RMK AO2
KANJ 260655Z AUTO 11012G21KT 10SM UP OVC040 00/M06 A3021 RMK AO2 RAE25UPB25 SLP238 P0000 T00001061
KANK 260715Z AUTO 26003KT 10SM BKN039 OVC049 06/00 A2995 RMK AO1 T00561004
KANQ 260715Z AUTO 10010KT 8SM FEW035 BKN049 OVC080 04/04 A3002 RMK
KANW 260715Z AUTO 16007KT 4SM BR OVC002 04/04 A2989 RMK AO2 T00350035
KAOH 260653Z AUTO VRB05G19KT 10SM BKN080 OVC110 08/06 A3003 RMK AO2 SLP169 T00780061
KAOO 260653Z AUTO 03007KT 10SM OVC016 10/07 A3023 RMK AO2 SLP234 T01000067
KAPA 260653Z 13005KT 10SM SCT070 BKN090 07/01 A2982 RMK AO2 SLP067 T00720006 401611017
KAPC 260654Z 25010KT 10SM CLR 12/09 A3011 RMK AO2 SLP188 T01170089
KAPF 260653Z AUTO 08007KT 10SM OVC070 21/18 A3009 RMK AO2 SLP188 T02060183 $
KAPG 260658Z AUTO 09010KT 10SM BKN070 OVC090 08/05 A3032 RMK AO2 SLP270 T00810045
KAPN 260702Z AUTO 10009G18KT 10SM -RA SCT026 BKN037 OVC075 01/00 A3021 RMK AO2 P0001 T00110000
KAPY 260715Z AUTO 12004KT 10SM CLR 22/16 A2984 RMK AO2 T02200168
KAQO 260650Z AUTO 00000KT 10SM CLR 14/09 A2992 RMK AO2
KAQP 260715Z AUTO 00000KT 10SM OVC015 03/02 A2999 RMK AO2
KAQR 260715Z AUTO 00000KT 10SM CLR 07/07 A2992 RMK AO2
KAQV 260711Z AUTO 00000KT 1/2SM FG VV002 14/14 A2993 RMK AO2 T01390139 $
KAQW 260652Z AUTO 00000KT 5SM BR OVC005 M02/M02 A3043 RMK AO2 SLP314 T10171022
KAQX 260715Z AUTO 00000KT 10SM CLR 13/13 A3017 RMK AO2
KARA 260717Z AUTO 00000KT 8SM SCT008 BKN015 OVC027 19/17 A2997 RMK AO2 T01890172
KARB 260653Z 06010KT 10SM BKN010 04/03 A3007 RMK AO2 SLP189 T00440028
KARG 260715Z AUTO 24003KT 10SM FEW080 12/07 A2990 RMK AO1
KARM 260715Z AUTO 13003KT 1/2SM -DZ BKN003 OVC008 19/19 A2993 RMK AO2 T01930188
KARR 260701Z AUTO 06008KT 1 3/4SM BR OVC004 09/08 A2989 RMK AO2 T00940083
KART 260656Z AUTO 08006KT 9SM CLR M03/M04 A3039 RMK AO2 SLP298 T10331039 $
KARV 260715Z AUTO 12005KT 10SM OVC005 01/00 A3000 RMK AO2 T00110003
KARW 260715Z AUTO 16003KT 7SM CLR 16/14 A3017 RMK AO2
KASD 260653Z AUTO 17004KT 10SM CLR 18/17 A2999 RMK AO2 SLP154 T01780172
KASE 260653Z AUTO 17006KT 10SM SCT030 BKN047 OVC055 03/02 A2990 RMK AO2 SLP054 T00280017 401501033
KASG 260148Z 24006KT 2 1/2SM BR OVC006 08/08 A2995
KASH 260656Z AUTO 00000KT 10SM CLR M04/M04 A3047 RMK AO2 SLP329 T10391039
KASJ 260700Z AUTO 00000KT 10SM 14/12 A3022 RMK AO2 T01350116
KASL 260715Z AUTO 00000KT 5SM CLR 10/09 A2995 RMK AO1 T01000090
KASN 260715Z AUTO 14006KT 10SM SCT018 OVC090 15/14 A3005 RMK AO2 T01520140
KAST 260655Z AUTO 15003KT 10SM BKN038 BKN046 OVC060 07/04 A2999 RMK AO2 RAB23E35 SLP154 P0000 T00670039
KASW 260715Z AUTO 10007G14KT 7SM BKN042 BKN055 OVC085 06/05 A2998 RMK AO2
KASX 260715Z AUTO 04003KT 10SM SCT007 OVC014 00/M01 A3007 RMK AO2 T00001011
KATL 260704Z 19009KT 6SM -RA BR SCT022 BKN055 OVC085 16/15 A3011 RMK AO2 P0008 T01560150 $
KATP 260715Z AUTO VRB06KT 140V200 10SM FEW016 23/22 A3001 RMK A01
KATS 260715Z AUTO 15008KT 10SM CLR 11/M03 A2981 RMK AO2
KATT 260718Z AUTO 13005KT 10SM BKN010 18/11 A2991 RMK AO2 CIG 008V013 T01780111
KATW 260715Z AUTO 05012KT 2 1/2SM BR OVC003 01/01 A3000 RMK AO2
KATY 260653Z AUTO 13004KT 1 3/4SM BR OVC002 02/02 A2995 RMK AO2 SLP157 T00170017
KAUG 260653Z AUTO 36007KT 10SM CLR M03/M16 A3046 RMK AO2 SLP318 T10331156
KAUH 260715Z AUTO 06003KT 1 1/2SM BR OVC004 03/03 A2990 RMK AO2 T00320032
KAUM 260716Z AUTO 05007KT 1 1/4SM BR OVC003 02/01 A2992 RMK AO2
KAUN 260715Z AUTO 00000KT 10SM CLR 08/07 A3009 RMK AO1
KAUO 260656Z AUTO 14008KT 10SM FEW110 15/14 A3008 RMK AO2 RAE42 SLP204 P0003 T01500144
KAUS 260717Z 00000KT 10SM BKN009 13/11 A2990 RMK AO2 T01280111
KAUW 260654Z AUTO 10007KT 10SM OVC005 00/00 A3001 RMK AO2 SLP178 T00000000
KAVC 260716Z AUTO 17004KT 10SM CLR 13/11 A3025 RMK AO2 T01300108
KAVK 260715Z AUTO 00000KT 7SM CLR 04/04 A2991 RMK AO2
KAVL 260706Z AUTO 16008KT 10SM BKN024 OVC070 14/09 A3017 RMK AO2 T01440089 $
KAVP 260654Z 07007KT 10SM OVC038 04/01 A3033 RMK AO2 SLP274 T00440011
KAVQ 260715Z AUTO 00000KT 10SM CLR 16/M02 A2993 RMK AO2 T01551024
KAVX 260651Z AUTO 02004KT 10SM CLR 11/09 A3004 RMK AO2 SLP167 T01110094 TSNO
KAWG 260715Z AUTO 04012KT 1/2SM BR OVC002 07/07 A2981 RMK AO2
KAWM 260653Z AUTO 00000KT 10SM FEW095 SCT110 14/12 A2992 RMK AO2 SLP131 T01390117 $
KAWO 260715Z AUTO 00000KT 10SM OVC050 06/01 A3004 RMK AO1
KAXA 260715Z AUTO 04008KT 2SM BR OVC003 03/03 A2990 RMK AO2
KAXH 260715Z AUTO 16004KT 5SM BR OVC008 20/19 A2994 RMK AO2 T01970190
KAXN 260653Z AUTO 10004KT 10SM BKN015 OVC024 03/01 A3000 RMK AO2 SLP171 T00330011
KAXS 260715Z AUTO 10009KT 10SM CLR 11/05 A2987 RMK AO2 T01050050
KAXV 260713Z AUTO 35004KT 10SM OVC060 09/06 A3001 RMK AO2
KAXX 260715Z AUTO 23007KT 10SM SCT011 SCT037 BKN110 01/M01 A2994 RMK AO2 T00081011
KAYS 260715Z AUTO 00000KT 10SM BKN050 BKN065 OVC075 17/17 A3016 RMK AO2 T01730173
KAZC 260715Z AUTO 26004KT 10SM CLR 05/02 A3004 RMK AO2
KAZE 260715Z AUTO 15003KT 10SM CLR 17/16 A3014 RMK AO2 T01740161
KAZO 260653Z AUTO 09007KT 8SM FEW007 BKN055 OVC090 07/04 A3003 RMK AO2 RAB0556E11 SLP175 P0000 T00670044
KBAB 260658Z AUTO 10006KT 10SM CLR 11/08 A3006 RMK AO2 SLP182 T01050076 $
KBAC 260715Z AUTO 20011KT 3/4SM BR OVC002 M00/M00 A2999 RMK AO2
KBAD 260658Z AUTO 00000KT 10SM CLR 11/10 A2993 RMK AO2 SLP137 T01110102
KBAF 260653Z AUTO 36005KT 4SM BR CLR M02/M03 A3044 RMK AO2 SLP315 I1000 T10221028 $
KBAK 260145Z 17006KT 7SM -RA SCT026 BKN048 OVC085 15/15 A3002
KBAN 260652Z AUTO 00000KT 10SM M01/M07 A3004 RMK AO2 SLP162 T10111067 $
KBAX 260716Z AUTO 09005KT 10SM SCT020 BKN060 BKN070 02/00 A3015 RMK AO2 T00210000
KBAZ 260713Z AUTO 00000KT 10SM OVC007 17/14 A2989 RMK AO2 T01670139
KBBB 260714Z AUTO 13004KT 10SM OVC013 04/01 A3000 RMK AO2
KBBF 260715Z AUTO 19015KT 3SM BR SCT012 SCT016 23/20 A2991 RMK A01
KBBG 260655Z AUTO 00000KT 9SM OVC013 08/08 A2991 RMK AO2
KBBP 260715Z AUTO 00000KT 10SM CLR 12/12 A3019 RMK AO2
KBBW 260653Z AUTO 12004KT 9SM OVC003 04/04 A2989 RMK AO2 SLP129 T00440039 $
KBCB 260715Z AUTO 00000KT 10SM CLR 09/07 A3020 RMK AO2 T00900068
KBCE 260653Z AUTO 31009KT 10SM FEW014 SCT025 BKN034 M01/M02 A3001 RMK AO2 SLP117 T10061022 400611022 TSNO
KBCK 260720Z AUTO 06004KT 3SM BR OVC005 02/02 A2998 RMK AO2 T00200020
KBCT 260253Z 11015G22KT 10SM SCT025 22/19 A3014 VCSH
KBDE 260653Z AUTO 16007KT 10SM CLR M01/M04 A3002 RMK AO2 SLP181 T10111039
KBDG 260715Z AUTO 00000KT 10SM BKN060 BKN070 BKN090 04/02 A3001 RMK AO1 T00400020
KBDH 260715Z AUTO 10006KT 10SM BKN013 04/02 A2999 RMK AO2
KBDL 260651Z 01005KT 10SM FEW250 M01/M02 A3045 RMK AO2 SLP311 I1000 T10111017
KBDN 260715Z AUTO 00000KT 10SM BKN100 04/M00 A2998 RMK AO2
KBDR 260652Z AUTO 03008KT 10SM OVC110 04/01 A3044 RMK AO2 SLP306 T00390006
KBDU 260716Z AUTO 22006KT 10SM SCT110 10/01 A2979 RMK AO2
KBEA 260715Z AUTO 14004KT 4SM HZ BKN005 A2990 RMK AO2
KBEC 260715Z AUTO 00000KT 7SM OVC005 06/05 A2992 RMK AO2 T00600052
KBED 260656Z AUTO 02004KT 7SM CLR M04/M06 A3045 RMK AO2 SLP328 I1001 T10441061
KBEH 260653Z AUTO 11011KT 7SM OVC075 09/07 A2997 RMK AO2 RAB33E43 SLP149 P0000 T00890067
KBFD 260653Z AUTO 11007KT 10SM BKN070 04/03 A3021 RMK AO2 SLP237 T00440033 TSNO
KBFF 260653Z AUTO 09007KT 10SM CLR 07/00 A2981 RMK AO2 SLP074 T00720000 402061017
KBFI 260653Z 12004KT 10SM BKN045 OVC070 08/04 A3002 RMK AO2 SLP166 T00830044
KBFL 260654Z AUTO 36004KT 9SM FEW030 12/09 A3010 RMK AO2 SLP191 T01170094
KBFM 260653Z AUTO 14012KT 10SM FEW006 19/18 A3005 RMK AO2 SLP175 T01890183
KBFW 260714Z AUTO 05007KT 10SM OVC004 00/M01 A3006 RMK AO2
KBGD 260651Z AUTO 14010KT 10SM CLR 13/M02 A2981 RMK AO2 SLP072 T01281017
KBGE 260715Z AUTO 12004KT 10SM SCT006 SCT014 SCT065 17/15 A3012 RMK AO2 PWINO
KBGF 260715Z AUTO 14011KT 10SM CLR 14/12 A3000 RMK
KBGM 260716Z AUTO 10008KT 2SM UP BR OVC002 00/00 A3030 RMK AO2 UPB02 P0000 T00000000
KBGR 260653Z 01007KT 10SM CLR M04/M16 A3046 RMK AO2 SLP318 T10441156
KBHB 260656Z AUTO 02008KT 10SM CLR M03/M15 A3046 RMK AO2 SLP319 T10281150 FZRANO
KBHC 260715Z AUTO 00000KT 10SM BKN050 BKN065 OVC080 17/17 A3016 RMK AO2 PNO
KBHK 260651Z AUTO 00000KT 10SM -RA FEW035 OVC045 06/03 A2993 RMK AO2 SLP135 P0002 T00610033 401500044
KBHM 260653Z 16007G15KT 10SM OVC009 16/14 A3005 RMK AO2 CIG 007V012 SLP170 T01560144
KBID 260719Z AUTO 04009G14KT 10SM OVC014 02/01 A3043 RMK AO2 FZRANO
KBIE 260715Z AUTO 34006KT 5SM BR OVC005 05/05 A2989 RMK AO2 T00480046
KBIF 260658Z AUTO 30014G23KT 9SM CLR 19/M06 A2989 RMK AO2 SLP067 T01921065 402690046 $
KBIH 260656Z AUTO 00000KT 10SM CLR 07/M04 A3001 RMK AO2 SLP141 T00671044
KBIJ 260715Z AUTO 00000KT 10SM SCT038 SCT050 OVC095 18/16 A3010 RMK AO2
KBIL 260653Z 20004KT 10SM SCT190 07/00 A2991 RMK AO2 SLP131 T00670000 401220061
KBIS 260652Z AUTO 12004KT 10SM BKN060 OVC080 05/02 A2993 RMK AO2 SLP148 T00500017
KBIV 260653Z AUTO 08010KT 6SM -RA BR OVC005 06/05 A3001 RMK AO2 SLP166 P0001 T00610050
KBIX 260658Z AUTO 20009KT 10SM CLR 20/17 A3000 RMK AO2 SLP162 T02030173
KBJC 260713Z AUTO 29007KT 10SM SCT075 OVC085 09/01 A2981 RMK AO2
KBJI 260713Z AUTO 13004KT 10SM SCT009 BKN019 M02/M02 A3001 RMK AO2 T10161024
KBJJ 260656Z AUTO 11007KT 10SM FEW070 13/10 A3005 RMK AO2 SLP173 T01330100
KBKB 260654Z AUTO 00000KT 1/4SM FG VV002 18/17 A2993 RMK AO2 SLP161 T01780172
KBKD 260715Z AUTO 14012KT 10SM CLR 15/05 A2987 RMK AO2 T01540045
KBKE 260653Z AUTO 13003KT 10SM CLR 01/M01 A3000 RMK AO2 SLP169 T00111006
KBKF 260658Z 26006KT 10SM SCT070 BKN110 BKN220 08/00 A2983 RMK AO2A SLP052 T00791003 401671002
KBKL 260653Z AUTO 04010KT 10SM CLR 04/03 A3006 RMK AO2 SLP183 T00440028
KBKS 260715Z AUTO 13004KT 7SM CLR 20/19 A2987 RMK AO1 T02000191
KBKT 260715Z AUTO 16003KT 10SM CLR 14/09 A3020 RMK AO1 T01380087
KBKV 260653Z AUTO 00000KT 10SM CLR 17/14 A3014 RMK AO2 SLP203 T01720139
KBKW 260651Z AUTO 16009KT 10SM CLR 13/07 A3013 RMK AO2 SLP183 T01330067
KBKX 260656Z AUTO 12004KT 3SM BR OVC004 02/02 A2995 RMK AO2 SLP169 T00220017 FZRANO
KBLF 260652Z AUTO 10SM CLR 13/07 A3015 RMK AO2 SLP185 T01280067 TSNO
KBLH 260652Z AUTO 29005KT 10SM CLR 16/05 A2989 RMK AO2 SLP116 T01610050 $
KBLI 260653Z AUTO 00000KT 10SM SCT043 BKN055 06/05 A3001 RMK AO2 SLP170 T00610050
KBLM 260656Z AUTO 06010KT 10SM OVC009 05/03 A3039 RMK AO2 SLP297 T00500033
KBLU 260552Z AUTO 10003KT 7SM CLR 02/02 A3009 RMK AO2 SLP181 T00170017 10033 20011 58005 TSNO
KBLV 260713Z 23008KT 7SM BKN019 13/13 A2985 RMK AO2A BKN V SCT $
KBMC 260715Z AUTO 00000KT 10SM 04/02 A3004 RMK AO1 T00420023
KBMG 260653Z AUTO 16008KT 8SM -RA SCT035 BKN060 OVC080 14/13 A2994 RMK AO2 SLP132 P0001 T01440128
KBMI 260656Z AUTO 16011KT 10SM BKN070 OVC085 13/12 A2985 RMK AO2 RAB27E51 SLP131 P0001 T01330122
KBML 260652Z AUTO 00000KT 10SM CLR M14/M17 A3043 RMK AO2 SLP327 I1000 T11441172
KBMQ 260653Z AUTO 20003KT 10SM CLR 14/08 A2993 RMK AO2 SLP124 T01440083 $
KBMT 260715Z AUTO 20003KT 4SM HZ CLR A2994 RMK AO2
KBNA 260653Z 11003KT 10SM BKN070 OVC085 14/13 A2998 RMK AO2 RAE19B41E49 SLP148 P0001 T01440133
KBNL 260715Z AUTO 00000KT 10SM FEW075 13/12 A3018 RMK AO2
KBNO 260653Z AUTO 03003KT 10SM SCT120 01/M01 A2999 RMK AO2 SLP162 T00111011 $
KBNW 260715Z AUTO 01008KT 1/2SM BR OVC003 04/04 A2986 RMK AO2
KBOI 260653Z 13007KT 10SM CLR 06/M01 A2999 RMK AO2 SLP157 T00561011 401390028
KBOK 260656Z AUTO 10003KT 10SM FEW033 SCT100 08/06 A3008 RMK AO2 SLPNO T00780061
KBOS 260654Z 36007KT 10SM FEW280 01/M03 A3046 RMK AO2 SLP315 T00061033 $
KBOW 260715Z AUTO 09004KT 10SM CLR 14/14 A3013 RMK AO2 FZRANO
KBPC 260715Z AUTO 07005KT 10SM CLR 06/00 A2982 RMK AO2
KBPG 260715Z AUTO 14008KT 10SM CLR 15/M01 A2985 RMK AO2 T01471015
KBPI 260653Z AUTO 33012KT 10SM CLR M03/M06 A2997 RMK AO2 SLP143 T10281056 400331028
KBPK 260653Z AUTO 00000KT 10SM OVC022 10/07 A2989 RMK AO2 SLP120 T01000067 TSNO $
KBPT 260704Z AUTO 00000KT 1/4SM R12/1800V2200FT FG VV004 19/19 A2993 RMK AO2 T01940189
KBQK 260715Z AUTO 00000KT 10SM CLR 17/15 A3017 RMK AO2
KBQP 260715Z AUTO 00000KT 10SM CLR 11/10 A2994 RMK AO2 T01060104
KBQX 260715Z AUTO 17016KT 4SM BR CLR 24/24 A2993 RMK A01
KBRD 260653Z AUTO VRB03KT 10SM OVC023 01/M02 A3002 RMK AO2 SLP179 T00111017
KBRL 260653Z AUTO 14006KT 10SM FEW040 BKN085 13/12 A2978 RMK AO2 SLP085 T01330122
KBRO 260653Z AUTO 15007KT 10SM FEW015 22/21 A2991 RMK AO2 SLP128 T02170206
KBTA 260715Z AUTO 34005KT 5SM BR OVC002 04/04 A2989 RMK AO2 T00410037
KBTL 260717Z AUTO 10008KT 10SM -RA FEW006 OVC080 06/05 A3004 RMK AO2 P0000 T00610050
KBTM 260653Z AUTO 22003KT 10SM CLR 01/M04 A2998 RMK AO2 SLP154 T00111039 400831006
KBTP 260715Z AUTO 09010KT 10SM FEW085 13/09 A3013 RMK AO1
KBTR 260716Z AUTO 00000KT 8SM OVC031 18/17 A2997 RMK AO2 T01780167 $
KBTV 260654Z 00000KT 9SM CLR M06/M08 A3050 RMK AO2 SLP333 I1001 T10611083
KBUF 260654Z 08011KT 6SM -RA BR SCT007 BKN020 OVC075 02/00 A3024 RMK AO2 SLP249 P0005 T00170000 $
KBUR 260653Z 09003KT 10SM CLR 13/10 A3003 RMK AO2 SLP162 T01330100 $
KBUU 260715Z AUTO 05008KT 1 1/2SM BR OVC001 06/06 A2993 RMK AO2 T00600060
KBUY 260654Z AUTO 19004KT 10SM CLR 14/11 A3018 RMK AO2 SLP215 T01440106 TSNO
KBVE 260713Z AUTO 16008KT 10SM BKN012 21/19 A3001 RMK AO2 T02060194
KBVN 260715Z AUTO 00000KT 4SM BR OVC002 04/03 A2990 RMK AO2 T00400031
KBVO 260653Z AUTO 24003KT 10SM OVC019 07/05 A2994 RMK AO2 SLP134 T00720050 TSNO
KBVS 260715Z AUTO 00000KT 10SM BKN120 05/04 A3002 RMK A01
KBVU 260715Z AUTO 00000KT 10SM 15/03 A2998 RMK AO2
KBVX 260715Z AUTO 00000KT 10SM OVC085 11/08 A2992 RMK AO1
KBVY 260653Z AUTO 35005KT 10SM CLR M02/M04 A3045 RMK AO2 SLP309 T10171039
KBWD 260655Z AUTO 13007KT 10SM CLR 09/08 A2988 RMK AO2
KBWG 260653Z AUTO 15008KT 8SM -RA OVC070 15/13 A2998 RMK AO2 SLP148 P0010 T01500133 TSNO
KBWI 260654Z 06017KT 9SM FEW095 BKN250 08/06 A3028 RMK AO2 SLP252 T00830061
KBWP 260715Z AUTO 09003KT 7SM 01/00 A3000 RMK AO1
KBWW 260715Z AUTO 36016KT 10SM FEW029 SCT040 OVC060 08/00 A2980 RMK AO2
KBXK 260715Z AUTO 36005KT 10SM CLR 15/M01 A2989 RMK AO1
KBYG 260653Z AUTO 31009KT 10SM -RA OVC028 02/00 A2994 RMK AO2 SLP131 P0006 T00220000 401220017
KBYI 260653Z AUTO 22009KT 10SM CLR 02/M02 A3001 RMK AO2 SLP160 T00171022 401170017
KBYL 260655Z AUTO 15006KT 10SM FEW095 17/08 A3002 RMK AO1
KBYS 260655Z AUTO 23009KT 10SM CLR 13/03 A3001 RMK AO2 SLP154 WND DATA ESTMD T01250026
KBYY 260715Z AUTO 00000KT 4SM BR BKN009 20/20 A2993 RMK AO2 T01970197
KBZN 260656Z AUTO 12005KT 10SM FEW090 01/M01 A2994 RMK AO2 SLP147 T00111011 401170011
KC07 260714Z AUTO 29009G15KT 230V300 1/2SM FZFG OVC002 M02/M02 A2994 RMK AO2
KC09 260715Z AUTO 09006KT 4SM BR SCT006 BKN032 11/11 A2987 RMK AO2 T01140108
KC29 260715Z AUTO 07006KT 4SM OVC003 05/05 A2993 RMK AO1 T00450045
KC35 260715Z AUTO 07006KT 7SM OVC005 03/03 A2995 RMK AO2 T00250025
KC62 260715Z AUTO 09007KT 7SM SCT006 BKN065 OVC095 04/03 A3001 RMK AO2 T00450038
KC75 260715Z AUTO 10004KT 3SM -RA BKN017 BKN060 OVC080 12/12 A2982 RMK AO2 T01170117
KCAD 260715Z AUTO 11011KT 7SM RA OVC007 01/01 A3005 RMK AO2 T00150008
KCAE 260656Z 00000KT 10SM SCT180 14/11 A3019 RMK AO2 SLP223 T01390111 $
KCAG 260653Z AUTO 28006KT 10SM -RA SCT025 BKN049 OVC080 06/02 A2991 RMK AO2 RAB24E33B43 SLP093 P0000 T00560017 401671050
KCAK 260651Z 10006KT 8SM SCT070 BKN250 14/09 A3006 RMK AO2 SLP176 T01390094
KCAO 260655Z AUTO 19005KT 10SM CLR 05/00 A2980 RMK AO2 SLP060 T00500000 402001011
KCAR 260654Z AUTO 34008KT 10SM CLR M11/M19 A3042 RMK AO2 SLP317 T11111189
KCAV 260715Z AUTO 04010KT 3/4SM BR OVC003 03/03 A2989 RMK AO2 PWINO
KCBE 260702Z AUTO 05008KT 10SM SCT075 14/08 A3023 RMK AO1
KCBF 260715Z AUTO 34006KT 10SM OVC004 04/04 A2988 RMK AO2
KCBG 260715Z AUTO 00000KT 4SM +DZ OVC017 03/M02 A2999 RMK AO2
KCBK 260715Z AUTO 14003KT 5SM BR CLR 03/03 A2988 RMK AO2
KCBM 260712Z AUTO 17007KT 10SM -RA OVC008 15/14 A2997 RMK AO2 RAB12 OVC V BKN SLP151 $
KCCA 260715Z AUTO 00000KT 10SM BKN047 BKN055 09/08 A2992 RMK AO2
KCCO 260715Z AUTO 17005KT 10SM RA SCT070 OVC085 16/15 A3009 RMK AO2 T01630154
KCCR 260653Z AUTO 21007KT 10SM CLR 11/08 A3011 RMK AO2 SLP183 T01060078
KCCU 260715Z AUTO 1/4SM SN OVC001 M02/M05 A2999 RMK AO2
KCCY 260715Z AUTO 06012KT 6SM BR OVC004 03/03 A2990 RMK AO2
KCDA 260715Z AUTO 00000KT 10SM CLR M10/M14 A3046 RMK AO2 T11011144
KCDC 260653Z AUTO 00000KT 10SM CLR 01/01 A3003 RMK AO2 SLP159 T00110006 401000006 $
KCDD 260712Z AUTO 00000KT 10SM SCT008 OVC017 M02/M02 A3009 RMK AO2
KCDH 260715Z AUTO 00000KT 10SM CLR 11/09 A2993 RMK AO2
KCDI 260705Z AUTO 00000KT 10SM SCT080 09/08 A3005 RMK AO2 T00930077
KCDJ 260652Z AUTO 32005KT 07/07 A2986 RMK AO1 SLP114 T00720067
KCDN 260715Z AUTO 00000KT 10SM FEW050 15/13 A3020 RMK AO2
KCDR 260653Z AUTO 21008KT 10SM CLR 11/M01 A2979 RMK AO2 SLP079 T01111006 402061017
KCDS 260653Z AUTO 14009KT 10SM CLR 11/02 A2984 RMK AO2 SLP092 T01110022
KCDW 260717Z AUTO 07006KT 6SM -RA BR SCT011 BKN019 OVC046 04/03 A3042 RMK AO2 RAB0654 P0000 T00440028 TSNO
KCEC 260656Z AUTO VRB03KT 10SM FEW022 BKN100 09/07 A3008 RMK AO2 SLP186 T00940067
KCEF 260658Z AUTO 00000KT 10SM CLR M03/M04 A3043 RMK AO2 SLP314 T10321041
KCEU 260654Z AUTO 16005KT 10SM BKN085 17/11 A3016 RMK AO2 SLP205 T01720111
KCEW 260653Z AUTO 12003KT 9SM SCT003 17/16 A3007 RMK AO2 SLP179 T01670156
KCEY 260715Z AUTO 20004KT 10SM BKN028 BKN060 OVC110 13/13 A2993 RMK AO1 P0001
KCEZ 260653Z AUTO 28003KT 10SM -RA BKN023 BKN028 OVC036 04/03 A2995 RMK AO2 RAB44 SLP101 P0000 T00390033 401671044
KCFD 260715Z AUTO 13004KT 10SM CLR 12/11 A2993 RMK AO2 T01210107
KCFE 260714Z AUTO 05004KT 10SM SCT007 OVC013 03/02 A2999 RMK AO2 T00300017
KCFJ 260715Z AUTO 15009KT 10SM DZ SCT065 OVC080 13/13 A2992 RMK AO2 T01300130
KCFS 260715Z AUTO 08004KT 10SM SCT011 BKN017 OVC060 03/01 A3012 RMK AO2 T00250010
KCFV 260652Z AUTO 00000KT 10SM SCT015 OVC021 08/06 A2991 RMK AO2 SLP129 T00830061
KCGC 260715Z AUTO 00000KT 10SM CLR 13/13 A3013 RMK AO2
KCGE 260700Z AUTO VRB04G11KT 10SM OVC070 09/06 A3026 RMK A01
KCGF 260245Z 08005KT 10SM SCT090 07/04 A3014
KCGI 260653Z AUTO 20010KT 10SM BKN060 13/12 A2989 RMK AO2 SLP120 T01330122
KCGS 260701Z AUTO 07004KT 10SM SCT100 10/05 A3026 RMK AO1
KCHA 260708Z AUTO 12004KT 10SM -RA BKN023 OVC031 16/15 A3005 RMK AO2 RAB04 P0000 T01560150
KCHD 260347Z 22008KT 10SM CLR 20/M02 A2988 RMK LAST
KCHK 260715Z AUTO 08003KT 06/05 A2990 RMK AO2 PWINO
KCHO 260653Z AUTO 17006KT 10SM CLR 14/09 A3016 RMK AO2 SLP206 T01440094
KCHS 260656Z 12005KT 10SM FEW060 SCT250 16/14 A3018 RMK AO2 SLP220 T01610139
KCIC 260715Z AUTO 00000KT 10SM CLR 11/08 A3009 RMK AO1
KCID 260652Z AUTO 06010KT 1/2SM FG VV002 06/ A2984 RMK AO2 SLP109 T0056 $
KCIN 260715Z AUTO 03008KT 2SM BR OVC003 04/04 A2988 RMK AO2
KCIR 260715Z AUTO 16007KT 10SM OVC060 13/12 A2990 RMK AO2 T01310123
KCIU 260656Z AUTO 11014G21KT 9SM UP OVC037 M02/M04 A3021 RMK AO2 PK WND 11026/0624 UPB53SNB33E53 SLP262 P0000 T10171044 FZRANO
KCJR 260715Z AUTO 00000KT 10SM OVC065 17/11 A3019 RMK AO2 T01700110
KCKB 260653Z 13006KT 10SM SCT085 18/08 A3010 RMK AO2 SLP179 T01830083
KCKC 260714Z AUTO 08005KT 10SM OVC021 M01/M06 A3007 RMK AO2
KCKF 260715Z AUTO 21006KT 10SM BKN050 20/15 A3014 RMK AO2 T01970150
KCKI 260715Z AUTO 00000KT 10SM CLR 12/11 A3019 RMK AO2
KCKM 260715Z AUTO 00000KT 6SM BR FEW006 14/14 A2993 RMK A01
KCKN 260714Z AUTO 16004KT 7SM SCT015 00/M01 A3002 RMK AO2
KCKP 260715Z AUTO 04004KT 1SM BR OVC002 03/03 A2991 RMK AO2 T00300030
KCKV 260652Z AUTO 18006KT 10SM FEW048 SCT055 BKN090 15/12 A2994 RMK AO2 SLP135 T01500122
KCKZ 260715Z AUTO 07007G15KT 9SM OVC011 05/04 A3036 RMK AO2
KCLE 260651Z 02004KT 10SM BKN250 07/03 A3008 RMK AO2 SLP187 T00720033
KCLI 260715Z AUTO 06009KT 7SM OVC004 01/00 A3003 RMK AO2
KCLK 260735Z AUTO 10006KT 10SM CLR 08/04 A2990 RMK AO2
KCLL 260653Z AUTO 12004KT 10SM CLR 16/11 A2992 RMK AO2 SLP128 T01610106
KCLM 260653Z AUTO 00000KT 10SM CLR 03/03 A3000 RMK AO2 SLP159 T00330028
KCLS 260715Z AUTO 00000KT 10SM OVC060 06/06 A3001 RMK AO2
KCLT 260652Z 19005KT 10SM SCT250 14/11 A3020 RMK AO2 SLP221 T01390106
KCLW 260715Z AUTO 12004KT 10SM CLR 19/17 A3010 RMK AO2
KCMA 260655Z 08003KT 10SM CLR 12/11 A3003 RMK AO2 SLP177 T01220106
KCMD 260715Z AUTO 16006KT 10SM BKN005 BKN009 OVC016 13/13 A3003 RMK AO2 T01320126
KCMH 260651Z 12008KT 10SM SCT150 OVC250 18/10 A3000 RMK AO2 SLP153 T01780100
KCMI 260653Z AUTO 12009KT 10SM OVC023 14/11 A2987 RMK AO2 SLP111 T01390111
KCMR 260715Z AUTO 26005KT 10SM BKN060 03/M03 A3005 RMK AO2
KCMX 260713Z AUTO 11011KT 10SM BKN016 OVC036 00/M03 A3008 RMK AO2 T00001028
KCMY 260715Z AUTO 06005KT 5SM DZ BKN006 OVC011 02/02 A2997 RMK AO2 P0001 T00150015
KCNB 260714Z AUTO 00000KT 3SM BR SCT003 OVC008 03/03 A2999 RMK AO2 T00300028
KCNC 260715Z AUTO 36007KT 3SM -RA OVC002 06/05 A2983 RMK AO2
KCNI 260715Z AUTO 00000KT 3SM RA SCT005 BKN020 OVC034 15/13 A3012 RMK AO2
KCNK 260716Z AUTO 04003KT 3SM BR OVC002 04/04 A2991 RMK AO2 CIG 001V006 T00440044
KCNM 260653Z AUTO 22003KT 10SM CLR 11/M03 A2980 RMK AO2 SLP053 T01061033 402610022 PWINO
KCNO 260653Z AUTO 32003KT 7SM CLR 12/10 A3005 RMK AO2 SLP174 T01170100
KCNU 260652Z AUTO 29007KT 10SM OVC007 08/07 A2990 RMK AO2 SLP124 T00830067
KCNW 260355Z 00000KT 10SM CLR 13/11 A2994
KCNY 260653Z AUTO 27005KT 10SM SCT060 OVC085 08/05 A2987 RMK AO2 SLP091 T00830050 401780022 PNO $
KCOD 260656Z AUTO 25003KT 10SM CLR 02/M01 A2995 RMK AO2 SLP147 T00221011 FZRANO
KCOE 260656Z AUTO 16006KT 10SM BKN070 03/01 A3001 RMK AO2 SLP191 T00280006
KCOF 260658Z AUTO 12007KT 10SM CLR 21/18 A3012 RMK AO2 SLP204 T02090180 $
KCOM 260715Z AUTO 00000KT 10SM CLR 14/05 A2987 RMK AO2 T01390050
KCON 260651Z AUTO 06003KT 8SM CLR M06/M08 A3045 RMK AO2 SLP318 I1000 T10561078
KCOQ 260715Z AUTO 09006KT 4SM BR OVC002 00/M01 A3003 RMK AO2
KCOS 260654Z 34007KT 10SM SCT150 BKN250 03/M03 A2984 RMK AO2 SLP081 T00331033 401391022
KCOT 260653Z AUTO 13008KT 8SM CLR 21/18 A2986 RMK AO2 SLP102 T02110183
KCOU 260654Z AUTO 23010KT 2SM BR OVC003 10/10 A2983 RMK AO2 RAB23E43 SLP100 P0001 T01000100
KCPC 260700Z AUTO 00000KT 10SM CLR 15/13 A3020 RMK AO2 T01530127
KCPK 260715Z AUTO 00000KT 10SM CLR 13/11 A3022 RMK AO2 T01320110
KCPR 260717Z AUTO 01006KT 10SM -RA OVC009 04/04 A2988 RMK AO2 CIG 006V010 P0001 T00440039
KCPS 260653Z AUTO 21004KT 10SM OVC018 13/10 A2986 RMK AO2 SLP111 T01330100 $
KCPT 260715Z AUTO 16008KT 10SM CLR 12/09 A2992 RMK AO2
KCPU 260715Z AUTO 00000KT 10SM CLR 07/06 A3010 RMK AO2 T00730056
KCPW 260711Z AUTO 20010G16KT 1/4SM +SN OVC001 M05/M05 A2999 RMK AO2
KCQB 260715Z AUTO 08003KT 10SM CLR 05/05 A2993 RMK AO2 T00540048
KCQC 260653Z AUTO 28018KT 10SM BKN100 OVC120 07/M04 A2995 RMK AO2 PK WND 28031/0633 SLP073 T00671044 401941017
KCQF 260715Z AUTO 11003KT 10SM SCT011 15/15 A3003 RMK AO2
KCQM 260716Z AUTO 00000KT 10SM SCT011 OVC019 M01/M02 A3006 RMK AO2
KCQT 260647Z AUTO 00000KT 10SM CLR 15/12 A3003 RMK AO2 SLP169 T01500117
KCQW 260715Z AUTO 00000KT 10SM CLR 11/11 A3019 RMK AO2
KCQX 260652Z AUTO 35003KT 10SM BKN012 02/01 A3044 RMK AO2 SLP308 T00170011
KCRE 260653Z AUTO 18007KT 10SM SCT055 17/14 A3020 RMK AO1 SLP226 T01720139 $
KCRG 260653Z AUTO 14006KT 10SM CLR 17/15 A3014 RMK AO2 SLP204 T01670150
KCRP 260713Z 14010KT 7SM BKN008 BKN075 21/21 A2989 RMK AO2 T02110206
KCRQ 260653Z AUTO 33003KT 10SM OVC032 15/14 A3004 RMK AO2 SLP169 T01500139
KCRS 260653Z AUTO 17005KT 10SM CLR 13/11 A2993 RMK AO2 SLP134 T01280111
KCRW 260654Z 14003KT 10SM SCT080 17/08 A3005 RMK AO2 SLP170 T01720083
KCSG 260651Z AUTO 18006KT 8SM -RA OVC090 17/14 A3010 RMK AO2 RAB0557 SLP190 P0003 T01720144
KCSM 260653Z AUTO 10009KT 10SM CLR 09/06 A2988 RMK AO2 SLP111 T00890056
KCSQ 260715Z AUTO 01009KT 1/4SM FG OVC002 04/04 A2985 RMK AO2
KCSV 260704Z AUTO VRB04KT 4SM RA BR SCT010 BKN055 OVC065 13/12 A3005 RMK AO2 P0003 T01330122
KCTB 260656Z AUTO 25011KT 10SM CLR M01/M07 A2989 RMK AO2 SLP136 T10061067 401061022
KCTJ 260715Z AUTO 15005KT 10SM BKN120 16/16 A3012 RMK AO2 T01550155
KCTY 260715Z AUTO 00000KT 10SM OVC055 13/12 A3013 RMK AO2
KCTZ 260700Z AUTO 00000KT 10SM CLR 14/13 A3022 RMK AO2 T01390129
KCUB 260653Z AUTO 00000KT 10SM CLR 15/13 A3021 RMK AO2 SLP227 T01500128 TSNO
KCUH 260715Z AUTO 00000KT 10SM CLR 05/04 A2992 RMK AO2 T00460035
KCUL 260715Z AUTO 16006KT 10SM BKN070 14/12 A2989 RMK AO2 T01350122
KCUT 260653Z AUTO 00000KT 10SM FEW070 OVC095 06/M01 A2984 RMK AO2 SLP069 T00611011 401561011
KCVB 260715Z AUTO 13005KT 7SM BKN006 18/17 A2989 RMK AO2 T01770168
KCVC 260715Z AUTO 15004KT 10SM OVC110 18/13 A3010 RMK AO2
KCVG 260652Z 21007KT 10SM FEW065 BKN080 OVC110 16/13 A3000 RMK AO2 RAE04 SLP150 P0000 T01560133 $
KCVH 260710Z AUTO 00000KT 10SM CLR 09/08 A3014 RMK AO1
KCVN 260715Z AUTO 18007KT 10SM CLR 08/M04 A2982 RMK AO1
KCVO 260715Z 00000KT 10SM OVC042 07/04 A3003 RMK AO1
KCVS 260658Z AUTO 21005KT 10SM CLR 10/M04 A2982 RMK AO2 SLP063 T00961036 402350000 $
KCVW 260725Z AUTO 22006KT 4SM BR OVC005 21/21 A2994 RMK A01
KCVX 260715Z AUTO 10011KT 10SM -RA SCT010 OVC026 01/01 A3013 RMK AO2 T00110008
KCWA 260715Z AUTO 07010KT 5SM -SN OVC003 00/00 A3000 RMK AO2
KCWC 260715Z AUTO 12012KT 10SM CLR 11/07 A2987 RMK AO2 T01110070
KCWF 260715Z AUTO 23006KT 7SM OVC005 21/20 A2995 RMK AO2 T02080200
KCWI 260656Z AUTO 06011KT 3SM BR OVC003 07/07 A2985 RMK AO2 RAE0559 SLP136 P0000 T00720067
KCWN 260658Z AUTO 33007KT 10SM BKN220 06/M06 A2979 RMK AO2 SLP964 T00551060 401130014 $
KCWV 260715Z AUTO 00000KT 10SM SCT060 BKN080 A3018 RMK AO2
KCXE 260715Z AUTO 00000KT 10SM CLR 15/11 A3019 RMK AO1 T01450105
KCXO 260653Z AUTO 00000KT 10SM CLR 10/10 A2994 RMK AO2 SLP135 T01000100
KCXP 260715Z AUTO 34003KT 10SM CLR 03/M01 A3006 RMK AO2
KCXU 260715Z AUTO 00000KT 10SM OVC100 18/15 A3014 RMK AO2 T01840147
KCXW 260715Z AUTO 00000KT 10SM 10/09 A2992 RMK A01
KCXY 260709Z AUTO 10010KT 10SM BKN021 OVC032 09/03 A3031 RMK AO2 T00890033
KCYS 260653Z AUTO 26004KT 10SM OVC090 06/M01 A2985 RMK AO2 SLP065 T00611011 401561022
KCZL 260715Z AUTO 16007KT 7SM RA SCT060 BKN070 OVC090 16/14 A3007 RMK AO2 T01610143
KCZT 260715Z AUTO 13006KT 10SM CLR 20/18 A2983 RMK AO2
KCZZ 260652Z AUTO 00000KT 11/09 A3000 RMK AO1 SLP140 T01060094
KD07 260656Z AUTO 04/02 A2986 RMK AO1 SLP123 T00440017 401671006
KD25 260715Z AUTO 10003KT 10SM UP OVC007 00/00 A3001 RMK AO2 T00000000
KD39 260711Z AUTO 04004KT 10SM OVC017 03/00 A2999 RMK AO2 T00250000
KD55 260715Z AUTO 20013KT 7SM CLR 01/01 A2994 RMK AO2
KD57 260715Z AUTO 01004KT 10SM BKN029 OVC040 06/00 A2991 RMK AO2
KD60 260715Z AUTO 07003KT 10SM CLR 02/02 A2991 RMK AO2
KD95 260715Z AUTO 09006KT 10SM SCT008 BKN065 02/02 A3011 RMK AO2 T00230016
KDAA 260658Z AUTO 00000KT 10SM OVC075 12/07 A3024 RMK AO2 SLP243 T01200066
KDAB 260653Z 00000KT 7SM BCFG FEW070 SCT130 16/16 A3014 RMK AO2 SLP205 T01610161
KDAG 260650Z AUTO 27012KT 10SM CLR 13/04 A3002 RMK AO2 SLP150 T01280039
KDAL 260653Z 13008KT 10SM CLR 14/08 A2990 RMK AO2 SLP121 T01440083
KDAN 260653Z AUTO 19006KT 10SM CLR 15/11 A3018 RMK AO2 SLP210 T01500111
KDAW 260651Z AUTO 34004KT 10SM CLR M03/M07 A3045 RMK AO2 SLP311 T10331072
KDAY 260656Z 23006KT 10SM BKN065 17/09 A3001 RMK AO2 SLP155 T01670094
KDBN 260715Z AUTO 15004KT 10SM CLR 15/12 A3017 RMK AO2
KDBQ 260653Z AUTO 04012KT 1/4SM R36/1800V3000FT FG VV002 04/04 A2987 RMK AO2 SLP124 T00440044
KDCA 260652Z 07014G20KT 10SM BKN080 11/07 A3025 RMK AO2 SLP243 T01110067
KDCM 260715Z AUTO 17004KT 10SM CLR 13/11 A3020 RMK AO2
KDCU 260708Z AUTO 15008KT 10SM BKN014 14/13 A3001 RMK AO2 T01390133
KDCY 260715Z AUTO 10SM -RA SCT014 SCT033 OVC080 14/13 A2991 RMK AO2 P0001 T01440134
KDDC 260652Z AUTO 13006KT 7SM CLR 02/02 A2987 RMK AO2 SLP113 T00220017
KDDH 260654Z AUTO 00000KT 4SM BR CLR M04/M05 A3041 RMK AO2 SLP308 I1001 T10391050
KDEC 260654Z AUTO 18007KT 10SM FEW019 SCT029 OVC090 14/11 A2985 RMK AO2 RAE07 SLP104 P0000 T01390111 $
KDED 260715Z AUTO 00000KT 10SM CLR 15/14 A3013 RMK AO2
KDEH 260715Z AUTO 05007KT 4SM BR OVC003 03/03 A2990 RMK AO2
KDEN 260653Z 24008KT 10SM BKN080 BKN120 BKN220 08/00 A2981 RMK AO2 SLP050 VIRGA T00830000 401671022 $
KDEQ 260653Z AUTO 00000KT 1/2SM FG CLR 09/09 A2991 RMK AO2 SLP126 T00890089 $
KDET 260653Z 09009KT 10SM CLR 04/02 A3011 RMK AO2 SLP202 T00390022
KDEW 260653Z AUTO 00000KT 10SM CLR M01/M02 A2999 RMK AO2 SLP171 T10061022 $
KDFI 260708Z AUTO 05007KT 10SM SCT009 BKN065 BKN085 04/02 A3006 RMK AO2 T00390022
KDFW 260653Z 15005KT 10SM CLR 13/08 A2988 RMK AO2 SLP115 T01330083
KDGW 260653Z AUTO 33009KT BKN090 OVC120 06/01 A2987 RMK AO2 SLP091 T00560006 401610000
KDHN 260653Z AUTO 14007KT 10SM -RA FEW065 OVC100 17/17 A3011 RMK AO2 SLP191 P0005 T01720172
KDHT 260653Z AUTO 13010KT 10SM CLR 08/01 A2981 RMK AO2 SLP063 T00780011
KDIJ 260656Z AUTO 16007KT 10SM BKN049 OVC060 01/M03 A3001 RMK AO2 SLP168 T00111033 400720006
KDIK 260656Z AUTO 00000KT 10SM FEW065 OVC080 08/M02 A2988 RMK AO2 SLP122 T00781017 401610000
KDKB 260715Z AUTO 08008KT 1 1/4SM BR OVC003 08/08 A2989 RMK AO2 T00810080
KDKK 260653Z AUTO 05010KT 10SM SCT049 05/03 A3018 RMK AO2 SLP226 T00500028
KDKR 260650Z AUTO 00000KT 4SM BR CLR 09/08 A2996 RMK AO2
KDKX 260715Z AUTO 00000KT 10SM FEW037 SCT050 BKN070 14/12 A3003 RMK A01
KDLF 260658Z 13007KT 10SM CLR 16/08 A2984 RMK AO2A SLP095 T01600083
KDLH 260655Z 10009KT 3SM -FZDZ BR OVC002 00/M01 A3004 RMK AO2 SLP192 P0000 I1001 T00001006
KDLL 260715Z AUTO 06007KT 2 1/2SM BR OVC003 03/02 A2995 RMK AO2 T00250022
KDLN 260653Z AUTO 19007KT 10SM OVC080 03/M05 A2995 RMK AO2 SLP132 T00331050 401110006
KDLO 260715Z AUTO 14003KT 10SM BKN033 OVC041 08/07 A3010 RMK AO2
KDLP 260720Z AUTO 17013KT 9SM BKN010 21/21 A2999 RMK A01
KDLS 260653Z AUTO 00000KT 10SM CLR 07/03 A3003 RMK AO2 SLP171 T00720028
KDLZ 260715Z AUTO 11005KT 10SM CLR 14/09 A3000 RMK AO2
KDMA 260658Z AUTO 28005KT 10SM CLR 17/M03 A2995 RMK AO2 SLP110 T01681026 402660075 CHINO RWY30 $
KDMH 260654Z AUTO 09/04 A3030 RMK AO1 SLP259 T00940044
KDMN 260653Z AUTO 26007KT 10SM CLR 12/M03 A2993 RMK AO2 SLP081 T01221033 402560006
KDMO 260653Z AUTO 33007KT 8SM OVC005 09/ A2986 RMK AO2 CIG 003V008 SLP110 T0094 $
KDMW 260700Z AUTO 09010G15KT 10SM BKN085 09/06 A3026 RMK AO2
KDNL 260653Z AUTO 14004KT 10SM CLR 16/11 A3018 RMK AO2 SLP217 T01610111
KDNN 260655Z AUTO 15005KT 10SM -RA SCT006 BKN049 OVC090 15/15 A3006 RMK AO2
KDNV 260655Z AUTO 15010KT 10SM -RA SCT025 BKN070 OVC085 14/14 A2987 RMK AO2 P0004 T01410136
KDOV 260658Z AUTO 07011KT 10SM OVC095 08/08 A3030 RMK AO2 SLP264 T00770077 $
KDPA 260652Z 06006KT 1 3/4SM BR OVC003 08/08 A2989 RMK AO2 SLP127 T00830083
KDPL 260700Z AUTO 00000KT 10SM CLR 10/10 A3022 RMK AO2
KDQH 260715Z AUTO 00000KT 10SM BKN042 16/13 A3016 RMK AO2
KDRA 260655Z AUTO 03004KT 10SM CLR 09/04 A2999 RMK AO2 SLP135 T00890044
KDRI 260715Z AUTO 00000KT 5SM BR OVC015 20/19 A2997 RMK AO2 T01950187
KDRM 260715Z AUTO 07007KT 5SM -SN BKN036 OVC047 M02/M04 A3023 RMK AO2 P0001 T10171042
KDRO 260653Z AUTO 22013KT 10SM OVC060 03/01 A2992 RMK AO2 RAE0554 SLP102 P0001 T00280006 401561033
KDRT 260653Z AUTO 12008KT 10SM CLR 18/08 A2983 RMK AO2 SLP088 T01830078 $
KDSM 260713Z 02008KT 1SM R31/5500VP6000FT -DZ BR VV002 06/05 A2985 RMK AO2 TWR VIS 1 3/4 P0000 T00560050 $
KDSV 260711Z AUTO 17006KT 10SM -RA SCT016 OVC070 03/01 A3030 RMK AO2 RAB10 P0000 T00280011
KDTA 260715Z AUTO 18006KT 10SM CLR 01/01 A3004 RMK AO1
KDTL 260714Z AUTO 14006KT 10SM OVC021 01/00 A3000 RMK AO2
KDTN 260653Z AUTO 00000KT 10SM CLR 13/09 A2994 RMK AO2 SLP136 T01280094
KDTO 260653Z AUTO 10003KT 10SM CLR 09/08 A2989 RMK AO2 SLP118 T00940083
KDTS 260708Z AUTO 14006KT 10SM SCT009 20/19 A3005 RMK AO2 T02000194 TSNO $
KDTW 260653Z 07010KT 10SM BKN011 OVC070 04/02 A3010 RMK AO2 SLP197 T00440022
KDUA 260655Z AUTO 00000KT 10SM CLR 09/07 A2991 RMK AO2
KDUB 260715Z AUTO 28012KT 10SM CLR 00/M06 A2993 RMK AO2
KDUC 260715Z AUTO 08005KT 09/07 A2989 RMK AO2 PWINO TSNO
KDUG 260656Z AUTO 03004KT 10SM CLR 14/M03 A3000 RMK AO2 SLP104 T01441033 402721011 TSNO
KDUH 260714Z AUTO 09011G20KT 10SM OVC007 04/02 A3006 RMK AO2 T00360019
KDUJ 260653Z AUTO 10009KT 10SM BKN085 08/04 A3018 RMK AO2 SLP217 T00780044 $
KDUX 260715Z AUTO 13007KT 10SM CLR 06/M01 A2981 RMK AO2 T00571015
KDVK 260715Z AUTO 23008KT 10SM DZ SCT015 BKN085 OVC110 14/12 A3003 RMK AO2
KDVL 260656Z AUTO 17008KT 10SM BKN090 OVC110 01/00 A2994 RMK AO2 SLP170 T00110000 FZRANO
KDVN 260652Z AUTO 07011KT 1 3/4SM BR OVC002 08/07 A2984 RMK AO2 SLP108 T00780072 $
KDVO 260715Z AUTO VRB05KT 10SM CLR 11/08 A3012 RMK AO2
KDVP 260718Z AUTO 07005KT 1 1/4SM BR OVC001 02/02 A2995 RMK AO2 T00150015
KDVT 260653Z AUTO 10004KT 10SM CLR 15/01 A2988 RMK AO2 SLP103 T01500011 402670106
KDWH 260653Z AUTO 00000KT 10SM CLR 14/12 A2993 RMK AO2 SLP134 T01390122
KDWU 260715Z AUTO 00000KT 10SM SCT085 06/06 A3001 RMK AO1
KDWX 260715Z AUTO 29004KT 10SM DZ 04/03 A2994 RMK AO2 T00420026
KDXR 260653Z AUTO 08009KT 10SM FEW018 BKN065 OVC095 03/00 A3042 RMK AO2 SLP302 T00280000
KDXX 260714Z AUTO 00000KT 4SM BR OVC012 04/04 A2999 RMK AO2
KDYA 260715Z AUTO 16003KT 10SM 15/15 A3002 RMK AO2 T01500150
KDYB 260715Z AUTO 00000KT 10SM CLR 11/11 A3019 RMK AO1
KDYL 260654Z AUTO 10SM OVC010 06/04 A3035 RMK AO2 SLP279 T00560039
KDYR 260656Z AUTO VRB03KT 10SM SCT032 BKN044 OVC080 14/13 A2994 RMK AO2 LTG DSNT E SLP153 T01440133
KDYS 260658Z 17010KT 10SM CLR 14/05 A2985 RMK AO2A SLP083 T01370050 $
KDYT 260714Z AUTO 05011KT 10SM OVC023 01/00 A3007 RMK AO2
KDZB 260715Z AUTO 15005KT 10SM CLR 16/10 A2990 RMK AO2 T01600102
KE11 260715Z AUTO 18006KT 10SM CLR 12/M02 A2983 RMK AO2 T01211020
KE16 260715Z AUTO 00000KT 10SM SCT013 BKN031 09/08 A3014 RMK AO2
KE38 260715Z AUTO 00000KT 10SM CLR 16/M04 A2995 RMK AO2 T01601043
KE80 260715Z AUTO 32005KT 10SM CLR 09/M02 A2997 RMK AO2 T00861023
KEAN 260715Z AUTO 33004KT 10SM SCT075 OVC090 10/01 A2982 RMK AO2 T00990010
KEAR 260715Z AUTO 00000KT 2 1/2SM OVC003 04/02 A2991 RMK AO1
KEAT 260655Z AUTO 33005KT 10SM CLR 06/M01 A2999 RMK AO2 SLP158 T00611011 $
KEAU 260656Z AUTO 09006KT 10SM OVC006 02/01 A3000 RMK AO2 UPE01 SLP165 P0000 T00170011 $
KEBA 260715Z AUTO 14006KT 10SM CLR 16/13 A3016 RMK AO2 T01610130
KEBG 260715Z AUTO 14006KT 7SM CLR 21/19 A2987 RMK AO2 T02090194
KEBS 260715Z AUTO 02008KT 3/4SM BR OVC003 04/03 A2987 RMK AO2
KECG 260654Z AUTO 00000KT 10SM CLR 13/11 A3023 RMK AO2 SLP238 T01330111
KECP 260653Z AUTO 14008KT 10SM FEW011 SCT120 19/17 A3006 RMK AO2 RAE07 SLP190 P0000 T01890167
KECS 260715Z AUTO 30008KT 292V352 10SM CLR 07/00 A2982 RMK AO2
KECU 260650Z AUTO 16007KT 10SM CLR 16/04 A2991 RMK AO2
KEDE 260700Z AUTO 00000KT 10SM CLR 13/12 A3024 RMK AO2 T01340115
KEDJ 260715Z AUTO 20004KT 10SM SCT070 15/09 A3000 RMK AO1
KEDN 260715Z AUTO 12006KT 10SM SCT080 BKN100 16/16 A3006 RMK AO2 T01600160
KEDU 260715Z AUTO 00000KT 10SM CLR 09/08 A3012 RMK AO1
KEDW 260658Z AUTO 22012KT 10SM CLR 10/05 A3001 RMK AO2 SLP155 T00970049
KEED 260656Z AUTO 34008KT 10SM CLR 21/03 A2990 RMK AO2 SLP101 T02060028
KEEN 260713Z AUTO 00000KT 1/2SM FZFG VV002 M05/M06 A3046 RMK AO2 FZRANO
KEEO 260653Z AUTO 00000KT 10SM -RA OVC037 06/01 A2990 RMK AO2 RAB53 SLP074 P0000 T00560011 401611044
KEET 260653Z AUTO 17007KT 10SM OVC008 16/15 A3004 RMK AO2 CIG 006V011 SLP168 T01560150
KEFD 260650Z 00000KT 5SM BR BKN012 21/19 A2995
KEFK 260715Z AUTO 21003KT 10SM CLR M12/M13 A3047 RMK AO2 T11161127
KEFT 260715Z AUTO 04009KT 1/4SM -SN OVC001 05/04 A2989 RMK AO2
KEGE 260656Z AUTO 14004KT 10SM BKN055 03/M01 A2992 RMK AO2 SLP120 T00331006
KEGI 260658Z AUTO 15006KT 10SM CLR 17/16 A3005 RMK AO2 SLP177 T01720164 $
KEGV 260715Z AUTO 11004KT 10SM OVC006 00/00 A3001 RMK AO2 T00001001
KEHA 260708Z AUTO 13012KT 04/M02 RMK AO1 /PK WND 15 M T00391016
KEHC 260715Z AUTO 18011KT 7SM FEW010 FEW018 SCT022 24/22 A2996 RMK A01
KEHO 260700Z AUTO 00000KT 10SM CLR 14/11 A3019 RMK AO2 T01360112
KEHR 260715Z 16009KT 10SM FEW013 SCT022 BKN027 15/12 A2989 RMK AO1
KEHY 260715Z AUTO 14004KT 10SM -RA SCT022 02/01 A2986 RMK AO2
KEIK 260714Z AUTO 00000KT 10SM SCT080 SCT100 10/00 A2979 RMK AO2 T00951001
KEIR 260715Z AUTO 22012KT 4SM BR CLR 22/22 A2999 RMK A01
KEKN 260651Z AUTO 00000KT 10SM CLR 09/06 A3014 RMK AO2 SLP206 T00890061
KEKO 260656Z AUTO 00000KT 10SM CLR 02/M02 A3003 RMK AO2 SLP166 T00171022
KEKQ 260656Z AUTO 26012G18KT 10SM -RA BKN055 OVC075 15/13 A3005 RMK AO2 RAB35 SLP191 P0000 T01500128
KEKS 260715Z AUTO 18008KT 10SM FEW055 OVC070 02/M01 A2999 RMK A01
KEKY 260656Z AUTO 16008G14KT 10SM OVC005 14/14 A3004 RMK AO2 SLP185 T01440144
KELA 260715Z AUTO 20008KT 7SM OVC010 21/21 A2992 RMK AO2 T02130205
KELD 260653Z AUTO 00000KT 10SM CLR 11/10 A2993 RMK AO2 SLP134 T01110100
KELK 260715Z AUTO 08003KT 10SM CLR 08/06 A2987 RMK AO2 T00760057
KELM 260653Z AUTO 33003KT 8SM OVC006 03/01 A3032 RMK AO2 SLP276 T00280011
KELN 260653Z AUTO 00000KT 10SM CLR 05/00 A2998 RMK AO2 SLP156 T00500000
KELO 260714Z AUTO 00000KT 10SM OVC009 M01/M02 A3006 RMK AO2
KELP 260651Z 30015KT 10SM FEW250 19/M07 A2989 RMK AO2 SLP064 T01941072 402780067
KELY 260653Z AUTO 18007KT CLR M02/M03 A3007 RMK AO2 SLP182 T10221033 $
KELZ 260711Z AUTO 12008KT 7SM OVC003 02/01 A3025 RMK AO2 T00170006
KEMK 260715Z AUTO 19016KT 4SM BR CLR 23/22 A2995 RMK A01
KEMM 260715Z AUTO 32008KT 10SM M02/M03 A2999 RMK AO2
KEMP 260701Z AUTO 29003KT 9SM FEW009 OVC019 07/07 A2989 RMK AO2 T00670067
KEMT 260145Z 22007KT 10SM SCT027 17/11 A3004
KEMV 260715Z AUTO 00000KT 10SM CLR 13/10 A3023 RMK AO2
KEND 260658Z AUTO 06004KT 10SM CLR 04/04 A2991 RMK AO2 SLP133 T00430043 $
KENL 260715Z AUTO 00000KT 10SM CLR 13/13 A2985 RMK AO2 T01300128
KENV 260656Z AUTO 21004KT 10SM CLR 04/M01 A3004 RMK AO2 SLP176 T00441011 PNO $
KENW 260717Z AUTO 06009KT 3/4SM -RA BR VV002 05/04 A2994 RMK AO2 P0000 T00500044
KEOE 260715Z AUTO 14004KT 10SM CLR 13/11 A3020 RMK AO2
KEOK 260715Z AUTO 11005KT 10SM FEW006 SCT014 OVC026 13/12 A2977 RMK AO2
KEPH 260653Z AUTO 34005KT 10SM CLR 06/M03 A2997 RMK AO2 SLP154 T00561028
KEQA 260715Z AUTO 25003KT 7SM OVC006 07/07 A2992 RMK AO2
KEQY 260653Z AUTO 20004KT 10SM CLR 14/11 A3019 RMK AO2 SLP227 T01440111
KERI 260651Z 06010KT 9SM BKN065 03/01 A3016 RMK AO2 SLP218 T00280011
KERV 260715Z AUTO 00000KT 10SM CLR 11/08 A2991 RMK AO2 T01110083
KERY 260715Z AUTO 10011G16KT 5SM UP BKN010 BKN018 OVC027 M01/M01 A3016 RMK AO2 P0001 T10101015
KESC 260656Z AUTO 08009KT 10SM UP OVC008 00/M01 A3013 RMK AO2 SLP230 P0001 T00001006 FZRANO
KESF 260653Z AUTO 24005KT 5SM BR OVC004 18/18 A2995 RMK AO2 SLP141 T01830183
KESN 260720Z AUTO 10010G16KT 10SM SCT012 BKN065 09/06 A3031 RMK AO2 T00900055
KEST 260652Z AUTO 04008KT 4SM BR OVC003 02/02 A2992 RMK AO2 SLP142 T00220022
KETB 260715Z AUTO 08011KT 2SM BR OVC003 03/03 A2998 RMK AO2
KETH 260716Z AUTO 00000KT 10SM BKN021 OVC026 02/01 A3001 RMK AO2
KEUF 260658Z AUTO 00000KT 9SM -RA OVC090 17/16 A3008 RMK AO2 SLP182 P0004 T01720156 $
KEUG 260654Z AUTO 26004KT 10SM OVC034 08/06 A3004 RMK AO2 SLP173 T00780061
KEUL 260656Z AUTO 06004KT 10SM CLR 03/01 A2999 RMK AO2 SLP161 T00330011 401440011
KEVB 260147Z 10004KT 10SM SCT025 19/16 A3019 RMK LAST
KEVM 260713Z AUTO 00000KT 10SM OVC009 00/M01 A3006 RMK AO2 T00011015
KEVU 260715Z AUTO 32006KT 10SM OVC006 06/06 A2987 RMK AO2
KEVV 260654Z AUTO 14005KT 10SM BKN035 BKN048 OVC080 16/14 A2991 RMK AO2 RAB34E45 SLP126 P0000 T01560139 $
KEVW 260653Z AUTO 26004KT 10SM CLR M01/M03 A3001 RMK AO2 SLP153 T10061028 400441011
KEWB 260653Z AUTO 35003KT 6SM BR CLR M01/M02 A3043 RMK AO2 SLP305 I1000 T10061022
KEWK 260713Z AUTO 00000KT 2SM BR OVC003 06/05 A2992 RMK AO2
KEWN 260712Z AUTO 00000KT 1/2SM FG CLR 11/11 A3023 RMK AO2 T01060106
KEWR 260651Z 05013G17KT 9SM -RA SCT037 OVC050 06/01 A3041 RMK AO2 RAB23 SLP298 P0001 T00560011
KEXX 260700Z AUTO 00000KT 10SM CLR 13/11 A3019 RMK AO2 T01310112
KEYE 260653Z AUTO 12004KT 10SM FEW026 BKN050 OVC090 14/13 A2994 RMK AO2 RAE30 SLP134 P0000 T01440128
KEYF 260710Z AUTO 00000KT 10SM CLR 13/12 A3021 RMK AO2 T01250120
KEYW 260653Z AUTO 06007KT 10SM CLR 23/20 A3005 RMK AO2 SLP176 T02280200
KEZF 260715Z AUTO 05007KT 10SM OVC065 18/12 A3018 RMK AO2 T01760115
KEZM 260715Z AUTO 14004KT 10SM CLR 18/11 A3016 RMK AO2 T01750106
KEZS 260715Z AUTO 06011G14KT 10SM OVC004 02/01 A3006 RMK AO2 T00150005
KF00 260715Z AUTO 00000KT 10SM CLR 09/08 A2991 RMK AO2
KF05 260715Z AUTO 15007KT 10SM CLR 12/03 A2985 RMK AO1 T01200033
KF17 260715Z AUTO 00000KT 10SM CLR 12/12 A2996 RMK AO2 T01230116
KF44 260715Z AUTO 00000KT 10SM CLR 09/09 A2991 RMK AO2
KF46 260715Z AUTO 00000KT 10SM CLR 13/09 A2991 RMK AO2 T01280091
KF70 260715Z AUTO 00000KT 10SM SCT025 BKN030 OVC034 13/11 A3005 RMK AO1
KFAF 260658Z AUTO 16004KT 10SM CLR 15/11 A3018 RMK AO2 SLP223 T01480105
KFAM 260656Z AUTO 24006KT 10SM OVC015 12/10 A2988 RMK AO2 SLP115 T01170100
KFAR 260653Z 18005KT 10SM OVC020 02/01 A2999 RMK AO2 SLP167 T00170006
KFAT 260653Z 32003KT 10SM SCT150 12/09 A3010 RMK AO2 SLP191 T01220094
KFAY 260653Z AUTO 00000KT 10SM CLR 14/12 A3020 RMK AO2 SLP222 T01390117
KFBG 260656Z AUTO 00000KT 10SM CLR 13/12 A3020 RMK AO2 RAB0556E00DZB00E01RAB25E29 SLP229 P0000 T01320116 FZRANO $
KFBL 260714Z AUTO 03004KT 4SM BR BKN006 OVC018 02/02 A2996 RMK AO2
KFBR 260715Z AUTO 27010KT 10SM SCT075 00/00 A3003 RMK AO2 T00011002
KFCH 260715Z AUTO 00000KT 10SM CLR 11/10 A3009 RMK A01
KFCI 260655Z AUTO 19004KT 10SM CLR A3021 RMK AO1
KFCM 260714Z AUTO 07006KT 4SM BR BKN008 OVC012 04/02 A2998 RMK AO2 CIG 006V010 T00390022
KFCS 260658Z AUTO 34006KT 10SM FEW160 04/M01 A2981 RMK AO2 SLP088 T00391014 $
KFDK 260655Z AUTO 04007KT 10SM OVC080 12/08 A3029 RMK AO2
KFDR 260653Z AUTO 04007KT 10SM CLR 08/04 A2984 RMK AO2 SLP097 T00830044
KFDW 260715Z AUTO 15004KT 10SM CLR 13/12 A3019 RMK AO1
KFDY 260653Z AUTO 06008KT 10SM CLR 06/03 A3001 RMK AO2 SLP160 T00610028
KFEP 260715Z AUTO 06009KT 1 1/4SM BR OVC003 06/06 A2990 RMK AO2 T00580057
KFET 260715Z AUTO 34003KT 5SM BR OVC002 04/04 A2991 RMK AO2 T00400040
KFEW 260658Z AUTO 10005KT 10SM BKN080 05/M01 A2987 RMK AO2 SLP078 T00491009 401521054 $
KFFC 260653Z AUTO 15004KT 9SM -RA SCT016 BKN070 OVC085 16/16 A3011 RMK AO2 RAB12 SLP194 P0002 T01610156
KFFL 260715Z AUTO 02007KT 2SM BR OVC003 08/08 A2979 RMK AO2 PWINO
KFFM 260715Z AUTO 00000KT 10SM BKN011 OVC019 02/M01 A3003 RMK AO2
KFFO 260658Z AUTO 20005KT 10SM OVC065 17/10 A3000 RMK AO2 SLP158 T01660096
KFFT 260653Z AUTO 20011KT 10SM BKN015 OVC070 16/12 A3000 RMK AO2 SLP154 T01610122
KFFX 260713Z AUTO 11010G15KT 10SM -RA OVC007 04/03 A3003 RMK AO2 T00350028
KFFZ 260247Z 22006KT 25SM FEW140 SCT250 A2983
KFGN 260713Z AUTO 16016KT 10SM CLR 00/M02 A3001 RMK AO2
KFGX 260715Z AUTO 21006KT 10SM SCT090 15/09 A3002 RMK AO2 T01540087
KFHB 260715Z AUTO 00000KT 10SM CLR 19/17 A3013 RMK AO1
KFHR 260653Z AUTO 00000KT 10SM SCT035 OVC047 07/03 A3002 RMK AO2 SLP165 T00670033 TSNO
KFHU 260658Z AUTO 25008KT 10SM BKN160 14/M03 A3001 RMK AO2 SLP104 T01351026 402470050
KFIG 260654Z AUTO A3024 RMK AO2 SLPNO PWINO FZRANO $
KFIT 260652Z AUTO 00000KT 6SM HZ CLR A3045 RMK AO2 SLPNO I1000 $
KFKA 260714Z AUTO 06006KT 1/2SM FG OVC001 01/01 A2993 RMK AO2 T00120007
KFKL 260715Z 11008KT 10SM BKN085 11/07 A3015 RMK AO1
KFKN 260715Z AUTO 16004KT 10SM CLR 13/10 A3022 RMK AO2 T01340104
KFKR 260715Z AUTO 14006KT 10SM DZ SCT014 BKN075 OVC080 15/14 A2995 RMK AO2 P0001 T01530141
KFKS 260714Z AUTO 00000KT 10SM OVC010 03/02 A3004 RMK AO2 T00320015
KFLD 260710Z AUTO 06008KT 10SM OVC005 03/02 A2999 RMK AO2 RAE0659 P0000 T00330017
KFLG 260657Z AUTO 26007KT 210V280 10SM CLR 02/M02 A3003 RMK AO2 SLP124 T00171022 401001022
KFLL 260653Z 12014KT 10SM FEW038 BKN048 22/18 A3007 RMK AO2 SLP182 T02170183
KFLO 260653Z AUTO 00000KT 10SM SCT045 BKN050 14/13 A3020 RMK AO2 SLP225 T01390128
KFLP 260715Z 27003KT 10SM OVC026 11/05 A2989 RMK AO1
KFLY 260715Z AUTO 01006KT 10SM CLR 02/M04 A2984 RMK AO2 T00231045
KFME 260700Z AUTO 07006KT 10SM CLR 08/05 A3030 RMK AO1
KFMH 260655Z 6SM BR OVC006 M00/M00 A3044 RMK AO2 PWINO FZRANO TSNO WEA/ E050014KT
KFMM 260715Z AUTO 11008KT 10SM SCT100 SCT120 06/00 A2982 RMK AO2 T00610002
KFMN 260653Z AUTO 00000KT 10SM OVC045 06/04 A2994 RMK AO2 SLP113 T00560044 401941006
KFMY 260653Z AUTO 07003KT 10SM BKN080 20/17 A3010 RMK AO2 SLP194 T02000167
KFNB 260653Z AUTO 34003KT 10SM OVC007 06/05 A2988 RMK AO2 SLP122 T00560050
KFNL 260656Z AUTO 35007KT 10SM CLR 08/01 A2981 RMK AO2 SLP065 T00830006 401831039
KFNT 260653Z AUTO 09007KT 9SM OVC011 04/02 A3010 RMK AO2 SLP199 T00390022
KFOA 260715Z AUTO 18008KT 10SM OVC085 15/13 A2987 RMK AO2 T01470130
KFOD 260715Z AUTO 03006KT 3SM OVC003 03/01 A2990 RMK AO1
KFOE 260718Z AUTO 33004KT 10SM SCT010 BKN021 OVC046 07/06 A2988 RMK AO2 T00720061
KFOK 260653Z AUTO 05007KT 10SM FEW080 BKN100 04/01 A3043 RMK AO2 SLP305 T00390006 TSNO
KFOT 260715Z AUTO 13005KT 10SM BKN090 06/05 A3012 RMK AO1
KFOZ 260712Z AUTO 00000KT 7SM BKN007 OVC017 00/M02 A3004 RMK AO2
KFPK 260716Z AUTO 07007KT 10SM BKN010 OVC055 05/04 A3005 RMK AO2 T00500038
KFPR 260653Z AUTO 11008KT 10SM CLR 21/16 A3011 RMK AO2 SLP196 T02110161
KFQD 260700Z AUTO 00000KT 10SM SCT047 BKN055 OVC070 15/11 A3019 RMK AO2 T01450106
KFRG 260703Z AUTO 05004KT 10SM OVC015 04/02 A3042 RMK AO2 RAE0655 P0000 T00440022
KFRI 260658Z AUTO 00000KT 10SM OVC009 06/06 A2990 RMK AO2 SLP128 T00640064
KFRM 260656Z AUTO 05007KT 4SM BR OVC003 03/02 A2994 RMK AO2 UPE29 SLP151 P0000 T00280022
KFRR 260650Z AUTO 35003KT 10SM BKN065 BKN075 BKN085 14/10 A3016 RMK AO1
KFSD 260656Z AUTO 10006KT 7SM OVC004 04/03 A2995 RMK AO2 SLP151 T00390028
KFSE 260714Z AUTO 15006KT 10SM CLR M01/M03 A3001 RMK AO2
KFSI 260658Z AUTO 03003KT 10SM CLR 08/06 A2987 RMK AO2 SLP113 T00840063
KFSM 260653Z AUTO 27003KT 10SM CLR 09/07 A2992 RMK AO2 SLP131 T00940072
KFSO 260715Z AUTO 00000KT 10SM CLR M10/M10 A3051 RMK AO2 T10981105
KFST 260653Z AUTO 16017G25KT 10SM CLR 18/00 A2982 RMK AO2 SLP060 T01780000
KFSW 260715Z AUTO 14005KT 10SM BKN011 OVC022 13/13 A2979 RMK AO2
KFTG 260715Z AUTO 19013G18KT 10SM SCT080 08/01 A2982 RMK AO2
KFTK 260713Z AUTO 15006KT 10SM -RA BKN007 OVC012 14/14 A2996 RMK AO2 CIG 007V009
KFTN 260715Z AUTO 12007KT 10SM FEW023 FEW032 22/19 A2982 RMK A01
KFTW 260653Z 12005KT 10SM CLR 14/08 A2989 RMK AO2 SLP117 T01390078 $
KFTY 260653Z 00000KT 6SM -RA BR FEW015 BKN030 OVC037 16/14 A3010 RMK AO2 RAB0554 SLP188 P0015 T01560139
KFUL 260653Z AUTO 00000KT 10SM CLR 14/12 A3003 RMK AO2 SLP167 T01440117
KFVE 260653Z AUTO 34014KT 10SM CLR M11/M21 A3039 RMK AO2 SLP309 T11111211
KFVX 260715Z AUTO 17003KT 10SM CLR 14/11 A3017 RMK AO2 T01430109
KFWA 260654Z 08013KT 7SM -RA OVC085 06/04 A3001 RMK AO2 RAB01 SLP161 P0004 T00560044
KFWB 260655Z AUTO 26003KT 8SM OVC008 08/08 A2990 RMK AO2
KFWC 260715Z AUTO 16003KT 10SM OVC080 14/13 A2987 RMK AO1 T01440131
KFWN 260653Z AUTO 03004KT 8SM -RA OVC025 02/01 A3040 RMK AO2 RAB31 SLP297 P0001 T00220011
KFWS 260715Z AUTO 00000KT 10SM CLR 09/07 A2992 RMK AO2 T00930066
KFWZ 260715Z AUTO 34012KT 5SM -SN BKN025 BKN075 BKN120 00/M01 A2985 RMK AO2
KFXE 260653Z 08013KT 10SM -RA FEW024 BKN034 OVC046 22/17 A3008 RMK AO2 RAB07 SLP188 P0003 T02170172 $
KFXY 260715Z AUTO 04006KT 1 1/2SM BR OVC002 02/02 A2991 RMK AO2
KFYE 260715Z AUTO 18008KT 10SM OVC007 15/14 A2992 RMK A01
KFYG 260655Z AUTO 21007KT 10SM BKN017 OVC065 11/10 A2985 RMK AO2
KFYJ 260715Z AUTO 16004KT 10SM CLR 14/10 A3021 RMK AO2 T01370095
KFYM 260715Z AUTO 17010KT 10SM BKN075 OVC085 14/13 A3000 RMK A01
KFYV 260653Z AUTO 00000KT 9SM OVC032 08/08 A2991 RMK AO2 SLP127 T00830078
KFZG 260715Z AUTO 14003KT 10SM CLR 17/15 A3015 RMK AO2 T01670151
KFZY 260654Z AUTO 00000KT 10SM FEW023 BKN100 02/00 A3037 RMK AO2 SLP288 T00170000
KGAD 260712Z AUTO 12004KT 10SM BKN020 14/14 A3005 RMK AO2
KGAF 260715Z AUTO 18007KT 8SM CLR 00/00 A2999 RMK AO2
KGAG 260653Z AUTO 12003KT 10SM CLR 08/05 A2987 RMK AO2 SLP105 T00780050
KGAO 260715Z AUTO 17003KT 10SM SCT014 SCT024 19/17 A2999 RMK AO2 T01870170
KGBD 260656Z AUTO 13004KT 10SM OVC006 06/04 A2992 RMK AO2 SLP136 T00560039
KGBG 260715Z AUTO 11003KT 10SM OVC010 14/13 A2979 RMK AO2 T01350134
KGBK 260715Z AUTO 16013KT 10SM CLR 23/21 A2999 RMK A01
KGCC 260706Z AUTO 33013KT 10SM SCT015 BKN022 OVC048 05/03 A2990 RMK AO2 T00500028 $
KGCD 260715Z AUTO 00000KT 10SM CLR 05/00 A2998 RMK AO2 T00480000
KGCK 260654Z 14006KT 10SM CLR 04/02 A2986 RMK AO2 SLP104 T00390022
KGCM 260715Z AUTO 00000KT 7SM CLR 04/03 A2994 RMK AO2
KGCN 260654Z 00000KT 10SM CLR 02/M01 A3003 RMK AO2 SLP137 T00171011 401171017
KGDB 260711Z AUTO 05003KT 7SM SCT008 OVC041 04/03 A2999 RMK AO2 T00350025
KGDJ 260715Z AUTO 12003KT 10SM CLR 14/08 A2991 RMK AO2 T01380080
KGDP 260551Z AUTO 17/M11 RMK AO2 SLPNO T01671106 PWINO $
KGDV 260656Z AUTO 27004KT 10SM FEW120 06/01 A2991 RMK AO2 SLP133 T00610006
KGED 260654Z AUTO 06011KT 9SM OVC007 08/06 A3029 RMK AO2 SLP256 T00780056 $
KGEG 260653Z 15009KT 10SM FEW055 FEW150 SCT250 03/M01 A2998 RMK AO2 SLP163 T00281006
KGEU 260150Z 25009KT 10SM SCT120 SCT250 24/00 A2985 RMK LAST
KGEV 260710Z AUTO 00000KT 10SM OVC020 11/08 A3019 RMK AO2 T01070080
KGEY 260653Z AUTO 07003KT 10SM FEW060 BKN080 BKN120 06/04 A2991 RMK AO2 SLP127 T00610044 401280033
KGEZ 260653Z AUTO 18013KT 10SM -RA FEW080 OVC100 17/12 A2996 RMK AO2 SLP139 P0001 T01670117
KGFA 260658Z AUTO 22004KT 10SM CLR 01/M04 A2994 RMK AO2 SLP159 T00051043 401281010 TSNO $
KGFK 260653Z AUTO 16006KT 9SM CLR 01/00 A2999 RMK AO2 SLP168 T00060000
KGFL 260653Z AUTO 02003KT 10SM CLR M05/M08 A3046 RMK AO2 SLP325 T10501078
KGGE 260715Z AUTO 19003KT 10SM CLR 12/11 A3021 RMK AO2
KGGG 260653Z AUTO 00000KT 10SM CLR 11/11 A2993 RMK AO2 SLP131 T01110106
KGGI 260715Z AUTO 03009KT 3SM -RA OVC002 05/05 A2985 RMK AO2 T00470045
KGGP 260715Z AUTO 10010KT 7SM BKN026 BKN033 OVC049 08/08 A2996 RMK AO2
KGGW 260653Z AUTO 12006KT 10SM OVC110 06/M02 A2988 RMK AO2 SLP125 T00561017 401560039
KGHB 260715Z AUTO 17009KT 6SM BR CLR 23/23 A2999 RMK A01
KGHG 260715Z AUTO VRB03KT 10SM CLR 02/01 A3045 RMK AO2
KGHW 260714Z AUTO 08003KT 10SM BKN014 03/01 A2999 RMK AO2
KGIC 260715Z AUTO 00000KT 10SM SCT050 OVC070 02/01 A3001 RMK AO1
KGIF 260653Z AUTO 00000KT 10SM FEW026 17/14 A3014 RMK AO2 SLP205 T01720144
KGJT 260653Z AUTO 26004KT 10SM BKN060 OVC085 08/02 A2986 RMK AO2 SLP077 T00830017 401830028
KGKJ 260653Z AUTO 10006KT 10SM BKN085 11/08 A3012 RMK AO2 SLP201 T01110078
KGKT 260715Z AUTO 15004KT 10SM CLR 19/08 A3001 RMK
KGKY 260653Z AUTO 15003KT 10SM CLR 09/08 A2990 RMK AO2 SLP122 T00890083 $
KGLD 260653Z AUTO 17009KT 10SM CLR 04/04 A2985 RMK AO2 SLP101 T00440039 401561006
KGLE 260715Z AUTO 00000KT 10SM CLR 09/06 A2992 RMK AO2 T00900062
KGLH 260659Z AUTO 15004KT 3SM BR SCT001 14/13 A2992 RMK AO2 T01390133
KGLR 260653Z AUTO 10008G16KT 050V130 7SM -RA OVC006 01/M02 A3012 RMK AO2 RAB45FZRAE45 SLP213 P0002 I1003 T00111017
KGLS 260652Z AUTO 20005KT 9SM CLR 22/21 A2994 RMK AO2 SLP140 T02220211
KGLW 260650Z AUTO 16006KT 10SM -RA SCT008 SCT015 OVC075 A2999 RMK AO2 P0003
KGLY 260715Z AUTO 29004KT 9SM BKN007 OVC016 09/09 A2986 RMK AO2
KGMJ 260715Z AUTO 00000KT 10SM OVC031 09/07 A2992 RMK AO2
KGMU 260653Z AUTO 16007KT 10SM BKN080 16/11 A3017 RMK AO2 SLP211 T01610106
KGNA 260656Z AUTO 06009KT 01/M02 A3012 RMK AO1 SLP209 T00111022 $
KGNC 260715Z AUTO 00000KT 10SM CLR 11/M02 A2984 RMK AO2 T01111021
KGNR 260656Z AUTO 34006KT M09/M19 A3039 RMK AO1 SLP315 T10891194
KGNT 260715Z AUTO 27003KT 10SM CLR M01/M02 A3000 RMK AO2 T10101019
KGNV 260653Z AUTO 00000KT 10SM CLR 16/14 A3015 RMK AO2 SLP207 T01560139
KGOK 260653Z AUTO 00000KT 10SM CLR 06/04 A2992 RMK AO2 SLP134 T00560044
KGON 260656Z AUTO 36003KT 8SM CLR 01/00 A3043 RMK AO2 SLP302 T00110000
KGOO 260715Z AUTO 00000KT 10SM CLR 06/05 A3009 RMK AO1
KGOP 260715Z AUTO 00000KT 10SM CLR 13/09 A2993 RMK AO2
KGOV 260718Z AUTO 08007KT 5SM -RA OVC005 00/00 A3011 RMK AO2
KGPC 260715Z AUTO 15005KT 5SM BR SCT024 BKN036 OVC075 13/13 A2992 RMK AO2 P0001
KGPH 260715Z AUTO 33007KT 10SM OVC008 07/06 A2987 RMK AO2
KGPI 260655Z AUTO 00000KT 10SM OVC090 02/M02 A2998 RMK AO2 SLP167 T00171017 401111006
KGPM 260715Z AUTO 00000KT 10SM CLR 14/08 A2992 RMK AO2 T01380077
KGPT 260653Z AUTO 18005KT 10SM CLR 20/18 A3000 RMK AO2 SLP158 T02000178
KGPZ 260656Z AUTO VRB03KT 10SM OVC009 M01/M02 A3006 RMK AO2 SLP198 T10061017 FZRANO
KGRB 260705Z AUTO 04010KT 2SM BR OVC003 02/02 A3004 RMK AO2 T00170017
KGRD 260656Z AUTO 12004KT 10SM CLR 13/10 A3018 RMK AO2 SLP216 T01280100
KGRF 260658Z AUTO 00000KT 10SM SCT049 OVC130 06/06 A3001 RMK AO2 SLP168 T00580058 $
KGRI 260653Z AUTO 04003KT 1SM R35/5000VP6000FT BR OVC002 03/03 A2991 RMK AO2 SLP143 T00330033
KGRK 260658Z 15005KT 5SM HZ CLR 15/09 A2989 RMK AO2A SLP116 T01480093
KGRR 260653Z AUTO 08015KT 5SM -RA OVC006 05/ A3004 RMK AO2 RAE04B20 SLP178 P0005 T0050 $
KGRY 260715Z AUTO 19011KT 5SM BR 22/21 A3001 RMK A01
KGSB 260658Z AUTO 00000KT 10SM CLR 15/14 A3020 RMK AO2 SLP229 T01520144 $
KGSH 260653Z AUTO 09011KT 7SM -RA BKN065 OVC080 07/04 A2999 RMK AO2 RAB06 SLP157 P0002 T00670044
KGSO 260654Z 19009KT 10SM FEW250 14/11 A3018 RMK AO2 SLP212 T01390111
KGSP 260653Z 16012KT 10SM CLR 14/11 A3016 RMK AO2 SLP204 T01440106
KGTB 260658Z AUTO 07006KT 10SM CLR M03/M05 A3037 RMK AO2 SLP294 T10311048
KGTF 260653Z 27014KT 10SM FEW110 04/M04 A2993 RMK AO2 SLP147 T00391044 401331011
KGTR 260715Z 16013G17KT 10SM SCT080 OVC090 A2993 RMK AO1
KGTU 260715Z 00000KT 10SM CLR 13/08 A2990 RMK AO1
KGUC 260656Z AUTO 35003KT 10SM CLR 02/M01 A2991 RMK AO2 RAB25E39 SLP105 P0000 T00221011 FZRANO
KGUL 260715Z AUTO 21013KT 7SM CLR 23/21 A2996 RMK A01
KGUP 260653Z AUTO 21010KT 10SM FEW029 BKN055 OVC075 03/00 A2999 RMK AO2 RAB39E53 SLP080 P0000 T00330000 401831067
KGUS 260718Z AUTO 09008KT 10SM OVC029 09/09 A2994 RMK AO2
KGUY 260653Z AUTO 12007KT 10SM CLR 07/M02 A2982 RMK AO2 SLP077 T00721017
KGVE 260715Z AUTO 00000KT 10SM CLR 10/09 A3017 RMK AO1 T01020090
KGVL 260701Z AUTO 15008KT 110V190 6SM -RA BR BKN027 BKN035 OVC055 15/13 A3013 RMK AO2 P0000 T01500133
KGVT 260655Z AUTO 00000KT 10SM CLR 08/07 A2993 RMK AO2
KGWB 260715Z AUTO 08009KT 5SM -RA SCT065 OVC090 05/03 A3002 RMK AO2
KGWO 260653Z AUTO 18004KT 10SM CLR 14/14 A2994 RMK AO2 SLP137 T01440139
KGWR 260715Z AUTO 3SM BR OVC006 01/01 A2998 RMK A01
KGWW 260705Z AUTO 00000KT 10SM CLR 13/12 A3022 RMK AO2 T01270117
KGXF 260658Z AUTO 21008KT 10SM CLR 18/01 A2989 RMK AO2 SLP113 T01820010 402850113
KGXY 260656Z AUTO 03006KT 10SM FEW095 07/01 A2981 RMK AO2 SLP084 T00720006 401891056
KGYB 260715Z AUTO 15003KT 10SM BKN003 16/13 A2992 RMK AO2 T01600130
KGYH 260715Z AUTO 13004KT 10SM SCT080 14/10 A3016 RMK AO2
KGYI 260715Z AUTO 13005KT 10SM CLR 11/07 A2991 RMK AO2 T01050071
KGYL 260716Z AUTO 06004KT 7SM OVC009 04/04 A2997 RMK AO2 T00350035
KGYR 260347Z 30005KT 10SM SCT250 21/00 A2987 RMK LAST
KGYY 260715Z AUTO 12006KT 7SM SCT060 SCT070 OVC080 11/10 A2991 RMK AO2 T01140101
KGZH 260711Z AUTO 00000KT 3/4SM BR VV002 14/13 A3005 RMK AO2 T01440133
KGZN 260700Z AUTO 14011KT 10SM CLR 13/06 A2988 RMK AO2
KHAE 260715Z AUTO 19007KT 5SM BR OVC002 12/11 A2979 RMK AO2
KHAF 260715Z AUTO 30007KT 7SM FEW003 BKN020 12/09 A3013 RMK AO2
KHAI 260714Z AUTO 10006KT 10SM -RA BKN055 BKN075 OVC085 07/05 A3002 RMK AO2 T00650051
KHAO 260653Z AUTO 28003KT 10SM -RA FEW055 BKN075 OVC090 16/14 A3000 RMK AO2 RAB50 SLP156 P0000 T01560139
KHBE 260715Z AUTO 17009KT 10SM -RA SCT070 SCT075 OVC090 15/12 A2996 RMK AO2
KHBG 260717Z AUTO 13005KT 1/4SM FG VV002 14/14 A3001 RMK AO2 T01440139
KHBI 260715Z AUTO 18008KT 10SM CLR 16/12 A3021 RMK AO2 T01550115
KHBR 260653Z AUTO 08006KT 10SM CLR 07/06 A2987 RMK AO2 SLP111 T00720056
KHBV 260715Z AUTO 15007KT 5SM BR CLR 19/18 A2987 RMK AO2 T01900182
KHCD 260712Z AUTO 05004KT 4SM DZ BKN012 BKN017 OVC044 03/03 A2998 RMK AO2 T00320028
KHCO 260714Z AUTO 19007KT 10SM BKN090 02/00 A2998 RMK AO2
KHDC 260715Z AUTO 00000KT 4SM BR BKN012 BKN025 15/13 A2999 RMK AO2
KHDE 260715Z AUTO 11003KT 1 3/4SM BR OVC003 04/03 A2990 RMK AO2 T00400034
KHDN 260715Z AUTO 13003KT 10SM BKN022 OVC028 04/01 A2991 RMK AO1
KHDO 260651Z AUTO 13003KT 10SM CLR 15/08 A2988 RMK AO2 SLP106 T01500083
KHEF 260656Z AUTO 08009G16KT 10SM 14/08 A3021 RMK AO2 SLP241 T01390078 $
KHEI 260653Z AUTO 00000KT 10SM OVC060 06/02 A2990 RMK AO2 SLP133 T00610017 401500006
KHEQ 260715Z AUTO 14005KT 10SM CLR 05/03 A2985 RMK AO2
KHEY 260715Z AUTO 00000KT 9SM OVC090 17/16 A3005 RMK AO2 PRESFR SLP176
KHEZ 260715Z AUTO 17006KT 10SM BKN018 OVC026 18/14 A2996 RMK AO1
KHFD 260716Z AUTO 03004KT 2 1/2SM BR CLR M01/M01 A3045 RMK AO2 T10111011
KHFF 260656Z AUTO 00000KT 10SM CLR 10/09 A3020 RMK AO2 SLP242 T01040094 TSNO $
KHFJ 260650Z AUTO 21004KT 10SM OVC026 07/06 A2989 RMK AO2
KHFY 260715Z AUTO 16008KT 10SM SCT050 OVC085 15/14 A2996 RMK AO2 T01480137
KHGR 260653Z AUTO 06009KT 6SM HZ BKN075 12/08 A3022 RMK AO2 SLP241 T01170083
KHHF 260715Z AUTO 12005KT 10SM CLR 07/06 A2985 RMK AO2 T00740062
KHHG 260715Z AUTO 08005KT 10SM SCT005 BKN048 OVC110 06/05 A2999 RMK AO2 T00560050
KHHR 260653Z AUTO 22003KT 10SM CLR 14/12 A3004 RMK AO2 SLP173 T01440122 401890128
KHHV 260710Z AUTO 16009G17KT 6SM BR CLR 23/21 A2993 RMK A01
KHHW 260715Z AUTO 00000KT 10SM CLR 11/09 A2992 RMK AO2 T01090086
KHIB 260653Z AUTO 08003KT 10SM OVC009 M01/M02 A3005 RMK AO2 SLP194 T10111022
KHIE 260652Z AUTO 19004KT 10SM CLR M13/M16 A3043 RMK AO2 SLP324 I1000 T11331161
KHIF 260658Z AUTO 12004KT 10SM OVC075 04/02 A3002 RMK AO2 SLP162 T00350018 400970026
KHII 260715Z AUTO 35007KT 10SM CLR 20/02 A2989 RMK AO2
KHIO 260653Z 16003KT 10SM BKN041 OVC050 08/06 A3002 RMK AO2 SLP166 T00780061
KHJH 260715Z AUTO 02004KT 4SM BR BKN006 OVC010 04/04 A2991 RMK AO2 T00400035
KHJO 260703Z AUTO 00000KT 2SM BR CLR 09/09 A3011 RMK AO2 T00890089
KHKA 260653Z AUTO 27005KT 10SM BKN070 OVC090 14/11 A2993 RMK AO2 SLP133 T01390111
KHKS 260653Z AUTO 15005KT 10SM SCT060 16/14 A2996 RMK AO2 RAE0557 SLP139 P0000 T01560144
KHKY 260653Z AUTO 19007KT 10SM CLR 14/10 A3018 RMK AO2 SLP204 T01390100
KHLC 260653Z AUTO 07003KT 6SM BR OVC013 04/04 A2991 RMK AO2 SLP134 T00440044 TSNO
KHLG 260653Z AUTO 11008KT 10SM SCT070 BKN090 16/09 A3008 RMK AO2 SLP182 T01610094
KHLN 260653Z AUTO 23008KT 10SM CLR 06/M02 A2997 RMK AO2 SLP163 T00561017 401330033
KHLR 260658Z AUTO 12005KT 10SM CLR 15/09 A2987 RMK AO2 SLP109 T01450094
KHLX 260715Z AUTO 18006KT 10SM SCT032 12/09 A3016 RMK AO2 T01200090
KHMN 260658Z AUTO 00000KT 10SM CLR 18/M09 A2992 RMK AO2 SLP068 T01811090 402470035 $
KHMP 260715Z AUTO 21003KT 7SM RA SCT024 BKN038 OVC045 16/16 A3012 RMK AO2 T01620161
KHMZ 260715Z AUTO 32004KT 10SM OVC019 10/06 A3021 RMK AO2 T00980062
KHNB 260656Z AUTO 14010KT 10SM -RA BKN023 BKN039 OVC075 14/13 A2993 RMK AO2 SLP133 P0002 T01440133
KHND 260656Z AUTO 17005KT 10SM CLR 12/02 A3000 RMK AO2 SLP150 T01220022
KHNR 260715Z AUTO 01008KT 3SM BR OVC003 04/04 A2991 RMK AO2
KHNZ 260705Z AUTO 19004KT 10SM CLR 13/09 A3020 RMK AO2 T01300092
KHOB 260635Z AUTO 15006KT 10SM CLR 12/M04 A2985 RMK AO2
KHOE 260715Z AUTO 00000KT 10SM CLR 16/15 A3015 RMK AO2
KHON 260702Z AUTO 14007KT 10SM SCT007 SCT011 OVC023 04/03 A2995 RMK AO2 T00390033
KHOP 260658Z AUTO 17006KT 10SM FEW043 SCT055 SCT085 16/13 A2993 RMK AO2 SLP134 T01550134
KHOT 260653Z AUTO 00000KT 10SM CLR 09/09 A2993 RMK AO2 SLP133 T00940089 TSNO
KHOU 260653Z 19004KT 7SM BKN008 21/19 A2993 RMK AO2 CIG 007V011 SLP140 T02060194
KHPN 260656Z 09006KT 10SM BKN016 03/00 A3040 RMK AO2 SLP300 T00330000
KHQG 260715Z AUTO 12013KT 10SM CLR 06/04 A2983 RMK AO2 T00610035
KHQI 260715Z AUTO 00000KT 5SM BR FEW016 23/22 A2995 RMK A01
KHQM 260653Z AUTO 07008KT 8SM BKN043 OVC055 06/04 A2999 RMK AO2 SLP159 T00560044
KHQU 260715Z AUTO 22004KT 10SM CLR 15/12 A3020 RMK AO2 T01550119
KHQZ 260715Z AUTO 08003KT 10SM CLR 11/08 A2991 RMK AO1 T01070084
KHRI 260653Z AUTO 19005KT 10SM FEW060 08/03 A3001 RMK AO2 SLP162 T00830033
KHRJ 260700Z AUTO 00000KT 10SM CLR 14/11 A3021 RMK AO2 T01370110
KHRL 260652Z AUTO 15008KT 5SM BR CLR 20/20 A2989 RMK AO2 SLP122 T02000200
KHRO 260701Z AUTO 00000KT 10SM OVC013 09/07 A2990 RMK AO2 T00890072
KHRT 260658Z 14009KT 10SM -DZ OVC012 19/19 A3004 RMK AO2A DZB08 SLP174 P0000 T01900190 $
KHRX 260715Z AUTO 18006KT 10SM CLR 10/00 A2982 RMK AO2 T01030003
KHSB 260715Z AUTO 18005KT 10SM -RA SCT075 OVC100 14/13 A2989 RMK AO2 T01380130
KHSD 260715Z AUTO 08004KT 10SM CLR 08/06 A2991 RMK A01
KHSE 260651Z AUTO 29003KT 6SM HZ BKN050 17/13 A3024 RMK AO2 SLP240 T01720128 TSNO
KHSG 260655Z AUTO 00000KT 10SM -RA SCT025 BKN031 OVC046 03/02 A2995 RMK AO2 T00310019 401160020
KHSI 260711Z AUTO 04003KT 4SM BR BKN005 OVC016 04/03 A2991 RMK AO2 CIG 002V008 T00390028
KHSP 260715Z AUTO 00000KT 10SM CLR 10/05 A3021 RMK AO2
KHST 260708Z AUTO 13005KT 5SM R06/5000FT -RA BR SCT002 BKN025 OVC039 21/20 A3006 RMK AO2 SLP182
KHSV 260703Z AUTO 15006KT 10SM BKN013 14/14 A3000 RMK AO2 T01440139 $
KHTL 260653Z AUTO 10009KT 9SM -RA OVC007 01/01 A3012 RMK AO2 SLP211 P0004 T00110006
KHTO 260715Z AUTO 04003KT 10SM SCT100 03/00 A3042 RMK AO2 T00250000
KHTS 260651Z 17010KT 10SM FEW075 19/07 A3003 RMK AO2 SLP163 T01890072
KHUA 260713Z AUTO 19006KT 10SM BKN009 BKN014 14/13 A3000 RMK AO2 CIG 009V015 BKN009 V SCT SLP156
KHUF 260704Z 16008KT 6SM RA BR FEW008 BKN013 OVC037 15/13 A2991 RMK AO2 P0003 T01500133
KHUL 260653Z AUTO 35009KT 10SM CLR M08/M18 A3043 RMK AO2 SLP312 T10781178
KHUM 260715Z AUTO 17004KT 7SM CLR 19/19 A2998 RMK AO2 T01920185
KHUT 260652Z AUTO 00000KT 8SM OVC006 06/04 A2992 RMK AO2 SLP129 T00610044
KHVE 260715Z AUTO 31009G14KT 10SM OVC075 10/00 A2994 RMK AO2
KHVN 260653Z AUTO 02007KT 10SM BKN100 02/00 A3043 RMK AO2 SLP303 T00170000
KHVR 260653Z AUTO 25006KT 10SM BKN090 OVC120 05/M02 A2990 RMK AO2 SLP133 T00501022 401500028
KHVS 260715Z AUTO 00000KT 10SM SCT042 13/11 A3019 RMK AO2
KHWD 260654Z 28005KT 10SM BKN018 12/07 A3012 RMK AO2 SLP210 T01220072
KHWO 260653Z AUTO 10011KT 10SM BKN040 BKN046 BKN100 22/18 A3009 RMK AO2 SLP190 T02170183
KHWV 260656Z AUTO VRB03KT 10SM FEW016 FEW065 BKN110 04/02 A3043 RMK AO2 SLP304 T00440017 TSNO
KHWY 260715Z AUTO 04007KT 10SM OVC065 18/09 A3019 RMK AO2 T01770087
KHXD 260715Z AUTO VRB04KT 10SM CLR 17/15 A3018 RMK AO2
KHYA 260656Z AUTO 03005KT 9SM OVC008 02/01 A3042 RMK AO2 CIG 006V010 SLP301 T00170011 TSNO
KHYI 260715Z 14005KT 10SM OVC006 17/13 A2991 RMK AO1
KHYR 260653Z AUTO 03005KT 9SM OVC009 02/M01 A3003 RMK AO2 RAB07E33 SLP182 P0000 T00171006
KHYS 260656Z AUTO 14006KT 10SM 06/04 A2991 RMK AO2 SLP134 T00610039 $
KHYW 260715Z AUTO 00000KT 7SM CLR 10/08 A3020 RMK AO2
KHYX 260717Z AUTO 06007KT 10SM OVC017 03/01 A3012 RMK AO2
KHZD 260710Z AUTO 20007KT 1 3/4SM BR 15/14 A2993 RMK A01 VIS 1 1/4V4
KHZE 260715Z AUTO VRB04KT 10SM BKN043 OVC050 07/01 A2993 RMK AO2
KHZL 260715Z AUTO 11008G15KT 10SM OVC007 03/01 A3032 RMK AO2
KHZR 260715Z AUTO 00000KT 10SM SCT019 BKN023 OVC035 17/16 A2997 RMK AO2 T01710162
KHZX 260713Z AUTO 08004KT 10SM OVC008 00/00 A3004 RMK AO2
KHZY 260653Z AUTO 06004KT 10SM FEW085 03/02 A3012 RMK AO2 SLP204 T00330022 TSNO
KI16 260715Z AUTO 10SM CLR 09/06 A3015 RMK AO2 T00940064
KI19 260712Z AUTO 00000KT 10SM BKN075 18/09 A3001 RMK AO2 T01780091
KI23 260713Z AUTO 00000KT 10SM CLR 11/07 A3000 RMK AO1
KI35 260715Z AUTO 06006KT 10SM CLR 17/08 A3005 RMK AO1
KI63 260715Z AUTO 16007KT 10SM OVC006 12/11 A2979 RMK AO2 T01190112
KI67 260715Z AUTO 00000KT 10SM BKN070 OVC080 15/13 A2999 RMK AO1
KI69 260715Z AUTO 23004KT 10SM OVC070 18/09 A3001 RMK AO2 T01760087
KI75 260715Z AUTO 35007KT 1 1/4SM BR OVC002 06/06 A2984 RMK AO2 T00570055
KIAB 260713Z AUTO 21003KT 7SM R01/5500FT OVC004 06/06 A2992 RMK AO2 SLP139
KIAD 260652Z 07010KT 10SM BKN080 BKN240 12/07 A3023 RMK AO2 SLP234 T01170072 $
KIAG 260653Z AUTO 09011G20KT 10SM OVC008 02/00 A3025 RMK AO2 SLP257 T00220000 $
KIAH 260704Z 19005KT 5SM BR BKN004 19/17 A2993 RMK AO2 T01890172 $
KIBM 260715Z AUTO 17008KT 10SM BKN120 07/01 A2983 RMK AO2 T00670005
KICL 260715Z AUTO 35004KT OVC008 06/05 A2990 RMK AO2 PWINO
KICR 260653Z AUTO 17007KT 10SM OVC005 05/03 A2990 RMK AO2 SLP131 T00500033
KICT 260653Z 30003KT 4SM BR OVC006 06/06 A2991 RMK AO2 SLP134 T00610061 $
KIDA 260653Z AUTO 19009KT 10SM CLR 03/M03 A2998 RMK AO2 SLP155 T00281033 401060028
KIDI 260715Z AUTO 10009G15KT 10SM FEW032 FEW049 FEW055 11/08 A3018 RMK A01
KIDP 260715Z AUTO 00000KT 10SM OVC022 08/05 A2992 RMK AO2
KIEN 260652Z AUTO 19009KT 10SM CLR 10/M02 A2981 RMK AO2 SLP079 T01001022 402110022
KIER 260715Z AUTO 00000KT 10SM CLR 11/11 A2995 RMK AO2 T01100110
KIFA 260715Z AUTO 04006KT 2SM RA OVC002 04/04 A2989 RMK AO2 T00410036
KIFP 260715Z AUTO 36009KT 10SM CLR 20/02 A2991 RMK AO2
KIGM 260651Z AUTO 12005KT 10SM CLR 07/M01 A2999 RMK AO2 SLP117 T00671011 402000067
KIGQ 260715Z AUTO 13006KT 7SM SCT007 BKN039 BKN065 11/11 A2991 RMK AO2 T01050105
KIGX 260656Z AUTO 00000KT 10SM CLR 13/11 A3020 RMK AO2 SLP223 T01330111
KIIB 260715Z AUTO 05012KT 7SM OVC004 03/03 A2987 RMK AO2
KIIY 260715Z AUTO 15007KT 10SM CLR 16/13 A3014 RMK AO2
KIJD 260652Z AUTO 00000KT 7SM CLR M01/M02 A3044 RMK AO2 SLP311 I1000 T10111017
KIJX 260715Z AUTO 18010G14KT 10SM OVC012 12/11 A2982 RMK AO2 T01190106
KIKG 260715Z AUTO 12004KT 3SM BR CLR 20/20 A2988 RMK AO2 T01980198
KIKK 260715Z AUTO 10007KT 7SM SCT006 BKN037 OVC042 12/12 A2989 RMK AO2 T01230120
KIKT 260715Z AUTO VRB05G10KT 8SM CLR 21/18 A3002 RMK A01
KIKV 260715Z AUTO 03008KT 1 3/4SM BR OVC003 05/04 A2987 RMK AO2
KIKW 260713Z AUTO 06005KT 10SM -DZ OVC008 03/01 A3014 RMK AO2 T00250013
KILE 260656Z AUTO 11003KT 10SM CLR 16/10 A2991 RMK AO2 SLP139 T01560100
KILG 260651Z 06012KT 10SM FEW065 BKN080 OVC095 07/04 A3033 RMK AO2 SLP272 T00720039
KILM 260653Z AUTO 15003KT 10SM FEW050 16/13 A3021 RMK AO2 SLP229 T01560133 $
KILN 260654Z AUTO 14006KT 10SM OVC080 16/10 A2999 RMK AO2 SLP153 T01560100
KIML 260710Z AUTO 13008KT 1/4SM FG VV002 03/03 A2987 RMK AO2 T00330028
KIMM 260715Z AUTO 00000KT 10SM BKN044 OVC060 18/17 A3009 RMK AO2
KIMS 260714Z AUTO 19008KT 7SM SCT008 SCT012 OVC049 15/13 A3001 RMK AO1
KIMT 260654Z AUTO 12007KT 7SM -FZRA OVC005 00/M02 A3008 RMK AO2 SLP198 P0000 I1002 T00001017 $
KIND 260654Z 12005KT 9SM -RA FEW041 BKN050 OVC080 14/13 A2994 RMK AO2 SLP136 P0001 T01390133
KINF 260715Z AUTO 00000KT 10SM CLR 14/14 A3014 RMK AO2
KINJ 260715Z AUTO 11008KT 10SM CLR 16/10 A2991 RMK AO2 T01550095
KINK 260653Z AUTO 13009KT 10SM CLR 14/M03 A2980 RMK AO2 RAB41E51 SLP060 P0000 T01441033 $
KINL 260655Z AUTO 15004KT 10SM OVC013 M01/M03 A3005 RMK AO2 SLP193 T10061033
KINS 260658Z AUTO 25005KT 10SM CLR 10/M01 A2999 RMK AO2 SLP133 T01021012 $
KINT 260654Z AUTO 18005KT 10SM CLR 15/10 A3019 RMK AO2 SLP216 T01500100
KINW 260656Z AUTO 29006KT 10SM FEW065 06/M01 A3000 RMK AO2 SLP122 T00611011 402110017
KIOB 260715Z AUTO 00000KT 10SM CLR 14/10 A3003 RMK AO2
KIOW 260652Z AUTO 03008KT 1 1/2SM BR OVC002 07/07 A2984 RMK AO2 SLP110 T00720067
KIPJ 260715Z AUTO 00000KT 10SM CLR 14/10 A3019 RMK AO2 T01400104
KIPL 260653Z AUTO 28009KT 10SM CLR 16/08 A2990 RMK AO2 SLP125 T01610078
KIPT 260654Z AUTO 07006KT 10SM OVC016 07/03 A3032 RMK AO2 SLP267 T00670033 TSNO
KIRK 260655Z AUTO 30007KT 6SM BR OVC003 08/08 A2981 RMK AO2 SLP100 T00780078 $
KIRS 260714Z AUTO 10011KT 10SM -RA OVC048 06/05 A3001 RMK AO2 T00570047
KISM 260656Z AUTO 00000KT 10SM FEW030 17/15 A3014 RMK AO2 SLP209 T01720150
KISN 260652Z AUTO 01007KT 10SM CLR 06/01 A2990 RMK AO2 SLP131 T00610006
KISO 260700Z AUTO 00000KT 10SM CLR 14/12 A3022 RMK AO2 T01350122
KISP 260710Z AUTO 06008KT 10SM FEW018 FEW023 OVC050 04/02 A3041 RMK AO2 T00440022
KISQ 260559Z AUTO 09010G18KT 7SM UP OVC007 M01/M01 A3017 RMK AO2 P0001
KISW 260654Z AUTO 09007KT 7SM OVC005 01/01 A3001 RMK AO2 RAE03B52E53UPB39E52 SLP172 P0000 T00110011
KITH 260656Z AUTO 08003KT 9SM -RA OVC007 02/01 A3033 RMK AO2 SLP281 P0001 T00170011
KITR 260653Z AUTO 14008KT 10SM CLR 04/03 A2984 RMK AO2 SLP091 T00440033 401561011 $
KIWA 260715Z AUTO 31006KT 10SM CLR 16/00 A2990 RMK AO2
KIWD 260718Z AUTO 06003KT 3SM UP BR BKN006 OVC010 00/M01 A3005 RMK AO2 UPE02B18SNB02E18 CIG 002V009 P0002 FZRANO
KIWI 260653Z AUTO VRB03KT 10SM CLR M01/M14 A3047 RMK AO2 SLP317 T10111139
KIXA 260700Z AUTO 17003KT 10SM CLR 14/11 A3021 RMK AO2
KIXD 260653Z AUTO 31007KT 10SM OVC006 07/06 A2988 RMK AO2 SLP119 T00670056
KIYA 260655Z AUTO 00000KT 10SM OVC016 19/19 A2997 RMK AO2
KIZA 260715Z AUTO 28005KT 7SM OVC008 10/08 A3007 RMK AO2
KIZG 260654Z AUTO 19004KT 10SM CLR M08/M12 A3046 RMK AO2 SLP323 T10831117
KJAC 260715Z AUTO 18006KT 10SM CLR M03/M04 A2998 RMK AO1
KJAN 260654Z AUTO 17010KT 10SM OVC009 17/15 A2996 RMK AO2 SLP142 T01670150
KJAQ 260715Z AUTO 00000KT 10SM CLR 08/06 A3009 RMK AO1 T00810061
KJAS 260715Z AUTO 00000KT 10SM CLR 12/12 A2997 RMK AO2 T01240119
KJAU 260715Z AUTO 00000KT 9SM FEW008 SCT044 BKN060 14/11 A3006 RMK A01
KJAX 260656Z 27004KT 10SM SCT250 15/14 A3015 RMK AO2 SLP209 T01500144
KJBR 260653Z AUTO 00000KT 10SM BKN120 12/09 A2992 RMK AO2 SLP130 T01220089 $
KJCA 260715Z AUTO 17007KT 10SM SCT050 SCT060 OVC075 17/13 A3012 RMK AO2
KJCT 260651Z AUTO 02007KT 10SM CLR 09/03 A2989 RMK AO2 SLP095 T00940028
KJDD 260715Z AUTO 00000KT 10SM CLR 09/09 A2992 RMK AO2
KJDN 260648Z AUTO 00000KT 05/01 A2989 RMK AO1 SLP129 T00500006 401670028
KJEF 260653Z AUTO 22008KT 4SM BR OVC006 11/09 A2985 RMK AO2 CIG 005V010 SLP098 T01110089
KJER 260653Z AUTO 00000KT 10SM CLR 03/M02 A3002 RMK AO2 SLP167 T00331017 401220033
KJES 260715Z AUTO 00000KT 10SM SCT055 OVC075 15/13 A3017 RMK AO2
KJFK 260651Z 05007KT 10SM -RA OVC015 06/03 A3043 RMK AO2 RAB18 SLP302 P0001 T00560028
KJFX 260715Z AUTO 00000KT 10SM BKN009 15/15 A3001 RMK AO2 PWINO
KJFZ 260715Z AUTO 00000KT 10SM CLR 14/08 A3012 RMK AO2 T01400081
KJGG 260715Z AUTO 00000KT 10SM CLR 15/12 A3021 RMK AO1
KJHN 260715Z AUTO 12010KT 10SM CLR 05/03 A2982 RMK AO2 T00450033
KJHW 260715Z AUTO 14006KT 10SM SCT065 06/02 A3017 RMK AO1
KJKA 260715Z AUTO 18007KT 10SM SCT011 17/17 A3004 RMK AO2 T01730173
KJKJ 260714Z AUTO 13004KT 10SM OVC022 01/M01 A3001 RMK AO2
KJKL 260653Z AUTO 18003KT 10SM CLR 18/07 A3004 RMK AO2 SLP160 T01780072
KJLN 260653Z AUTO 24006KT 10SM OVC010 08/07 A2990 RMK AO2 SLP125 T00830067
KJMR 260717Z AUTO 07004KT 10SM OVC018 01/M02 A3003 RMK AO2
KJMS 260656Z AUTO 18009KT 1/2SM FG VV002 00/00 A2995 RMK AO2 SLP157 I1001 T00000000
KJNX 260720Z AUTO 00000KT 10SM CLR 11/11 A3021 RMK AO2
KJOT 260715Z AUTO 10006KT 3SM BR CLR 12/12 A2988 RMK AO2 T01160115
KJQF 260710Z AUTO 00000KT 10SM CLR 15/11 A3022 RMK AO2
KJRB 260715Z 03012KT 10SM OVC050 05/02 A3042 RMK AO2 SLP304 PWINO FZRANO RVRNO
KJSO 260715Z AUTO 00000KT 10SM CLR 13/10 A2994 RMK AO2 T01410097
KJST 260654Z AUTO 09007KT 10SM CLR 09/07 A3017 RMK AO2 SLP215 T00940072
KJSV 260715Z AUTO 00000KT 10SM CLR 07/05 A2993 RMK AO2
KJTC 260715Z AUTO VRB04KT 10SM CLR M00/M04 A3005 RMK AO2
KJVL 260715Z AUTO 07008KT 3SM BR OVC004 06/06 A2990 RMK AO2
KJVW 260715Z AUTO 16005KT 10SM BKN060 BKN070 17/16 A2995 RMK AO2
KJWG 260715Z AUTO 08004KT 7SM CLR 06/06 A2990 RMK AO2 T00600060
KJWN 260715Z AUTO 09003KT 10SM FEW055 SCT070 BKN080 14/13 A2996 RMK
KJWY 260715Z AUTO 00000KT 10SM CLR 10/08 A2992 RMK AO2 T01000081
KJXI 260715Z AUTO 00000KT 10SM TS CLR 10/10 A2993 RMK AO2 LTG DSNT NW T01000095
KJXN 260656Z AUTO 10004KT 10SM OVC010 05/03 A3007 RMK AO2 SLP188 T00500028 $
KJYG 260715Z AUTO 00000KT 3SM RA OVC005 03/02 A2996 RMK AO2 P0004
KJYL 260715Z AUTO 00000KT 10SM SCT080 A3019 RMK AO2
KJYM 260714Z AUTO 11005KT 7SM OVC007 03/02 A3005 RMK AO2
KJYO 260715Z AUTO 09009G17KT 10SM BKN085 11/08 A3025 RMK AO2
KJYR 260715Z AUTO 02005KT 5SM BR OVC003 03/03 A2990 RMK AO2
KJZI 260715Z AUTO 12004KT 10SM CLR 16/15 A3018 RMK AO2
KJZP 260715Z AUTO 16004KT 3SM BKN003 BKN013 OVC023 A3014 RMK AO2
KK88 260715Z AUTO 00000KT 7SM OVC010 07/07 A2990 RMK AO1 T00730073
KKLS 260656Z AUTO 00000KT 10SM OVC060 06/06 A3003 RMK AO2 SLP173 T00610056
KKY8 260715Z AUTO 15009G17KT 9SM FEW046 OVC070 15/15 A2992 RMK AO1 P0001
KL18 260715Z AUTO 09003KT 10SM BKN036 13/12 A3005 RMK AO2
KL35 260715Z AUTO 00000KT 10SM CLR M02/M04 A3008 RMK AO2
KLAA 260653Z AUTO 10008KT 10SM CLR 04/M06 A2978 RMK AO2 SLP068 T00391056 401941044
KLAF 260654Z AUTO 16009KT 8SM -RA FEW028 BKN046 OVC075 14/14 A2991 RMK AO2 RAB19 SLP126 P0006 T01440139
KLAL 260715Z AUTO 00000KT 10SM CLR 17/16 A3013 RMK AO2
KLAM 260715Z AUTO 31006KT 7SM -RA SCT020 BKN033 OVC070 04/01 A2996 RMK AO2 T00400009
KLAN 260653Z 06006KT 10SM OVC009 05/03 A3009 RMK AO2 SLP195 T00500028
KLAR 260653Z AUTO 28008KT 10SM -RA BKN017 OVC024 03/01 A2989 RMK AO2 SLP065 P0000 T00280011 401391044
KLAS 260656Z 01006KT 10SM FEW100 16/02 A2997 RMK AO2 SLP137 T01560017
KLAW 260653Z AUTO 00000KT 10SM CLR 09/06 A2988 RMK AO2 SLP114 T00890061
KLAX 260653Z 26007KT 10SM FEW008 14/12 A3004 RMK AO2 SLP170 T01390122
KLBB 260653Z 15012KT 10SM CLR 13/01 A2983 RMK AO2 SLP068 T01280006
KLBE 260715Z AUTO 00000KT 10SM CLR 15/09 A3013 RMK AO2
KLBF 260653Z AUTO 18004KT 10SM OVC006 05/03 A2989 RMK AO2 SLP120 T00500033
KLBL 260715Z 11008KT 10SM CLR 06/02 A2985 RMK AO1
KLBT 260654Z AUTO 00000KT 10SM CLR 12/12 A3020 RMK AO2 SLP225 T01220117
KLBX 260653Z AUTO 19005KT 4SM BR BKN009 OVC018 20/19 A2993 RMK AO2 SLP136 T02000194
KLCG 260715Z AUTO 04003KT 1/2SM FG OVC003 03/03 A2991 RMK AO2 T00330031
KLCH 260703Z AUTO 00000KT 1/4SM FG BKN006 OVC020 18/18 A2995 RMK AO2 T01830178 $
KLCI 260708Z AUTO 00000KT 3SM BR CLR M08/M09 A3046 RMK AO2 FZRANO
KLCK 260715Z AUTO 00000KT 10SM CLR 13/10 A2999 RMK AO2 T01310097
KLCQ 260715Z AUTO 00000KT 5SM BR SCT060 13/13 A3015 RMK AO2
KLDJ 260735Z AUTO 10012KT 10SM -RA SCT024 BKN036 OVC050 05/01 A3042 RMK AO2 P0001 T00480012
KLDM 260714Z AUTO 10006KT 10SM OVC008 04/03 A3002 RMK AO2 T00350033
KLEB 260653Z AUTO 00000KT 10SM CLR M06/M07 A3046 RMK AO2 SLP324 I1000 T10561072
KLEE 260653Z AUTO 11005KT 10SM CLR 18/15 A3014 RMK AO2 SLP204 T01780150
KLEW 260656Z AUTO 27003KT 10SM CLR M02/M12 A3046 RMK AO2 SLP332 T10221122 FZRANO
KLEX 260654Z 21006KT 10SM FEW070 16/12 A3002 RMK AO2 SLP158 T01610122 $
KLFI 260658Z AUTO 20005KT 10SM CLR 16/11 A3021 RMK AO2 SLP237 T01580114 $
KLFK 260653Z AUTO 00000KT 10SM CLR 10/09 A2994 RMK AO2 SLP135 T01000094
KLFT 260653Z AUTO 00000KT 8SM OVC020 20/18 A2997 RMK AO2 SLP147 T02000183
KLGA 260651Z 06015KT 10SM SCT015 BKN025 OVC050 06/01 A3042 RMK AO2 SLP299 T00560011
KLGB 260653Z 00000KT 10SM CLR 14/12 A3004 RMK AO2 SLP170 T01440117
KLGC 260715Z AUTO 16006KT 7SM RA SCT070 OVC090 17/17 A3007 RMK AO2 T01660166
KLGD 260715Z AUTO 00000KT 10SM CLR 03/01 A2999 RMK AO1 P0001
KLGU 260651Z AUTO 16004KT 10SM CLR 04/02 A3002 RMK AO2 SLP163 T00440017 401000033
KLHB 260715Z AUTO 00000KT 10SM CLR 13/11 A2992 RMK AO2 T01260110
KLHM 260715Z AUTO 12003KT 10SM CLR 08/05 A3008 RMK AO1
KLHQ 260653Z AUTO 00000KT 10SM CLR 13/09 A3001 RMK AO2 SLP159 T01280094
KLHW 260658Z AUTO 00000KT 10SM FEW060 14/13 A3016 RMK AO2 SLP216 T01390126
KLHX 260653Z AUTO 11014KT 10SM CLR 09/M03 A2977 RMK AO2 SLP048 T00891033 401890000 $
KLHZ 260700Z AUTO 00000KT 10SM CLR 13/11 A3023 RMK AO2
KLIC 260655Z AUTO 13003KT 10SM FEW075 04/M01 A2984 RMK AO2 SLP070 T00441006 401561061
KLIT 260653Z 33003KT 10SM FEW060 11/08 A2994 RMK AO2 SLP139 T01060083
KLJF 260713Z AUTO 09007KT 10SM OVC013 04/02 A2997 RMK AO2
KLKR 260715Z AUTO 19003KT 10SM CLR 15/14 A3020 RMK AO2 PWINO
KLKU 260715Z AUTO 15003KT 10SM CLR 14/12 A3016 RMK AO2
KLKV 260715Z AUTO 19009KT 10SM BKN100 03/M02 A3004 RMK AO1
KLLJ 260655Z AUTO 14003KT 10SM CLR 01/M06 A3000 RMK AO2 SLP155 T00111061 401170006
KLLQ 260653Z AUTO 00000KT 10SM CLR 13/11 A2992 RMK AO2 SLPNO T01280106 $
KLMO 260713Z AUTO 35003KT 10SM SCT050 OVC060 11/00 A2981 RMK AO2 T01111001
KLMT 260653Z AUTO 15009KT 10SM CLR 03/00 A3000 RMK AO2 SLP156 T00330000 $
KLNC 260715Z AUTO 00000KT 10SM CLR 09/06 A2992 RMK AO2 T00880064
KLND 260653Z AUTO 30004KT 10SM FEW011 BKN020 OVC049 03/03 A2991 RMK AO2 RAE51 SLP111 P0002 T00330028 401170022
KLNK 260654Z AUTO 35007KT 10SM BKN008 OVC013 05/04 A2991 RMK AO2 CIG 004V010 SLP135 T00500039
KLNL 260715Z AUTO 12006KT 10SM UP OVC005 00/00 A3003 RMK AO2 T00010000
KLNN 260715Z AUTO 05004KT 10SM CLR 05/03 A3007 RMK AO1 T00450033
KLNP 260655Z AUTO 17005KT 10SM CLR 14/07 A3011 RMK AO2
KLNR 260656Z AUTO 07009KT 4SM BR OVC007 04/03 A2994 RMK AO2 RAB32E43 SLP140 P0000 T00440028
KLNS 260653Z AUTO 09013KT 8SM BKN016 OVC032 07/05 A3032 RMK AO2 SLP265 T00720050
KLOL 260653Z AUTO 00000KT 10SM CLR 03/M03 A3002 RMK AO2 SLP166 T00281033
KLOM 260715Z AUTO 07007KT 10SM OVC014 05/03 A3034 RMK AO1
KLOR 260658Z AUTO 00000KT 10SM OVC085 17/16 A3007 RMK AO2 RAE16 SLP164 P0001 T01680162
KLOT 260715Z AUTO 10008KT 4SM BR SCT030 SCT070 BKN080 10/10 A2989 RMK AO2 T01030103
KLOU 260653Z AUTO 18006KT 4SM RA BR BKN055 OVC070 15/13 A2999 RMK AO2 SLP152 P0015 T01500133
KLOZ 260653Z AUTO 14004KT 10SM FEW100 17/08 A3003 RMK AO2 SLP157 T01670078
KLPC 260708Z AUTO 27003KT 10SM BKN011 11/09 A3009 RMK AO2
KLPR 260653Z AUTO 09005KT 10SM CLR 06/03 A3005 RMK AO2 SLP180 T00560028
KLQK 260715Z AUTO 15005KT 10SM CLR 15/11 A3014 RMK AO2 T01510112
KLRD 260656Z AUTO 12008KT 10SM CLR 22/19 A2985 RMK AO2 SLP109 T02220194 $
KLRF 260658Z AUTO 00000KT 10SM CLR 09/08 A2993 RMK AO2 SLP137 T00940082
KLRJ 260715Z AUTO 01004KT 4SM BR OVC004 03/03 A2994 RMK AO2
KLRO 260715Z AUTO 15003KT 10SM SCT042 BKN060 18/14 A3019 RMK AO2
KLRU 260715Z AUTO 00000KT 10SM CLR 13/M06 A2994 RMK AO2 T01321065
KLRY 260715Z AUTO 31005KT 10SM OVC007 08/07 A2989 RMK AO2
KLSE 260653Z AUTO 07003KT OVC006 03/02 A2997 RMK AO2 SLP157 T00330022 $
KLSF 260658Z AUTO 00000KT 10SM -RA SCT023 16/16 A3010 RMK AO2 RAB01E02DZB02E05RAB05 SLP194 P0004 T01590159
KLSV 260658Z AUTO 04009KT 10SM CLR 15/03 A2997 RMK AO2 SLP137 T01480033 $
KLTS 260658Z AUTO 09004KT 10SM CLR 09/05 A2985 RMK AO2 SLP104 T00860053
KLUA 260715Z AUTO 00000KT 10SM SCT090 11/10 A3016 RMK AO2
KLUD 260715Z AUTO 12006KT 10SM CLR 13/08 A2989 RMK AO2 T01250075
KLUF 260658Z AUTO 29004KT 10SM CLR 17/M01 A2987 RMK AO2 SLP107 T01671010 402770099 $
KLUK 260653Z AUTO 24003KT 10SM BKN080 OVC095 15/13 A3001 RMK AO2 RAE18 SLP158 P0000 T01500133
KLUM 260715Z AUTO 06006KT 5SM BR OVC007 02/01 A3000 RMK AO2 T00170013
KLUX 260715Z AUTO 17006KT 10SM CLR 14/11 A3017 RMK AO2
KLVJ 260653Z AUTO 00000KT 5SM BR SCT007 BKN020 22/19 A2995 RMK AO2 SLP140 T02170194 PWINO $
KLVK 260653Z AUTO 20004KT 10SM SCT018 10/07 A3011 RMK AO2 SLP195 T01000072 TSNO
KLVL 260715Z AUTO 10SM CLR 15/11 A3020 RMK AO1 T01470106
KLVM 260653Z AUTO 35005KT 10SM FEW060 FEW080 M01/M03 A2993 RMK AO2 SLP148 T10061028 401001022
KLVN 260712Z AUTO 06005KT 7SM -DZ SCT008 OVC012 02/02 A2998 RMK AO2
KLVS 260653Z AUTO 27015KT 10SM CLR 07/M04 A2988 RMK AO2 SLP037 T00721039 402061050
KLWA 260717Z AUTO 12008KT 7SM -DZ OVC070 08/07 A2998 RMK AO2 T00750070
KLWB 260715Z AUTO 00000KT 10SM CLR 08/06 A3016 RMK AO2 T00840062
KLWC 260652Z AUTO 32003KT 10SM OVC009 07/06 A2989 RMK AO2 SLP123 T00670056
KLWD 260653Z AUTO 01007KT 5SM BR OVC002 06/06 A2983 RMK AO2 SLP106 T00560056
KLWM 260654Z AUTO 00000KT 6SM BR CLR M04/M04 A3047 RMK AO2 SLP321 I1001 T10391044
KLWS 260656Z AUTO 13004KT 10SM CLR 04/01 A3003 RMK AO2 SLP175 T00440011
KLWT 260654Z AUTO 00000KT 10SM SCT110 01/M06 A2993 RMK AO2 SLP142 T00061061 401170006
KLWV 260653Z AUTO 17011KT 10SM SCT019 BKN050 BKN070 16/14 A2990 RMK AO2 RAE04 SLP124 P0001 T01560144
KLXL 260713Z AUTO 07005KT 10SM SCT019 OVC041 01/M01 A3001 RMK AO2
KLXN 260715Z AUTO 00000KT 4SM BR BKN004 OVC007 05/04 A2990 RMK AO2 T00480040
KLXT 260653Z AUTO 29009KT 10SM OVC006 07/06 A2987 RMK AO2 SLP115 T00720061 TSNO
KLXV 260714Z AUTO 36010KT 10SM SCT024 OVC065 M02/M04 A2992 RMK AO2 T10171039
KLXY 260715Z AUTO 18005KT 10SM CLR 12/10 A2991 RMK AO2 T01210095
KLYH 260654Z AUTO 00000KT 10SM CLR 10/08 A3018 RMK AO2 SLP216 T01000078
KLYV 260719Z AUTO 08005KT 5SM BR OVC005 02/01 A2995 RMK AO2
KLZZ 260715Z AUTO 00000KT 10SM CLR 13/10 A2990 RMK AO2 T01310095
KM08 260715Z AUTO 17006KT 10SM OVC010 15/14 A2993 RMK A01
KM19 260656Z AUTO 28003KT 10SM OVC100 12/09 A2993 RMK AO2 SLP139 T01170094
KM21 260715Z AUTO 16007KT 10SM SCT034 BKN041 OVC120 15/13 A2993 RMK AO2 T01460131
KM25 260735Z AUTO 17006KT 10SM BKN055 BKN075 OVC090 13/12 A2993 RMK AO2 P0002
KM30 260715Z AUTO 18005KT 10SM BKN065 OVC075 14/13 A2991 RMK AO2 T01400130
KM33 260715Z AUTO 00000KT 10SM FEW050 OVC065 14/13 A3001 RMK A01
KM75 260715Z AUTO 24004KT 10SM FEW085 01/M02 A2988 RMK A01
KM91 260715Z AUTO 16007KT 10SM FEW043 BKN060 OVC075 15/14 A2994 RMK A01
KMAE 260653Z AUTO 00000KT 10SM CLR 09/08 A3010 RMK AO2 SLP193 T00940083
KMAF 260653Z AUTO 18005KT 10SM CLR 15/M03 A2983 RMK AO2 SLP067 T01501028
KMAI 260653Z AUTO 11005KT 10SM OVC090 18/17 A3008 RMK AO2 RAE26 SLP185 P0000 T01830172
KMAN 260715Z AUTO 12004KT 10SM CLR 04/01 A2999 RMK A01
KMAO 260715Z AUTO 00000KT 7SM BKN050 11/11 A3020 RMK AO2
KMAW 260715Z AUTO 25005KT 10SM SCT065 13/11 A2992 RMK AO2
KMBG 260710Z AUTO 15010KT 10SM OVC009 04/01 A2991 RMK AO2 T00390011
KMBL 260656Z AUTO 10007KT 10SM -RA OVC009 03/03 A3004 RMK AO2 SLP195 P0001 T00330028
KMBO 260715Z AUTO 16004KT 10SM SCT009 SCT060 15/14 A2996 RMK AO2
KMBS 260653Z AUTO 06008KT 7SM OVC016 03/02 A3014 RMK AO2 SLP211 T00280022
KMCB 260653Z AUTO 18003KT 6SM BR OVC003 17/16 A2998 RMK AO2 SLP150 T01670156 TSNO
KMCC 260715Z AUTO 16004KT 10SM CLR 10/08 A3011 RMK AO2
KMCD 260715Z AUTO 10018G27KT 10SM -SN OVC029 00/M02 A3017 RMK AO2 T10021020
KMCE 260653Z AUTO 00000KT 10SM CLR 08/07 A3009 RMK AO2 SLP190 T00830067 TSNO
KMCF 260658Z AUTO 13009KT 10SM CLR 19/18 A3011 RMK AO2 SLP199 T01910175 $
KMCI 260653Z 32004KT 10SM OVC007 07/06 A2987 RMK AO2 SLP117 T00670056
KMCJ 260655Z AUTO 21003KT 5SM OVC005 20/19 A2991 RMK AO1
KMCK 260708Z AUTO 16006KT 1 1/2SM BR OVC002 04/04 A2990 RMK AO2 T00440044
KMCN 260653Z AUTO 16007KT 10SM CLR 18/13 A3013 RMK AO2 SLP199 T01780128
KMCO 260653Z 08003KT 10SM FEW090 FEW250 17/14 A3014 RMK AO2 SLP203 T01720144
KMCW 260653Z AUTO 05007KT 3/4SM BR VV002 03/02 A2992 RMK AO2 SLP136 T00280022
KMCX 260715Z AUTO 12004KT 5SM RA BKN013 OVC018 11/10 A2993 RMK AO2 P0004 T01070100
KMDD 260715Z AUTO 16007KT 10SM CLR 16/M02 A2983 RMK AO2 T01631020
KMDH 260652Z AUTO 18007KT 10SM BKN110 13/13 A2988 RMK AO2 SLP116 T01280128
KMDJ 260715Z AUTO 20010KT 7SM SCT006 BKN010 BKN022 23/22 A3001 RMK A01
KMDQ 260715Z AUTO 14008KT 10SM BKN075 13/12 A3001 RMK AO2
KMDS 260710Z AUTO 12005KT 2 1/2SM BR OVC003 02/02 A2994 RMK AO2
KMDT 260656Z 11007KT 9SM BKN021 OVC033 08/04 A3031 RMK AO2 SLP265 T00830044 $
KMDW 260653Z VRB05KT 4SM BR SCT008 BKN060 OVC085 09/09 A2991 RMK AO2 RAE0555 SLP131 P0000 T00940089
KMDZ 260715Z AUTO 10009KT 5SM BR OVC003 00/00 A2998 RMK AO2 T00001003
KMEB 260652Z AUTO A3021 RMK AO2 SLPNO PWINO FZRANO TSNO $
KMEH 260656Z AUTO 00000KT 10SM FEW001 M01/M03 A2998 RMK AO2 SLP167 T10061028
KMEI 260658Z AUTO 17006KT 10SM OVC007 16/15 A3001 RMK AO2 SLP159 T01560150
KMEM 260654Z 23003KT 10SM OVC006 15/14 A2993 RMK AO2 SLP132 T01500144
KMER 260655Z AUTO 30006KT 10SM CLR 08/M46 A3010 RMK AO1
KMEV 260715Z AUTO 00000KT 10SM CLR 00/M02 A3006 RMK AO2
KMEZ 260715Z AUTO 00000KT 10SM CLR 08/08 A2993 RMK AO2
KMFD 260652Z AUTO 13006KT 10SM CLR 14/11 A3004 RMK AO2 SLP167 T01390106
KMFE 260712Z AUTO 14013KT 7SM BKN008 22/20 A2987 RMK AO2 T02220200 $
KMFI 260654Z AUTO 09011KT 6SM BR OVC003 01/M01 A2998 RMK AO2 SLP167 T00061006
KMFR 260653Z AUTO 25003KT 10SM CLR 07/04 A3002 RMK AO2 SLP167 T00720044
KMFV 260715Z AUTO 06007KT 10SM BKN060 14/11 A3022 RMK AO2 T01350111
KMGC 260715Z AUTO 11005KT 7SM SCT008 BKN065 OVC110 08/08 A2994 RMK AO2
KMGE 260716Z AUTO 14005KT 10SM SCT018 15/14 A3010 RMK AO2 RAE13DZB13E16 SLP188 $
KMGG 260713Z AUTO 09006KT 4SM BR OVC015 04/03 A3000 RMK AO2 T00350025
KMGJ 260654Z AUTO 06004KT 10SM FEW037 OVC055 02/00 A3041 RMK AO2 SLP301 T00220000 TSNO
KMGM 260653Z AUTO 00000KT 10SM CLR 16/13 A3006 RMK AO2 SLP176 T01610133
KMGN 260714Z AUTO 08010KT 4SM -SN OVC012 00/00 A3013 RMK AO2 T00001002
KMGR 260715Z AUTO 00000KT 10SM CLR 17/13 A3014 RMK AO2
KMGW 260653Z AUTO 14004KT 10SM OVC080 17/09 A3012 RMK AO2 SLP192 T01720089
KMGY 260653Z AUTO 15003KT 10SM BKN080 OVC110 16/09 A2999 RMK AO2 SLP150 T01610094
KMHE 260653Z AUTO 12005KT 4SM BR OVC004 04/04 A2995 RMK AO2 CIG 003V007 SLP151 T00390039
KMHK 260713Z AUTO 00000KT 10SM OVC010 07/05 A2991 RMK AO2 T00670050
KMHL 260735Z AUTO 30008KT 7SM OVC006 09/08 A2986 RMK AO2
KMHR 260245Z 25003KT 10SM SCT044 14/09 A3010
KMHS 260656Z AUTO 12003KT 10SM FEW025 FEW031 BKN047 06/02 A3003 RMK AO2 RAE24 SLP189 P0000 T00560022
KMHT 260653Z 00000KT 10SM CLR M03/M05 A3045 RMK AO2 SLP329 I1000 T10281050
KMHV 260700Z AUTO 32010KT 10SM CLR 11/03 A3002 RMK A01
KMIA 260653Z 07012G18KT 4SM RA BKN023 BKN035 OVC055 21/18 A3008 RMK AO2 RAB11E24B42 SLP186 P0008 T02110183 $
KMIB 260658Z AUTO 03004KT 10SM FEW095 04/01 A2989 RMK AO2 SLP140 T00360013 $
KMIC 260653Z AUTO 06005KT 10SM -RA OVC009 03/01 A2999 RMK AO2 CIG 008V012 SLP163 P0000 T00330011
KMIE 260653Z AUTO 15004KT 10SM BKN060 OVC100 14/12 A2997 RMK AO2 SLP142 T01440122
KMIS 260715Z AUTO 18011KT 10SM FEW020 SCT029 BKN038 24/19 A3003 RMK A01
KMIV 260654Z AUTO 07010KT 10SM BKN060 OVC090 08/04 A3031 RMK AO2 SLP264 T00830044
KMIW 260653Z AUTO 04009KT 2SM BR OVC002 04/04 A2986 RMK AO2 SLP119 T00440044
KMJQ 260714Z AUTO 05006KT 2SM DZ OVC004 02/02 A2993 RMK AO2
KMJX 260707Z AUTO 06011KT 10SM SCT011 OVC110 06/03 A3036 RMK AO2
KMKC 260654Z 33005KT 10SM OVC008 08/06 A2987 RMK AO2 SLP116 T00780056
KMKE 260700Z 04012KT 1 1/4SM -RA BR OVC002 04/03 A2997 RMK AO2 SFC VIS 2 1/2 P0000 T00390028
KMKG 260655Z AUTO 10013KT 9SM -RA OVC008 06/04 A3002 RMK AO2 SLP169 P0000 T00560044
KMKJ 260715Z AUTO 21007KT 180V290 10SM OVC030 14/09 A3017 RMK AO2 T01410090
KMKL 260653Z AUTO 18008KT 10SM OVC012 15/13 A2993 RMK AO2 LTG DSNT N SLP134 T01500133
KMKN 260715Z AUTO 10SM CLR 11/07 A2989 RMK AO2 T01110071
KMKO 260653Z AUTO 00000KT 10SM CLR 07/06 A2993 RMK AO2 SLP136 T00720061
KMKS 260715Z AUTO 00000KT 7SM CLR 15/13 A3018 RMK AO2
KMKT 260656Z AUTO 08008KT 5SM -RA BR BKN007 OVC016 03/02 A2996 RMK AO2 CIG 005V012 SLP158 P0001 T00280017
KMLB 260653Z AUTO 12006KT 10SM SCT038 22/18 A3012 RMK AO2 SLP199 T02170178
KMLC 260653Z AUTO 00000KT 10SM FEW070 07/06 A2992 RMK AO2 SLP129 T00720056
KMLE 260715Z AUTO 00000KT 10SM OVC004 06/05 A2991 RMK AO2 T00570047
KMLF 260652Z AUTO 00000KT 10SM CLR 02/00 A3004 RMK AO2 SLP166 T00220000 401170011
KMLI 260700Z AUTO 07006KT 2 1/2SM -RA BR OVC003 09/08 A2982 RMK AO2 RAB0654 P0001 T00890078
KMLJ 260715Z AUTO 00000KT 10SM SCT100 17/15 A3014 RMK AO2
KMLP 260653Z AUTO VRB06KT 10SM FEW008 BKN020 OVC026 M04/M04 A2994 RMK AO2 SLP174 T10391044 $
KMLS 260653Z AUTO 22004KT 10SM BKN120 08/02 A2991 RMK AO2 SLP130 T00780017 401440056
KMLT 260653Z AUTO VRB04KT 10SM CLR M06/M18 A3048 RMK AO2 SLP331 T10611183
KMLU 260653Z AUTO 00000KT 10SM CLR 13/12 A2994 RMK AO2 SLP139 T01280117
KMMH 260715Z AUTO 01004KT 10SM CLR M01/M05 A3008 RMK AO2 T10121055
KMMI 260715Z AUTO 22004KT 9SM FEW013 BKN023 OVC060 14/14 A3007 RMK
KMMK 260653Z AUTO 01004KT 6SM BR SCT100 02/M01 A3044 RMK AO2 SLP308 T00171006 TSNO
KMML 260656Z AUTO 07004KT 8SM OVC008 03/02 A2997 RMK AO2 SLP162 T00280017
KMMT 260658Z AUTO 00000KT 10SM CLR 14/13 A3020 RMK AO2 SLP228 T01380132 $
KMMU 260715Z AUTO 06005KT 7SM DZ SCT010 BKN016 OVC045 04/04 A3041 RMK AO2
KMMV 260653Z AUTO 16003KT 10SM OVC049 08/04 A3004 RMK AO2 SLP171 T00830044
KMNE 260715Z AUTO 00000KT 10SM CLR 11/10 A2994 RMK AO2 T01120102
KMNH 260714Z AUTO 15004KT 10SM CLR 00/M02 A2986 RMK AO2
KMNI 260715Z AUTO 00000KT 10SM SCT035 12/11 A3019 RMK AO2
KMNM 260656Z AUTO 07013KT 5SM -RA BR OVC004 01/00 A3009 RMK AO2 UPE38RAB38 SLPNO P0001 T00060000 FZRANO $
KMNN 260653Z AUTO 13007KT 10SM SCT085 16/10 A3001 RMK AO2 SLP160 T01560100
KMNV 260715Z AUTO 23007G15KT 4SM BR SCT032 OVC039 15/14 A3006 RMK A01
KMNZ 260715Z AUTO 16008KT 10SM CLR 14/09 A2991 RMK AO2 T01360090
KMOB 260704Z AUTO 13005KT 10SM SCT003 SCT013 17/16 A3004 RMK AO2 T01670156
KMOD 260653Z AUTO 32004KT 10SM CLR 11/07 A3009 RMK AO2 SLP191 T01110072
KMOP 260715Z AUTO 08010KT 3SM RA OVC008 02/02 A3011 RMK AO2 P0002 T00210015
KMOR 260715Z AUTO 00000KT 10SM FEW048 FEW055 16/09 A3003 RMK A01
KMOT 260654Z AUTO 20005KT 10SM BKN080 OVC100 06/02 A2989 RMK AO2 SLP133 T00610017
KMOX 260704Z AUTO 13003KT 10SM OVC026 03/02 A2998 RMK AO2
KMPO 260653Z AUTO 10014G19KT 10SM BKN004 OVC010 M01/M01 A3031 RMK AO2 UPB05E26 SLP276 P0000 T10061006
KMPV 260712Z AUTO 00000KT 10SM SCT001 M11/M13 A3050 RMK AO2 T11111128
KMQB 260715Z AUTO 17005KT 10SM CLR 12/12 A2982 RMK AO2 T01190115
KMQE 260654Z AUTO 03010KT M02/M04 A3041 RMK AO1 SLP316 T10171039
KMQI 260700Z AUTO 00000KT 10SM CLR 13/12 A3025 RMK AO2 T01300117
KMQJ 260719Z AUTO 18009KT 10SM SCT060 OVC085 14/12 A2996 RMK AO1
KMQS 260715Z AUTO 08012G21KT 10SM OVC010 06/04 A3033 RMK AO2
KMQY 260656Z AUTO 11003KT 10SM -RA BKN075 OVC085 14/13 A2999 RMK AO2 SLP068 P0001 T01390133
KMRB 260653Z AUTO 02005KT 8SM FEW085 12/08 A3021 RMK AO2 SLP227 T01170078 TSNO
KMRC 260715Z AUTO 18006KT 10SM BKN060 BKN075 OVC090 A2996 RMK
KMRF 260656Z AUTO 31005KT 10SM CLR 04/M10 A2994 RMK AO2 SLP103 T00441100 402560017
KMRH 260658Z AUTO 00000KT 10SM CLR 13/12 A3023 RMK AO2 SLP237 T01330122 TSNO
KMRJ 260715Z AUTO 05010G16KT 1 3/4SM BR OVC002 05/05 A2989 RMK AO2
KMRN 260700Z AUTO 00000KT 10SM BKN055 BKN065 15/10 A3022 RMK AO2 T01540102
KMRT 260713Z AUTO 00000KT 10SM CLR 13/09 A3000 RMK AO2 T01310091
KMRY 260701Z AUTO 18005KT 10SM BKN016 11/09 A3014 RMK AO2 T01060089
KMSL 260653Z AUTO 14005KT 10SM BKN095 OVC110 14/13 A2999 RMK AO2 SLP151 T01440128
KMSN 260653Z AUTO 06008KT 6SM BR OVC004 04/03 A2994 RMK AO2 SLP145 T00390033
KMSO 260653Z 00000KT 10SM SCT090 04/00 A3003 RMK AO2 SLP183 T00390000 401060033
KMSP 260714Z 08009KT 10SM -DZ OVC009 03/01 A2999 RMK AO2 P0000 T00330011
KMSS 260653Z AUTO 06005KT 10SM CLR M08/M09 A3048 RMK AO2 SLP329 I1000 T10781089
KMSV 260715Z AUTO 11006KT 10SM OVC008 M01/M01 A3038 RMK AO1
KMSY 260653Z 18006KT 10SM FEW250 19/18 A2998 RMK AO2 SLP156 T01890178
KMTC 260658Z AUTO 06006KT 10SM OVC190 04/03 A3010 RMK AO2 SLP201 T00350034 $
KMTH 260653Z AUTO 12006KT 10SM FEW027 24/19 A3005 RMK AO2 SLP175 T02390194
KMTJ 260653Z AUTO 24009KT 10SM BKN035 BKN042 OVC050 06/03 A2992 RMK AO2 SLP085 T00610028 401781011
KMTN 260657Z AUTO 05009G17KT 10SM SCT016 OVC070 08/06 A3032 RMK AO2
KMTO 260653Z AUTO 16007KT 10SM SCT021 BKN065 OVC090 15/12 A2986 RMK AO2 SLP109 T01500122
KMTP 260654Z AUTO 05006KT 03/01 A3044 RMK AO1 SLP306 T00330011
KMTV 260715Z AUTO 00000KT 10SM CLR 07/05 A3020 RMK AO2 T00700053
KMTW 260656Z AUTO 07007KT 7SM UP OVC004 A3004 RMK AO2 UPE00B32 SLPNO P0000 FZRANO
KMUI 260658Z AUTO 08009KT 10SM OVC014 07/06 A3032 RMK AO2 SLP270 T00660059 $
KMUO 260658Z AUTO 00000KT 10SM CLR 04/01 A3000 RMK AO2 SLP163 T00360012 401390020 $
KMUT 260715Z AUTO 04006KT 1 1/4SM -RA OVC002 08/08 A2982 RMK AO2
KMVE 260712Z AUTO 00000KT 7SM OVC012 03/03 A3000 RMK AO2
KMVH 260715Z AUTO 28005KT 10SM CLR 02/M08 A2994 RMK AO2
KMVL 260654Z AUTO 00000KT 10SM CLR M13/M15 A3049 RMK AO2 SLP341 I1000 T11281150
KMVN 260656Z AUTO 19008KT 10SM BKN100 14/13 A2987 RMK AO2 RAB38E48 SLP114 P0000 T01390128
KMVY 260709Z AUTO 02003KT 1/4SM R24/P6000FT FZFG VV005 M03/M04 A3043 RMK AO2 T10281039 TSNO
KMWA 260715Z AUTO 18006KT 10SM OVC009 14/13 A2989 RMK AO2
KMWC 260715Z AUTO 05009KT 1 3/4SM -DZ OVC002 03/02 A2998 RMK AO2
KMWH 260652Z AUTO 35004KT 10SM CLR 03/00 A2999 RMK AO2 SLP209 T00280000
KMWK 260700Z AUTO 16004KT 10SM CLR 14/10 A3019 RMK AO2 T01420103
KMWL 260653Z AUTO 14007KT 10SM CLR 11/06 A2988 RMK AO2 SLP111 T01110061
KMWM 260714Z AUTO 05006KT 3SM BR OVC003 02/02 A2994 RMK AO2
KMWN 260652Z 33023KT 130SM FEW160 FEW180 M05/M20 RMK
KMWO 260715Z AUTO 22005KT 10SM -RA BKN075 OVC100 17/11 A3001 RMK AO2 T01660106
KMWT 260653Z AUTO 00000KT 10SM CLR 08/08 A2991 RMK AO2 SLP126 T00830078
KMXF 260713Z AUTO 08003KT 2SM R15/5500FT BR CLR 14/14 A3004 RMK AO2 VIS 3/4V2 SLP174
KMXO 260715Z AUTO 04006KT 2SM BR OVC003 05/05 A2986 RMK AO2
KMYF 260700Z AUTO 33004KT 10SM FEW008 BKN027 OVC038 15/12 A3005 RMK AO2 T01500122
KMYJ 260735Z AUTO 20009KT 5SM OVC003 09/08 A2982 RMK AO2 PWINO
KMYL 260651Z AUTO 00000KT 10SM CLR M02/M04 A2998 RMK AO2 SLP170 T10221044 400501028 $
KMYP 260714Z AUTO 21004KT 2 1/2SM -SN BKN009 BKN016 OVC024 M04/M05 A3007 RMK AO2
KMYR 260656Z AUTO 16005KT 10SM FEW060 17/14 A3021 RMK AO2 SLP231 T01670139
KMYV 260653Z AUTO 12005KT 10SM CLR 10/08 A3008 RMK AO2 SLP190 T01000083
KMYZ 260715Z AUTO 34004KT 10SM OVC005 05/04 A2989 RMK AO2
KMZG 260715Z AUTO 15006G15KT 10SM SCT014 23/21 A2992 RMK A01
KMZH 260715Z AUTO 06004KT 10SM SCT006 OVC018 00/M01 A3001 RMK AO2
KMZZ 260715Z AUTO 09007KT 5SM BR SCT060 BKN090 OVC110 09/08 A2997 RMK AO2 T00900078
KN03 260715Z AUTO 09003KT 10SM OVC009 02/02 A3032 RMK AO2
KN38 260715Z AUTO 04004KT M1/4SM FG OVC002 01/01 A3027 RMK AO2
KN60 260652Z AUTO 12003KT 04/00 A2990 RMK AO1 SLP140 T00390000
KNAK 260654Z AUTO 07008KT 10SM FEW065 BKN085 BKN110 10/06 A3028 RMK AO2 SLP254 T01000061
KNBC 260656Z AUTO 16003KT 10SM CLR 16/15 A3018 RMK AO2 SLP219 T01560150 $
KNBG 260655Z AUTO 00000KT 10SM FEW008 A2999 RMK AO2 SLP156 PWINO FZRANO $
KNBT 260656Z AUTO 17003KT 10SM FEW038 A3023 RMK AO2 SLP243 PNO $
KNCA 260656Z AUTO 00000KT 10SM CLR 13/12 A3021 RMK AO2 SLP233 T01280122
KNEL 260700Z AUTO 07013KT 10SM OVC012 11/03 A3036 RMK AO2 SLP278 T01110033 $
KNEW 260653Z AUTO 15004KT 9SM CLR 18/17 A2999 RMK AO2 SLP150 T01830172
KNFE 260656Z AUTO 00000KT 10SM CLR 14/11 A3022 RMK AO2 SLP236 T01440106
KNFG 260655Z AUTO 05003KT 9SM BKN036 14/13 A3004 RMK AO2 SLP171 T01390128
KNFL 260656Z AUTO 17005KT 10SM CLR 03/M04 A3003 RMK AO2 SLP138 T00281039
KNFW 260652Z AUTO 10004KT 10SM CLR 14/08 A2990 RMK AO2 SLP108 T01440083 $
KNGP 260556Z AUTO 15013G18KT 8SM FEW008 A2990 RMK AO2 SLP126 60000 58014 $
KNGU 260659Z 21007KT 10SM BKN250 16/11 A3023 RMK AO2 SLP235 T01610106
KNHK 260652Z AUTO 06006KT 10SM OVC065 09/09 A3024 RMK AO2 SLP240 T00940089 VISNO RY24 $
KNID 260656Z AUTO 19010KT 10SM CLR 13/03 A2997 RMK AO2 SLP143 T01280033 $
KNIP 260653Z 00000KT 10SM SCT250 18/16 A3015 RMK AO2 SLP204 T01830161
KNJK 260656Z AUTO 28011KT 10SM CLR 17/06 A2992 RMK AO2 SLP149 T01720061
KNJM 260657Z AUTO 18005KT 10SM CLR 15/13 A3023 RMK AO2 SLP239 T01500128 $
KNKT 260154Z 19003KT 7SM CLR 17/12 A3028 RMK SLP251 T01720122
KNKX 260655Z 31005KT 10SM BKN015 BKN120 17/13 A3004 RMK AO2 SLP169 T01670133 $
KNLC 260656Z AUTO 29005KT 10SM CLR 09/08 A3010 RMK AO2 SLP195 T00890078
KNMM 260656Z AUTO 17003KT 10SM OVC009 16/13 A3001 RMK AO2 CIG 007V013 SLP173 T01560128 $
KNOG 260712Z AUTO 14007KT 3SM BR 18/18 A2989 RMK AO2 T01830183 $
KNOW 260715Z AUTO 14003KT 10SM BKN033 06/03 A3000 RMK AO2 T00620027
KNPA 260711Z AUTO 14008KT SCT010 19/17 A3004 RMK AO2 T01890172 $
KNQA 260715Z AUTO 19005KT 10SM OVC007 16/14 A2993 RMK A01
KNQI 260656Z AUTO 12005KT 4SM BR CLR 20/20 A2989 RMK AO2 SLP117 T02000200
KNQX 260653Z AUTO 05007KT CLR 23/19 A3005 RMK AO2 SLP175 T02280194 $
KNRB 260652Z AUTO 14004KT 10SM CLR 18/16 A3014 RMK AO2 SLP205 T01830161
KNRS 260716Z AUTO 30007KT 10SM BKN021 OVC045 16/13 A3005 RMK AO2 T01610133 $
KNSI 260657Z AUTO 31023G28KT 10SM CLR A3004 RMK AO2 PK WND 31031/0601 SLPNO PWINO $
KNTD 260656Z AUTO 05003KT 10SM CLR 12/10 A3003 RMK AO2 SLP171 T01220100 $
KNTU 260656Z 21006KT 10SM SCT250 15/11 A3021 RMK AO2 SLP232 T01500106
KNUI 260653Z AUTO 05009KT 10SM OVC065 10/07 A3022 RMK AO2 SLP234 T01000072
KNUQ 260656Z 25003KT 10SM CLR 11/07 A3014 RMK AO2 SLP208 T01060067
KNUW 260656Z 12004KT 10SM FEW019 SCT042 OVC160 05/03 A3005 RMK AO2 SLP175 T00500028 $
KNXF 260656Z AUTO 31003KT 6SM HZ BKN033 A3004 RMK AO2 SLPNO $
KNXP 260656Z AUTO 32007KT 290V360 10SM CLR 14/03 A3006 RMK AO2 SLP154 T01390033
KNYC 260713Z AUTO 06010G15KT 6SM -RA BR BKN020 BKN025 OVC050 04/02 A3044 RMK AO2 P0001 T00390017 $
KNYG 260656Z AUTO 05012KT 10SM OVC075 13/08 A3023 RMK AO2 SLP237 T01280083
KNYL 260657Z AUTO 29007KT 10SM CLR 17/06 A2991 RMK AO2 SLP125 T01720061 402830150
KNZY 260652Z 33009KT 10SM FEW013 BKN041 16/13 A3004 RMK AO2 SLP172 T01610128 $
KO22 260715Z AUTO 00000KT 10SM CLR 05/05 A3012 RMK AO1
KO54 260715Z AUTO 00000KT 10SM FEW024 SCT041 04/03 A3006 RMK AO1
KO69 260715Z AUTO 33003KT 10SM CLR 09/08 A3014 RMK AO1
KO86 260715Z AUTO 00000KT 10SM BKN029 BKN036 OVC060 05/05 A3006 RMK AO1
KOAJ 260656Z AUTO 00000KT 10SM CLR 12/11 A3022 RMK AO2 SLP237 T01170111
KOAK 260653Z 28008KT 10SM SCT018 SCT200 12/10 A3013 RMK AO2 SLP203 T01220100
KOBE 260715Z AUTO 00000KT 5SM HZ CLR A3012 RMK AO2
KOCF 260715Z AUTO 00000KT 10SM CLR 16/13 A3014 RMK AO1
KOCH 260715Z 00000KT CLR 09/07 A2992 RMK AO1
KOCQ 260715Z AUTO 06008KT 10SM OVC004 00/00 A3006 RMK AO1 T00030000
KOCW 260700Z AUTO 00000KT 10SM CLR 14/12 A3023 RMK AO2 T01360120
KODO 260653Z AUTO 17009KT 10SM CLR 17/M03 A2983 RMK AO2 SLP066 T01721033 $
KODX 260703Z AUTO 11003KT 1 1/4SM BR OVC002 04/03 A2988 RMK AO2 T00390028
KOEB 260715Z AUTO 12009KT 10SM -RA SCT055 SCT070 OVC080 06/04 A3004 RMK AO2 T00570044
KOEO 260715Z AUTO 08005KT 10SM DZ OVC010 03/03 A3003 RMK AO2 T00270027
KOFF 260707Z AUTO 34004KT 10SM OVC004 05/04 A2989 RMK AO2
KOFK 260656Z AUTO 06006KT 5SM BR OVC003 03/02 A2990 RMK AO2 CIG 002V006 SLP136 T00330022
KOFP 260654Z AUTO 18006KT 10SM CLR 16/09 A3020 RMK AO2 SLP225 T01560094
KOGA 260715Z AUTO 12003KT 10SM OVC007 06/05 A2987 RMK AO2 T00600047
KOGB 260653Z AUTO 00000KT 10SM CLR 14/12 A3019 RMK AO2 SLP223 T01390122
KOGD 260653Z AUTO 18006KT 9SM OVC080 02/02 A3001 RMK AO2 SLP162 T00220017 400940022
KOJA 260715Z AUTO 00000KT 10SM CLR 07/06 A2989 RMK AO2
KOJC 260653Z AUTO 32006KT 10SM OVC005 06/06 A2987 RMK AO2 SLP116 T00610061
KOKB 260652Z AUTO 30003KT 10SM SCT037 14/13 A3003 RMK AO2 SLP170 T01440128
KOKC 260652Z 09008KT 10SM SCT180 08/06 A2990 RMK AO2 SLP124 T00830056
KOKK 260656Z AUTO 09009KT 8SM OVC032 09/09 A2997 RMK AO2 SLP149 T00940089
KOKM 260715Z AUTO 00000KT 10SM CLR 06/06 A2992 RMK AO2 T00580058
KOKV 260715Z AUTO 08007KT 030V090 10SM OVC060 12/08 A3019 RMK AO2
KOKZ 260715Z AUTO 13005KT 10SM CLR 17/15 A3014 RMK AO2 T01670147
KOLF 260653Z AUTO 31003KT 10SM CLR 04/00 A2989 RMK AO2 SLP130 T00390000 401720033
KOLG 260715Z AUTO 05005KT 5SM OVC007 00/00 A3003 RMK AO1
KOLM 260654Z AUTO 00000KT 10SM FEW030 SCT039 SCT055 06/04 A3002 RMK AO2 RAB0558E09B36E54 SLP166 P0000 T00610044
KOLS 260654Z AUTO 20005KT 10SM CLR 14/M02 A2999 RMK AO2 SLP102 T01391017 402670017
KOLU 260715Z AUTO 03004KT 2 1/2SM OVC003 03/02 A2991 RMK AO2 RVRNO
KOLY 260715Z AUTO 16008KT 10SM SCT028 BKN075 OVC090 15/15 A2988 RMK AO2
KOLZ 260715Z AUTO 06011KT 6SM BR OVC003 04/04 A2988 RMK AO2
KOMA 260652Z 35005KT 10SM OVC006 05/03 A2990 RMK AO2 CIG 005V012 SLP129 T00500028
KOMH 260715Z AUTO 00000KT 10SM CLR 10/08 A3018 RMK AO2
KOMK 260653Z AUTO 23006KT 10SM CLR 03/M04 A2997 RMK AO2 SLP156 T00331039
KONA 260712Z AUTO 09004KT 10SM OVC006 02/02 A2998 RMK AO2
KONL 260715Z AUTO 14003KT 1/2SM FG OVC003 04/04 A2990 RMK AO2 T00380037
KONM 260715Z AUTO 03010KT 10SM CLR 12/M03 A2995 RMK AO2 T01151032
KONO 260653Z AUTO 05004KT 10SM CLR 06/02 A3000 RMK AO2 SLP165 T00610017 401560011
KONP 260715Z AUTO 13005KT 10SM SCT033 BKN042 OVC049 07/05 A3004 RMK AO2
KONT 260653Z 21006KT 10SM SCT019 BKN024 BKN050 13/11 A3004 RMK AO2 SLP167 T01330111
KONX 260700Z AUTO 00000KT 10SM CLR 14/11 A3024 RMK AO2 T01380113
KONZ 260712Z AUTO 07010G14KT 10SM BKN010 BKN070 04/02 A3008 RMK AO2 T00350017
KOOA 260715Z AUTO 01008KT 1SM BR OVC002 06/06 A2982 RMK AO2 T00630061
KOPF 260653Z AUTO 08008KT 10SM -RA FEW029 SCT040 OVC075 A3008 RMK AO2 RAB18 SLP188 P0007 $
KOPL 260715Z AUTO 7SM SCT010 BKN026 OVC038 19/18 A2996 RMK AO2 T01910182 PWINO
KOPN 260715Z AUTO 19004KT 10SM -DZ SCT036 BKN055 OVC085 17/12 A3013 RMK AO2
KOQT 260653Z AUTO 00000KT 10SM FEW065 OVC090 17/10 A3004 RMK AO2 RAB33E42 SLP164 P0000 T01670100
KORB 260713Z AUTO 00000KT 7SM SCT008 OVC017 M02/M03 A3003 RMK AO2
KORC 260715Z AUTO 03004KT 2 1/2SM BR OVC002 03/03 A2992 RMK AO2
KORD 260651Z 06007KT 3SM BR OVC005 08/07 A2991 RMK AO2 SLP132 T00830072 $
KORE 260652Z AUTO 04003KT 4SM BR CLR M04/M05 A3044 RMK AO2 SLP315 I1001 T10391050
KORF 260651Z 20007KT 10SM CLR 14/11 A3021 RMK AO2 SLP230 T01440106
KORG 260715Z AUTO 00000KT 7SM SCT027 21/20 A2996 RMK AO2 T02050200
KORH 260654Z AUTO 04005KT 10SM CLR M01/M05 A3040 RMK AO2 SLP309 T10111050
KORL 260653Z AUTO 08003KT 10SM CLR 17/15 A3013 RMK AO2 SLP207 T01720150
KORS 260715Z AUTO 00000KT 8SM BKN048 07/04 A2999 RMK AO2
KOSA 260715Z AUTO 00000KT 10SM CLR 11/11 A2994 RMK AO1 T01050105
KOSC 260714Z AUTO 06010KT 5SM -SN SCT009 BKN070 OVC085 02/01 A3017 RMK AO2 P0002 T00200012
KOSH 260653Z AUTO 06010KT 2 1/2SM UP BR OVC002 02/02 A3000 RMK AO2 UPB50 SLP169 P0000 T00220017
KOSU 260653Z AUTO 12007KT 10SM CLR 16/10 A3000 RMK AO2 SLP153 T01610100
KOTG 260656Z AUTO 05006KT 3SM BR OVC003 02/02 A2994 RMK AO2 SLP154 T00170017 FZRANO
KOTH 260715Z 16006KT 10SM OVC048 08/06 A3005 RMK AO1
KOTM 260657Z AUTO 36009KT 3SM -RA BR OVC003 07/07 A2982 RMK AO2 P0000 T00720072
KOUN 260715Z AUTO 00000KT 10SM CLR 05/05 A2992 RMK AO2
KOVE 260653Z AUTO 07004KT 10SM CLR 11/08 A3009 RMK AO2 SLP191 T01110078
KOVL 260714Z AUTO 07003KT 10SM OVC014 02/01 A2997 RMK AO2
KOVS 260653Z AUTO 06005KT 4SM BR OVC005 04/03 A2994 RMK AO2 RAE15 SLP144 P0001 T00440033
KOWA 260714Z AUTO 07007KT 4SM BR OVC006 02/01 A2995 RMK AO2
KOWB 260656Z AUTO 16010KT 10SM OVC095 15/13 A2993 RMK AO2 RAE27 SLP143 P0000 T01500133
KOWD 260653Z AUTO 00000KT 5SM BR CLR M04/M05 A3046 RMK AO2 SLP314 I1000 T10391050
KOWI 260715Z AUTO 00000KT 10SM OVC010 06/06 A2988 RMK AO2
KOWP 260715Z AUTO 00000KT 10SM CLR 06/05 A2993 RMK AO2 T00640052
KOWX 260715Z AUTO 31005G15KT 10SM SCT007 SCT075 SCT095 04/03 A3006 RMK AO1
KOXB 260653Z AUTO 04009KT 8SM BKN005 OVC060 08/07 A3027 RMK AO2 SLP251 T00830072
KOXC 260715Z AUTO 07010KT 10SM OVC100 02/M03 A3041 RMK AO1
KOXI 260715Z AUTO 12011KT 7SM BKN044 OVC050 08/03 A2994 RMK AO1
KOXR 260651Z AUTO 05004KT 10SM CLR 13/11 A3003 RMK AO2 SLP168 T01330106
KOXV 260635Z AUTO 36009KT 1 1/4SM BR OVC002 06/06 A2983 RMK AO2
KOZA 260715Z 10SM 09/02 A2988 RMK AO2
KOZR 260656Z AUTO 07003KT 10SM BKN090 OVC110 17/16 A3007 RMK AO2 RAE22DZB22E29 SLP183 P0001 T01710161
KOZS 260715Z AUTO 22005KT 10SM OVC004 08/07 A2987 RMK AO2
KOZW 260715Z AUTO 11003KT 10SM OVC010 04/03 A3007 RMK AO2 T00420025
KP28 260656Z AUTO 00000KT 03/03 A2992 RMK AO1 SLP136 T00330028
KP53 260656Z AUTO 17008KT 140V210 00/M02 A3014 RMK AO1 SLP213 P0001 T00001017
KP58 260651Z AUTO 10011KT 02/01 A3015 RMK AO1 SLP219 P0001 T00170006
KP59 260651Z AUTO 17005KT 02/M04 A3013 RMK AO1 SLP214 T00171039
KP60 260656Z AUTO 00000KT M05/M07 A3000 RMK AO1 SLP162 T10501067 400331067 $
KP68 260653Z AUTO 15003KT M01/M03 A3004 RMK AO1 SLP163 T10111033
KP69 260652Z AUTO 00000KT 04/02 A3010 RMK AO1 SLP201 T00440022
KP92 260653Z AUTO VRB03KT 21/20 A2996 RMK AO1 SLP143 T02110200
KPAE 260653Z AUTO 12007KT 10SM FEW045 OVC060 07/02 A3002 RMK AO2 SLP166 T00720017
KPAH 260653Z AUTO 17008KT 10SM -RA FEW060 BKN075 OVC090 14/12 A2990 RMK AO2 RAE02B47 SLP124 P0000 T01440122
KPAM 260717Z AUTO 10003KT 10SM -DZ SCT110 BKN130 18/17 A3007 RMK AO2 RAE01DZB17 SLP186 $
KPAN 260715Z AUTO 03004KT 10SM CLR 08/M02 A3003 RMK AO2
KPAO 260347Z 30010KT 10SM FEW100 13/08 A3014 RMK LAST
KPBF 260653Z AUTO 36005KT 10SM CLR 11/08 A2994 RMK AO2 SLP136 T01110083
KPBG 260653Z AUTO 00000KT 10SM CLR M08/M10 A3051 RMK AO2 SLP334 I1000 T10831100
KPBH 260715Z AUTO 08003KT 10SM OVC006 00/00 A3000 RMK AO2 T00000000
KPBI 260653Z 10012KT 10SM FEW024 SCT033 SCT060 22/17 A3010 RMK AO2 SLP190 T02220167
KPBX 260715Z AUTO 16004KT 10SM CLR 17/08 A3006 RMK AO2 T01670076
KPCM 260715Z AUTO 00000KT 10SM CLR 18/16 A3014 RMK AO2
KPCW 260715Z AUTO 09009KT 10SM CLR 03/02 A3003 RMK AO2 $
KPCZ 260655Z AUTO 05007KT 5SM BR OVC005 03/02 A3003 RMK AO2 T00250016
KPDC 260715Z AUTO 00000KT 7SM OVC007 04/03 A2992 RMK AO2 T00370032
KPDK 260710Z 24004KT 2SM RA BR SCT022 BKN026 OVC065 15/14 A3011 RMK AO2 P0007 T01500139 $
KPDT 260653Z AUTO 13004KT 10SM FEW034 06/03 A3001 RMK AO2 SLP160 T00610028 TSNO
KPDX 260653Z 00000KT 10SM FEW040 BKN048 OVC060 08/06 A3004 RMK AO2 SLP171 T00780061
KPEA 260715Z AUTO 01007KT 2 1/2SM BR OVC002 06/06 A2985 RMK AO2 T00560055
KPEO 260653Z AUTO 00000KT 4SM -RA BR OVC002 02/00 A3033 RMK AO2 RAE06B28 SLP280 P0000 T00170000
KPEQ 260715Z AUTO 14009KT 10SM CLR 17/00 A2978 RMK AO2 T01711003
KPEX 260713Z AUTO 10004KT 10SM 03/01 A2999 RMK AO2 T00310013
KPEZ 260715Z AUTO 13004KT 5SM BR CLR 19/19 A2989 RMK AO2 T01900186
KPGA 260653Z AUTO VRB05KT 10SM CLR 10/03 A2994 RMK AO2 SLP109 T01000033 401670072 TSNO
KPGD 260653Z AUTO 02004KT 9SM BKN080 16/16 A3013 RMK AO2 SLP202 T01610156
KPGV 260705Z AUTO 16003KT 10SM CLR 15/13 A3023 RMK AO2
KPHD 260653Z AUTO 00000KT 10SM BKN070 BKN090 14/11 A3006 RMK AO2 SLP177 T01390106
KPHF 260654Z 19005KT 10SM CLR 15/11 A3021 RMK AO2 SLP229 T01500106 $
KPHL 260654Z 07009KT 10SM SCT017 OVC075 07/03 A3035 RMK AO2 SLP276 T00670033 $
KPHN 260704Z AUTO 06007KT 10SM BKN011 03/01 A3013 RMK AO2
KPHP 260655Z AUTO 09011KT 10SM CLR 03/02 A2984 RMK AO2 SLP105 T00330017 402061050
KPHT 260715Z AUTO 18008KT 6SM FEW004 SCT025 BKN041 13/12 A2993 RMK
KPHX 260651Z 23005KT 10SM SCT250 18/02 A2987 RMK AO2 SLP104 T01780017 402830139
KPIA 260654Z 17006KT 10SM OVC013 14/13 A2982 RMK AO2 RAB16E41 SLP098 P0000 T01440133 $
KPIB 260715Z AUTO 15005KT 1/4SM OVC002 14/12 A3002 RMK AO1
KPIE 260653Z AUTO 13008KT 10SM CLR 19/16 A3011 RMK AO2 SLP196 T01940161
KPIH 260653Z AUTO 20010KT 10SM CLR 04/M02 A3001 RMK AO2 SLP161 T00391022 401110033
KPIL 260706Z AUTO 16011KT 7SM SCT013 23/21 A2990 RMK AO2 T02280211
KPIM 260715Z AUTO 19006KT 10SM -RA SCT065 OVC085 17/16 A3010 RMK AO2 T01700155
KPIR 260653Z AUTO 14011KT 10SM OVC008 04/02 A2990 RMK AO2 SLP131 T00440022
KPIT 260651Z 11005KT 10SM BKN090 BKN180 16/11 A3009 RMK AO2 SLP194 T01560111
KPKB 260653Z AUTO 13004KT 10SM FEW080 18/09 A3007 RMK AO2 SLP179 T01780089
KPKD 260653Z AUTO 12005KT OVC018 01/M03 A3000 RMK AO2 SLP175 T00061028 $
KPKV 260715Z AUTO 00000KT 7SM SCT007 21/21 A2992 RMK AO2 T02060206
KPLN 260654Z AUTO 10014G21KT 9SM -FZRA BKN010 OVC030 00/M02 A3017 RMK AO2 UPE14FZRAB14 SLP224 P0001 I1002 T00001022
KPLR 260715Z AUTO 00000KT 10SM FEW070 14/14 A3005 RMK A01
KPLU 260715Z AUTO 00000KT 10SM 06/05 A3001 RMK AO2
KPMD 260653Z AUTO 22005KT 10SM CLR 09/04 A3005 RMK AO2 SLP167 T00890044
KPMP 260653Z AUTO 13009KT 4SM -RA BR FEW014 BKN050 OVC060 21/19 A3009 RMK AO2 RAB40 SLP189 P0000 T02110189
KPMU 260715Z AUTO 00000KT 7SM BKN005 BKN070 13/13 A2994 RMK AO2 T01330128
KPMV 260715Z AUTO 34003KT 2SM BR OVC002 05/03 A2989 RMK AO2 T00450034
KPNA 260715Z AUTO 30013KT 10SM CLR M02/M04 A2995 RMK AO2
KPNC 260653Z AUTO 08003KT 10SM OVC014 08/04 A2992 RMK AO2 SLP129 T00830044
KPNE 260654Z 07013KT 10SM BKN016 BKN023 07/04 A3037 RMK AO2 SLP284 T00670039
KPNM 260715Z AUTO 04005KT 10SM OVC017 02/M01 A3000 RMK AO2
KPNS 260653Z AUTO 13008KT 10SM OVC007 19/17 A3005 RMK AO2 SLP177 T01940172
KPNT 260715Z AUTO 11008KT 10SM SCT046 SCT050 BKN070 14/13 A2986 RMK AO2 T01350131
KPOB 260658Z AUTO 00000KT 10SM CLR 16/12 A3020 RMK AO2 SLP228 T01560118 $
KPOC 260347Z 26006KT 10SM FEW017 SCT023 BKN034 13/10 A3007
KPOE 260708Z AUTO 20004KT 6SM BR SCT002 BKN011 17/17 A2994 RMK AO2 CIG 002V011 BKN V OVC SLP139
KPOF 260653Z AUTO 25003KT 10SM BKN100 13/09 A2990 RMK AO2 SLP124 T01280094 TSNO
KPOU 260653Z AUTO 36006KT 10SM OVC016 01/M01 A3042 RMK AO2 SLP300 T00111006
KPOV 260719Z AUTO 07006KT 10SM SCT070 SCT080 08/06 A3008 RMK AO2
KPOY 260715Z AUTO 26005KT 10SM SCT080 01/M04 A2991 RMK AO2
KPPA 260715Z AUTO 15009KT 10SM CLR 09/01 A2983 RMK AO2 T00860005
KPPF 260652Z AUTO 27003KT 7SM OVC011 08/07 A2991 RMK AO2 SLP129 T00780072
KPPO 260715Z AUTO 11011KT 7SM BKN040 BKN065 BKN080 08/08 A2995 RMK AO2 T00830076
KPPQ 260715Z AUTO 19008KT 10SM OVC007 12/11 A2982 RMK AO2 T01200110
KPQI 260656Z AUTO 33006KT 10SM CLR M09/M18 A3045 RMK AO2 SLP359 T10941178 FZRANO
KPQL 260710Z AUTO 00000KT 1 1/2SM BR CLR 13/12 A3001 RMK AO2 T01280122
KPQN 260714Z AUTO 12005KT 1 1/4SM BR OVC002 02/01 A2993 RMK AO2
KPRB 260653Z AUTO 30008KT 10SM FEW024 BKN034 10/07 A3011 RMK AO2 SLP195 T01000072 TSNO
KPRC 260653Z AUTO 30007KT 10SM CLR 06/M02 A3001 RMK AO2 SLP120 T00611017 401670039
KPRG 260715Z AUTO 14010KT 10SM SCT030 SCT050 BKN070 15/14 A2989 RMK AO2 T01450137
KPRN 260656Z AUTO 00000KT 10SM CLR 15/13 A3005 RMK AO2 SLP171 T01500133 $
KPRO 260715Z AUTO 01007KT 1SM BR OVC003 04/04 A2987 RMK AO2 T00440040
KPRS 260715Z AUTO 36009KT 10SM CLR 20/M09 A2983 RMK AO2 T01961090
KPRX 260715Z 12006KT 10SM CLR 11/08 A2992 RMK AO1
KPSC 260653Z AUTO 21006KT 10SM CLR 08/01 A3002 RMK AO2 SLP165 T00830011
KPSF 260654Z AUTO 08003KT 3SM BR CLR M02/M04 A3038 RMK AO2 SLP297 I1001 T10221039
KPSK 260715Z AUTO 00000KT 10SM CLR 11/08 A3017 RMK AO2 T01060077
KPSM 260658Z 01003KT 10SM FEW250 M02/M03 A3045 RMK AO2A SLP315 T10241033
KPSN 260715Z AUTO 00000KT 10SM CLR 10/10 A2994 RMK AO2 T01040101
KPSO 260715Z AUTO 23005KT 10SM -SN BKN005 OVC009 02/02 A2992 RMK AO2 T00210020
KPSP 260653Z 32011G16KT 10SM CLR 20/08 A2994 RMK AO2 SLP137 T02000078
KPSX 260653Z AUTO 18011KT 10SM BKN012 BKN018 22/20 A2992 RMK AO2 SLP132 T02220200
KPTB 260715Z AUTO 00000KT 10SM CLR 10/09 A3020 RMK AO2 T00970089
KPTK 260653Z AUTO 10008KT 10SM OVC008 03/01 A3008 RMK AO2 SLP194 T00330011
KPTN 260700Z AUTO 16004KT 7SM FEW008 OVC014 19/19 A2998 RMK AO2
KPTS 260715Z AUTO 00000KT 5SM BR BKN004 BKN008 OVC011 09/09 A2989 RMK AO2 T00910092
KPTT 260715Z AUTO 00000KT 7SM OVC003 03/03 A2992 RMK AO2 T00330026
KPTV 260656Z AUTO 13003KT 10SM CLR 11/09 A3011 RMK AO2 SLP211 T01060094 401830106
KPTW 260654Z AUTO 08007KT 6SM BR OVC012 06/03 A3036 RMK AO2 SLP279 T00560033 TSNO
KPUB 260653Z AUTO 01007KT 10SM CLR 06/M02 A2977 RMK AO2 SLP057 T00561017 401831039
KPUC 260653Z AUTO 30009KT 10SM CLR 04/M01 A2993 RMK AO2 SLP128 T00391011 401170028
KPUJ 260715Z AUTO 18004KT 7SM -RA BKN004 BKN007 OVC044 17/ A3008 RMK AO2
KPUW 260653Z AUTO 09006KT 10SM CLR 02/01 A3002 RMK AO2 SLP180 T00220006
KPVB 260715Z AUTO 06013KT 1 3/4SM OVC003 05/05 A2988 RMK AO1 T00460046
KPVC 260656Z AUTO 02004KT 10SM CLR 03/01 A3044 RMK AO2 SLP309 T00280011
KPVD 260651Z AUTO 36006KT 10SM CLR 00/M03 A3045 RMK AO2 SLP310 T00001028 TSNO
KPVF 260715Z AUTO 10005KT 10SM CLR 07/05 A3009 RMK AO1
KPVG 260715Z 19004KT 10SM CLR 14/09 A3021 RMK AO1
KPVJ 260715Z AUTO 00000KT 10SM CLR 07/06 A2990 RMK AO2 T00710062
KPVU 260718Z 00000KT 10SM OVC013 05/03 A3004 RMK AO2
KPVW 260715Z AUTO 16006KT 10SM CLR 08/00 A2982 RMK AO2 T00831005
KPWA 260653Z AUTO 10006KT 10SM CLR 09/07 A2991 RMK AO2 SLP125 T00890067
KPWC 260713Z AUTO 10004KT 10SM OVC017 01/M02 A3006 RMK AO2
KPWG 260656Z AUTO 16003KT 10SM CLR 12/09 A2991 RMK AO2 SLP141 T01220089
KPWK 260652Z AUTO 06004KT 2 1/2SM BR OVC002 06/06 A2993 RMK AO2 RAB08E20 SLP141 P0001 T00610061 $
KPWM 260651Z AUTO VRB03KT 10SM CLR M02/M12 A3048 RMK AO2 SLP322 T10171122 $
KPWT 260715Z AUTO 00000KT 10SM SCT037 OVC048 04/02 A3004 RMK AO1
KPXE 260715Z AUTO 19006KT 10SM 20/14 A3014 RMK AO2 T01950136
KPYM 260711Z AUTO 36003KT 6SM BR CLR M03/M04 A3044 RMK AO2 T10331044 TSNO
KPYX 260715Z AUTO 13009KT 10SM CLR 07/05 A2984 RMK AO2 T00700050
KPZQ 260715Z AUTO 12009G14KT 7SM UP SCT011 BKN027 OVC036 01/00 RMK AO2 T00071005
KRAC 260653Z AUTO 04010KT 2 1/2SM -RA BR OVC002 04/03 A2998 RMK AO2 RAB08 SLP157 P0003 T00390033
KRAL 260653Z AUTO 00000KT 10SM CLR 12/11 A3004 RMK AO2 SLP163 T01220111
KRAP 260652Z AUTO 34009KT 10SM OVC110 08/M01 A2982 RMK AO2 SLP093 T00781011 401940011
KRAS 260715Z AUTO 15008KT 4SM BR SCT012 21/21 A2990 RMK AO2 T02100206
KRBD 260653Z AUTO 13003KT 10SM CLR 12/08 A2990 RMK AO2 SLP120 T01170083
KRBG 260653Z AUTO 00000KT 10SM OVC110 07/05 A3004 RMK AO2 SLP175 T00670050
KRBL 260654Z AUTO 00000KT 10SM CLR 11/09 A3007 RMK AO2 SLP180 T01110089
KRBO 260655Z AUTO 00000KT 10SM CLR 21/21 A2990 RMK AO2 T02100210
KRBW 260715Z AUTO 00000KT 10SM CLR 12/12 A3019 RMK AO2
KRCA 260658Z AUTO 01008KT 10SM SCT100 08/M01 A2982 RMK AO2 SLP095 T00821008 401840030
KRCE 260635Z AUTO 12005KT 10SM CLR 07/07 A2992 RMK AO2
KRCM 260735Z AUTO 29003KT 7SM OVC008 08/07 A2986 RMK AO2
KRCR 260653Z AUTO 10008KT 7SM BKN042 OVC049 09/08 A2997 RMK AO2 P0001
KRCV 260715Z AUTO 02004KT 10SM SCT085 BKN110 02/00 A2989 RMK AO2 T00200003
KRCX 260715Z AUTO 04003KT 10SM OVC009 01/01 A3002 RMK AO2 T00130007
KRCZ 260700Z AUTO 14005KT 10SM CLR 14/13 A3020 RMK AO2 T01360125
KRDD 260653Z AUTO 00000KT 10SM BKN040 OVC060 10/08 A3005 RMK AO2 SLP175 T01000078
KRDG 260654Z AUTO 12009KT 10SM OVC013 07/05 A3034 RMK AO2 SLP278 T00720050
KRDK 260715Z AUTO 35004KT 9SM OVC006 05/05 A2988 RMK AO2
KRDM 260656Z AUTO 00000KT 10SM OVC110 04/M01 A2998 RMK AO2 SLP153 T00441011
KRDR 260658Z AUTO 18008KT 10SM CLR 01/01 A2998 RMK AO2 SLP167 T00100006
KRDU 260651Z 22006KT 10SM BKN250 15/11 A3020 RMK AO2 SLP225 T01500111 $
KREG 260715Z AUTO 00000KT 10SM OVC011 18/17 A2997 RMK AO2 T01750170
KREO 260652Z AUTO 13009KT 02/M02 A2998 RMK AO1 SLP155 T00171022 401441017
KRFD 260654Z 09007KT 4SM BR OVC004 08/07 A2991 RMK AO2 SLP131 T00830067 $
KRFI 260715Z AUTO 00000KT 10SM CLR A2994 RMK AO2
KRGA 260715Z AUTO 21003KT 10SM SCT100 SCT120 16/12 A3002 RMK AO2
KRGK 260716Z AUTO 00000KT 5SM DZ BKN012 OVC016 02/01 A2998 RMK AO2
KRHI 260653Z AUTO 10009KT 10SM OVC005 01/01 A3002 RMK AO2 RAE0554 SLP183 P0000 T00060006 TSNO
KRHP 260700Z AUTO 16012G21KT 10SM OVC075 17/11 A3009 RMK AO2 T01670105
KRHV 260453Z 34005KT 10SM SKC 12/09 A3017
KRIC 260654Z 20005KT 10SM SCT220 SCT300 14/11 A3019 RMK AO2 SLP226 T01440106
KRID 260715Z AUTO 18005KT 7SM RA SCT032 BKN065 OVC080 13/12 A3001 RMK AO2 P0002
KRIL 260653Z AUTO 10005KT 10SM OVC080 05/01 A2989 RMK AO2 SLP088 T00500011 401781022
KRIV 260658Z AUTO 00000KT 10SM OVC005 10/10 A3004 RMK AO2 SLP169 T01040104
KRIW 260653Z AUTO 36006KT 10SM -RA BKN034 OVC047 03/02 A2992 RMK AO2 RAE00B52 SLP116 P0000 T00280017 401220028
KRKD 260656Z AUTO VRB03KT 10SM CLR M01/M12 A3046 RMK AO2 SLP316 T10111117 FZRANO
KRKP 260653Z AUTO 16009KT 7SM FEW008 22/21 A2991 RMK AO2 SLP128 T02220206
KRKR 260715Z AUTO 00000KT 10SM CLR 08/07 A2992 RMK AO2 T00800070
KRKS 260704Z AUTO 30009KT 10SM SCT013 BKN023 OVC048 03/00 A2995 RMK AO2 T00280000 TSNO
KRLD 260715Z AUTO 19003KT 10SM CLR 09/02 A3002 RMK AO2 T00850021
KRME 260653Z AUTO 11007KT 10SM FEW110 01/M01 A3042 RMK AO2 SLP303 T00061011
KRMG 260653Z AUTO 00000KT 7SM -RA OVC006 16/14 A3005 RMK AO2 SLP168 P0006 T01560144 $
KRMN 260715Z AUTO 05007KT 10SM SCT060 OVC070 16/10 A3024 RMK AO2 T01560103
KRMY 260714Z AUTO 09010KT 10SM BKN060 OVC075 05/04 A3005 RMK AO2 T00510042
KRNC 260715Z AUTO 00000KT 10SM FEW075 BKN090 14/14 A3000 RMK
KRND 260658Z AUTO 14003KT 10SM OVC005 16/16 A2989 RMK AO2 SLP116 T01580158 $
KRNH 260715Z AUTO 08006KT 10SM OVC010 02/01 A3000 RMK AO2 T00150012
KRNM 260705Z AUTO 33003KT 10SM BKN007 OVC033 12/12 A3004 RMK AO2 T01220117 $
KRNO 260655Z 00000KT 10SM SCT200 06/M01 A3004 RMK AO2 SLP156 T00561006
KRNP 260715Z AUTO 04003KT 7SM OVC010 04/02 A3010 RMK AO2 T00370018
KRNT 260653Z AUTO 00000KT 10SM FEW035 BKN047 OVC065 08/06 A3002 RMK AO2 SLP171 T00780056
KRNV 260715Z AUTO 15006KT 10SM CLR 15/15 A2992 RMK AO2 T01500150
KROA 260654Z 00000KT 10SM SCT240 15/08 A3017 RMK AO2 SLP207 T01500083
KROC 260711Z 10006KT 10SM SCT014 OVC090 02/00 A3032 RMK AO2 T00220000
KROG 260658Z AUTO 00000KT 10SM BKN007 OVC011 08/07 A2991 RMK AO2 CIG 005V008 SLP130 T00780072
KROS 260714Z AUTO 05004KT 5SM DZ OVC012 01/00 A3002 RMK AO2 T00101001
KROW 260651Z AUTO 20007KT 10SM CLR 11/M04 RMK AO2 SLPNO T01061044 402610006 $
KROX 260714Z AUTO 17009KT 10SM CLR 01/M02 A3000 RMK AO2
KRPD 260715Z AUTO 00000KT 10SM OVC010 02/01 A3002 RMK AO2 T00180010
KRPH 260715Z AUTO 13006KT 10SM CLR 13/07 A2986 RMK AO2 T01270068
KRPJ 260715Z AUTO 08008KT 1 3/4SM BR OVC004 09/09 A2987 RMK AO2 T00880086
KRPX 260655Z AUTO 20006KT 10SM 05/M01 A2983
KRQB 260715Z AUTO 11011G15KT 10SM UP OVC006 02/01 A3007 RMK AO2 T00220011
KRQE 260653Z AUTO 17003KT 10SM CLR 03/M01 A2998 RMK AO2 SLP091 T00331011 401721050 TSNO
KRRL 260715Z AUTO 10008KT 10SM OVC005 00/00 A3001 RMK AO2 T00030002
KRRT 260714Z AUTO 16008KT 10SM CLR 00/M02 A3001 RMK AO2
KRSL 260653Z AUTO 00000KT 9SM OVC005 05/04 A2990 RMK AO2 SLP133 T00500039
KRSN 260715Z AUTO 00000KT 10SM CLR 12/11 A2997 RMK AO2 T01170110
KRSP 260654Z AUTO 12011G18KT BKN007 OVC075 RMK AO2 CIG 006V010 SLPNO PWINO FZRANO $
KRST 260654Z AUTO 08009KT 3/4SM R31/3500V5000FT BR VV002 01/01 A2994 RMK AO2 SLP151 T00110011
KRSV 260715Z AUTO 17009KT 10SM SCT014 SCT049 OVC060 15/14 A2990 RMK AO2 T01500137
KRSW 260653Z 05004KT 10SM OVC075 19/16 A3010 RMK AO2 SLP191 T01890156
KRTN 260653Z AUTO 26005KT 10SM CLR 04/M03 A2982 RMK AO2 SLP054 T00441028 401721044
KRTS 260715Z AUTO 32005KT 10SM CLR 02/M01 A3005 RMK AO2
KRUE 260653Z AUTO 00000KT 10SM OVC050 08/08 A2992 RMK AO2 SLP128 T00830078
KRUG 260715Z AUTO VRB04G11KT 10SM 02/02 A2991 RMK AO2
KRUQ 260655Z AUTO 17007KT 10SM CLR 14/11 A3018 RMK AO2 T01400113
KRUT 260719Z AUTO 08003KT 9SM FEW002 M06/M06 A3044 RMK AO2 FZRANO $
KRVS 260653Z 00000KT 8SM CLR 06/04 A2993 RMK AO2 SLP138 T00560044
KRWF 260709Z AUTO 08005KT 10SM BKN009 OVC015 04/01 A2996 RMK AO2 T00390011
KRWI 260653Z AUTO 00000KT 10SM CLR 11/11 A3022 RMK AO2 SLP231 T01110106 $
KRWL 260718Z AUTO 28010KT 10SM BKN010 OVC022 04/02 A2989 RMK AO2 RAE0657 P0000 T00390017 TSNO
KRXE 260653Z AUTO 21006KT 10SM CLR 02/M04 A2998 RMK AO2 SLP159 T00221039 400940022
KRYN 260247Z 25012G17KT 10SM CLR 22/M01 A2993 RMK LAST
KRYT 260705Z AUTO 04004KT 7SM FEW018 OVC085 09/06 A3025 RMK AO2 TSNO $
KRYV 260715Z AUTO 09010KT 2 1/2SM BR OVC002 04/04 A2994 RMK AO2 T00400040
KRYW 260715Z AUTO 13004KT 10SM CLR 17/11 A2991 RMK AO2 T01700106
KRYY 260249Z 14006KT 10SM BKN080 19/09 A3008
KRZL 260715Z AUTO 11010KT 4SM -RA SCT008 BKN017 OVC026 11/11 A2992 RMK AO2 P0012
KRZN 260650Z AUTO 07004KT 10SM OVC012 01/M01 A3003 RMK AO2 T00141011
KRZR 260715Z AUTO VRB03KT 10SM SCT008 BKN012 OVC050 15/15 A3004 RMK A01
KRZT 260715Z AUTO 17003KT 10SM CLR 15/08 A2999 RMK AO2
KS25 260715Z AUTO 17006KT 10SM BKN120 05/01 A2989 RMK AO2
KS32 260715Z AUTO 16006KT 5SM BR SCT005 00/00 A2997 RMK AO2
KS39 260715Z AUTO 00000KT 10SM OVC100 03/00 A2997 RMK AO2
KSAA 260715Z AUTO 22005KT 10SM SCT018 BKN024 OVC040 03/03 A2990 RMK AO2
KSAC 260653Z AUTO 20006KT 10SM CLR 10/09 A3009 RMK AO2 SLP188 T01000089
KSAD 260651Z AUTO 32008KT 10SM CLR 14/M02 A2991 RMK AO2 SLP096 T01441017 402670033
KSAF 260653Z AUTO 23011KT 10SM BKN070 OVC090 08/M01 A2993 RMK AO2 SLP068 T00781006 401831028
KSAN 260651Z 33008KT 10SM BKN015 BKN043 17/12 A3006 RMK AO2 SLP178 T01670122
KSAR 260715Z AUTO 20004KT 10SM SCT022 BKN050 OVC055 13/12 A2988 RMK AO2 T01310116
KSAT 260651Z 15009KT 10SM BKN007 19/18 A2989 RMK AO2 SLP106 T01940178
KSAV 260653Z AUTO 14005KT 10SM CLR 17/13 A3018 RMK AO2 SLP217 T01670128 $
KSAW 260717Z AUTO 14007KT 7SM -SN OVC006 M01/M02 A3010 RMK AO2 T10101016
KSAZ 260713Z AUTO 00000KT 10SM OVC022 01/M02 A3001 RMK AO2
KSBA 260653Z AUTO 04010KT 10SM CLR 14/09 A3002 RMK AO2 SLP165 T01390089
KSBD 260658Z AUTO 23005KT 10SM OVC025 14/11 A3004 RMK AO2 T01400105
KSBM 260653Z AUTO 06011KT 4SM BR OVC002 03/02 A3002 RMK AO2 UPB13E25 SLP172 P0000 T00280022
KSBN 260654Z AUTO 10013KT 8SM -RA FEW006 BKN055 OVC095 07/ A2997 RMK AO2 RAE0556B40 SLP150 P0000 T0067 $
KSBO 260715Z AUTO 14004KT 10SM SCT050 BKN065 15/13 A3017 RMK AO2 TSNO
KSBP 260656Z AUTO 30004KT 10SM CLR 12/10 A3010 RMK AO2 SLP191 T01170100
KSBS 260714Z AUTO 00000KT 10SM OVC025 03/02 A2991 RMK AO1 T00280022
KSBY 260654Z AUTO 06008KT 8SM OVC007 09/08 A3027 RMK AO2 SLP251 T00890078
KSCD 260715Z AUTO 19003KT 10SM SCT012 OVC085 16/16 A3006 RMK AO2 T01620162
KSCF 260715Z AUTO 00000KT 2SM BR OVC004 22/22 A2999 RMK A01
KSCK 260655Z AUTO 27008KT 10SM CLR 10/08 A3010 RMK AO2 SLP191 T01000083
KSCR 260700Z AUTO 18003KT 10SM CLR 13/11 A3019 RMK AO2 T01300108
KSDA 260715Z AUTO 32005KT 10SM OVC008 05/05 A2989 RMK AO2
KSDB 260709Z AUTO 35014KT 10SM BKN004 OVC008 07/05 A3009 RMK AO2 CIG 002V006 T00670050
KSDF 260656Z 17007KT 5SM RA BR FEW010 OVC065 16/13 A2998 RMK AO2 SLP150 P0012 T01560133
KSDL 260653Z AUTO 25003KT 10SM CLR 16/02 A2990 RMK AO2 SLP108 T01610017 402720117
KSDM 260653Z AUTO 00000KT 10SM FEW009 OVC041 14/13 A3005 RMK AO2 SLP171 T01440133
KSDY 260656Z AUTO 26005KT 10SM CLR 06/M01 A2989 RMK AO2 SLP135 T00561011
KSEA 260653Z 14007KT 10SM SCT035 BKN044 OVC070 07/04 A3002 RMK AO2 SLP174 T00720039
KSEE 260715Z AUTO 29003KT 10SM OVC041 15/13 A3004 RMK AO2
KSEG 260653Z AUTO 00000KT OVC018 07/04 A3032 RMK AO2 SLP267 T00720044
KSEM 260715Z AUTO 00000KT 10SM BKN080 15/14 A3004 RMK AO2
KSEP 260715Z AUTO 00000KT 10SM CLR 12/06 A2992 RMK AO2 T01170064
KSET 260717Z AUTO 21008KT 10SM OVC015 12/11 A2984 RMK AO2 T01170106
KSEZ 260715Z AUTO 06005KT 10SM CLR 09/01 A3000 RMK AO2
KSFB 260653Z AUTO 00000KT 10SM CLR 16/15 A3014 RMK AO2 SLP203 T01610150
KSFF 260653Z AUTO 04005KT 10SM CLR 03/01 A3001 RMK AO2 SLP168 T00330006
KSFM 260656Z AUTO 00000KT 10SM CLR M09/M11 A3047 RMK AO2 SLP329 T10941106 FZRANO
KSFO 260656Z 26007KT 10SM FEW015 12/08 A3013 RMK AO2 SLP202 T01170078 $
KSFQ 260715Z AUTO 00000KT 10SM CLR 12/11 A3023 RMK AO2 T01200108
KSFY 260715Z AUTO 04009KT 4SM BR OVC005 07/07 A2986 RMK AO2 T00700065
KSFZ 260656Z AUTO 04005KT 10SM CLR M03/M04 A3043 RMK AO2 SLP329 T10281039 FZRANO
KSGF 260652Z 21005KT 10SM OVC016 08/07 A2987 RMK AO2 SLP116 T00830067
KSGH 260656Z AUTO 13007KT 10SM BKN080 OVC095 15/09 A2999 RMK AO2 SLP154 T01500094
KSGJ 260658Z AUTO 15007KT 10SM CLR 19/16 A3015 RMK AO2 SLP208 T01890161
KSGR 260702Z AUTO 19004KT 5SM BR BKN010 OVC019 21/20 A2993 RMK AO2 T02110200
KSGS 260714Z AUTO 08004KT 7SM BKN011 OVC014 03/02 A2999 RMK AO2 T00300020
KSGT 260715Z AUTO 32007KT 10SM CLR 11/05 A2994 RMK AO1
KSGU 260656Z AUTO 14006KT 10SM CLR 07/03 A3001 RMK AO2 SLP157 T00720033 401500067
KSHD 260715Z AUTO 00000KT 10SM CLR 08/07 A3017 RMK AO2 T00820068
KSHL 260715Z AUTO 04005KT 5SM BR OVC004 02/02 A2991 RMK AO2
KSHM 260658Z AUTO 02008KT 10SM BKN130 04/M04 A2983 RMK AO2 SLP081 T00401036 $
KSHN 260653Z AUTO 00000KT 10SM BKN050 OVC065 04/03 A3000 RMK AO2 SLP163 T00440028
KSHR 260653Z AUTO 17004KT 10SM -RA OVC012 03/03 A2995 RMK AO2 SLP151 P0004 T00330028 401170033
KSHV 260656Z 00000KT 10SM CLR 12/09 A2993 RMK AO2 SLP133 T01170094 $
KSIF 260700Z AUTO 21004KT 10SM CLR 15/10 A3018 RMK AO2 T01460102
KSIK 260715Z AUTO 21005KT 10SM SCT055 BKN065 14/12 A2991 RMK AO2
KSIY 260653Z AUTO 00000KT 10SM CLR 03/01 A3001 RMK AO2 SLP175 T00330011
KSJC 260653Z 34003KT 6SM HZ FEW032 FEW044 SCT200 11/08 A3013 RMK AO2 SLP201 LAST T01110078 $
KSJN 260654Z AUTO 18006KT 10SM CLR 02/M02 A2999 RMK AO2 SLP112 T00221017 402111028 TSNO
KSJS 260715Z AUTO 16008KT 10SM CLR 18/08 A3005 RMK AO2 T01770077
KSJT 260651Z 18007KT 10SM CLR 13/01 A2985 RMK AO2 SLP094 T01330011
KSJX 260717Z AUTO 09008KT 7SM UP OVC014 00/00 A3013 RMK AO2 T00001005
KSKA 260658Z AUTO 09005KT 10SM CLR 02/M02 A2997 RMK AO2 SLP164 T00181017 $
KSKF 260658Z AUTO 16009KT 8SM OVC007 19/18 A2987 RMK AO2 OVC V BKN SLP109 T01910181 $
KSKX 260715Z AUTO 15008KT 10SM 03/M01 A2994 RMK AO1
KSLB 260715Z AUTO 04006KT 1/4SM FG OVC002 03/03 A2990 RMK AO2
KSLC 260654Z 25004KT 10SM FEW060 BKN080 04/03 A3002 RMK AO2 SLP164 T00390033 401330039
KSLE 260656Z AUTO 20005KT 10SM BKN046 OVC055 08/04 A3002 RMK AO2 SLP168 T00830039
KSLG 260715Z AUTO 00000KT 10SM OVC036 08/06 A2991 RMK AO1
KSLH 260714Z AUTO 10009KT 7SM UP SCT012 BKN025 OVC031 00/M01 A3017 RMK AO2 T10011011
KSLI 260658Z AUTO 00000KT 10SM CLR 12/11 A3003 RMK AO2 SLP172 T01190105
KSLK 260651Z AUTO 00000KT 10SM CLR M14/M15 A3037 RMK AO2 SLP315 T11391150 $
KSLN 260704Z AUTO 31003KT 3SM BR OVC004 07/06 A2993 RMK AO2 CIG 002V006 T00670056
KSLO 260715Z AUTO 17006KT 10SM SCT009 BKN120 15/13 A2986 RMK AO2 T01450130
KSLR 260715Z AUTO 00000KT 10SM CLR 11/10 A2994 RMK AO2 T01080100
KSME 260715Z AUTO 28003KT 10SM -RA BKN075 OVC100 14/12 A3004 RMK AO2
KSMF 260653Z 17007KT 10SM CLR 11/09 A3008 RMK AO2 SLP184 T01110094
KSMN 260715Z AUTO 21006KT 10SM CLR 03/M06 A2998 RMK AO1
KSMO 260651Z AUTO 01003KT 10SM CLR 13/12 A3004 RMK AO2 SLP171 T01330122
KSMP 260556Z AUTO 00000KT 10SM FEW001 BKN100 M01/M01 A2994 RMK AO2 SLP163 60001 T10111011 10000 21011 56010 $
KSMQ 260653Z AUTO 06006KT 10SM SCT022 BKN035 OVC050 06/02 A3038 RMK AO2 SLP287 T00610022 $
KSMS 260715Z AUTO 00000KT 10SM SCT037 SCT044 SCT050 11/11 A3020 RMK AO2
KSMX 260651Z AUTO 00000KT 6SM BR CLR 10/10 A3009 RMK AO2 SLP192 T01000100 $
KSNA 260653Z AUTO 15003KT 10SM CLR 14/12 A3004 RMK AO2 SLP172 T01440122 $
KSNH 260715Z AUTO 18007G15KT 10SM BKN010 OVC015 15/14 A2995 RMK A01
KSNK 260715Z AUTO 15012KT 10SM CLR 14/02 A2985 RMK AO2 T01400020
KSNL 260715Z AUTO 00000KT 10SM CLR 06/05 A2992 RMK AO2 T00560046
KSNS 260653Z 20004KT 10SM CLR 11/08 A3013 RMK AO2 SLP211 T01110078
KSNT 260651Z AUTO 21003KT M05/M08 A3002 RMK AO1 SLP156 T10501078 400501067
KSNY 260653Z AUTO 17005KT 10SM CLR 04/M01 A2984 RMK AO2 SLP092 T00441006 401721067
KSOA 260715Z AUTO 00000KT 5SM HZ CLR 13/00 A2992 RMK AO2
KSOP 260656Z AUTO 17003KT 10SM CLR 14/12 A3021 RMK AO2 SLP243 T01390117
KSOW 260715Z AUTO 19007KT 10SM CLR 02/M04 A3004 RMK AO2
KSPA 260715Z AUTO 13003KT 10SM CLR 12/10 A3017 RMK AO2
KSPB 260653Z AUTO 00000KT 10SM SCT046 OVC060 06/06 A3002 RMK AO2 SLP166 T00610056
KSPD 260656Z AUTO 15009KT 04/M04 A2980 RMK AO1 SLP059 T00391039 401891033
KSPF 260715Z AUTO 30006KT 10SM -UP FEW032 SCT048 BKN075 06/00 A2986 RMK AO2
KSPG 260653Z AUTO 14011KT 10SM CLR 20/17 A3010 RMK AO2 SLP191 T02000172
KSPI 260652Z AUTO 18008KT 10SM FEW011 13/12 A2983 RMK AO2 SLP100 T01330122 $
KSPR 260715Z AUTO 21013KT 4SM BR CLR 22/22 A2997 RMK A01
KSPS 260652Z AUTO 14004KT 10SM CLR 10/06 A2986 RMK AO2 SLP108 T01000056
KSPW 260705Z AUTO 05008KT 3SM BR OVC002 03/03 A2992 RMK AO2 T00280028 TSNO $
KSQI 260656Z AUTO 08011KT 1 1/2SM BR OVC002 09/08 A2985 RMK AO2 SLP130 P0001 T00890083
KSQL 260715Z AUTO 24003KT 10SM CLR 11/08 A3013 RMK AO2
KSRB 260715Z AUTO 12004KT 7SM FEW041 SCT048 OVC060 14/13 A3000 RMK A01
KSRC 260656Z AUTO 00000KT 10SM OVC095 12/09 A2994 RMK AO2 SLP143 T01170094
KSRQ 260653Z AUTO 12010KT 10SM CLR 19/16 A3008 RMK AO2 SLP187 T01890161
KSRR 260655Z AUTO 30011G19KT CLR 12/M11 A2996 RMK AO2
KSSC 260658Z AUTO 00000KT 10SM CLR 14/12 A3017 RMK AO2 SLP217 T01400119 $
KSSF 260653Z AUTO 15005KT 4SM BR BKN007 OVC012 19/17 A2987 RMK AO2 SLP108 T01890172
KSSI 260653Z AUTO 12006KT 10SM CLR 18/16 A3015 RMK AO2 SLP210 T01830156
KSTC 260653Z AUTO 06006KT 10SM OVC019 02/M01 A3000 RMK AO2 SLP177 T00221006
KSTE 260715Z AUTO 07008G14KT 3SM UP OVC003 00/00 A3000 RMK AO2 T10021002
KSTF 260715Z AUTO 17008KT 10SM OVC008 15/13 A2999 RMK AO2
KSTJ 260653Z AUTO 31005KT 6SM BR OVC009 06/06 A2989 RMK AO2 SLP122 T00610061
KSTK 260710Z AUTO 20003KT 10SM CLR 07/00 A2982 RMK AO2
KSTL 260651Z 22007KT 10SM OVC014 13/10 A2986 RMK AO2 SLP106 T01280100 $
KSTP 260715Z AUTO 09006KT 6SM -RA BR OVC009 03/02 A3001 RMK AO2 RAB01 P0000 T00280022
KSTS 260653Z 12003KT 10SM CLR 09/08 A3011 RMK AO2 SLP188 T00890078
KSUA 260715Z AUTO 11009KT 10SM CLR 22/17 A3012 RMK AO2
KSUE 260656Z AUTO 07007G14KT 10SM -RA OVC003 01/01 A3007 RMK AO2 SLP206 P0004 T00110011 FZRANO
KSUN 260715Z AUTO 32009KT 10SM CLR 01/M05 A3001 RMK AO2
KSUS 260654Z AUTO 21009KT 10SM OVC016 12/09 A2985 RMK AO2 SLP107 T01170094
KSUT 260705Z AUTO 00000KT 10SM SCT050 17/13 A3021 RMK AO2 T01660132
KSUU 260658Z AUTO 23012KT 10SM CLR 10/09 A3006 RMK AO2 SLP186 T00980092 $
KSUW 260715Z AUTO 06007KT 10SM OVC006 01/00 A3007 RMK AO2 T00050000
KSUX 260652Z 34006KT 6SM BR OVC004 04/03 A2993 RMK AO2 SLP144 T00390033
KSVC 260715Z AUTO 32010KT 10SM CLR 08/M03 A2997 RMK AO2 T00781034
KSVE 260715Z AUTO 00000KT 10SM CLR 02/00 A3005 RMK AO2
KSVH 260700Z AUTO 22004KT 10SM CLR 14/13 A3018 RMK AO2 T01390134
KSVN 260658Z AUTO 00000KT 10SM CLR 17/15 A3015 RMK AO2 SLP213 T01670146
KSWF 260645Z 05005KT 10SM BKN035 02/01 A3043
KSWO 260653Z AUTO 00000KT 7SM CLR 03/02 A2991 RMK AO2 SLP130 T00330022
KSWW 260715Z AUTO 14010KT 10SM CLR 15/02 A2987 RMK AO2 T01500021
KSXS 260703Z AUTO 16004KT 10SM FEW065 BKN095 17/16 A3006 RMK AO2 RAE03 SLP179
KSXT 260719Z AUTO 18011KT 10SM FEW001 SCT075 01/01 A2997 RMK AO2 T00110006
KSYF 260720Z AUTO 19004KT 10SM CLR 05/03 A2987 RMK AO2
KSYI 260715Z AUTO 10SM FEW080 SCT110 A2999 RMK
KSYM 260710Z AUTO 16003KT 10SM FEW080 17/08 A3004 RMK AO2
KSYN 260714Z AUTO 07005KT 5SM DZ OVC020 03/01 A2996 RMK AO2 T00250012
KSYR 260654Z 08010KT 10SM FEW006 BKN020 OVC120 02/01 A3035 RMK AO2 SLP279 T00170011
KSZL 260658Z AUTO 00000KT 10SM OVC009 09/09 A2984 RMK AO2 SLP107 T00890089 $
KSZT 260715Z AUTO 00000KT 10SM BKN070 OVC080 01/01 A3001 RMK AO2
KT20 260715Z AUTO 17008KT 5SM BR OVC003 21/21 A2990 RMK AO2 T02050205
KT35 260715Z AUTO 00000KT 10SM CLR 14/11 A2991 RMK AO2 T01420108
KT65 260715Z AUTO 17008KT 7SM OVC011 21/20 A2988 RMK AO2 T02070198
KT82 260655Z AUTO 00000KT 10SM CLR 09/06 A2991 RMK AO2 T00940060
KTAD 260654Z AUTO 12005KT 10SM FEW120 07/01 A2976 RMK AO2 SLP032 T00720011 401781006
KTAN 260711Z AUTO 00000KT 4SM BR CLR M05/M07 A3044 RMK AO2 T10501067
KTAZ 260715Z AUTO 18007KT 10SM CLR 12/12 A2984 RMK AO2
KTBN 260658Z AUTO 23006KT 10SM OVC009 08/07 A2987 RMK AO2 SLP117 T00830066
KTBR 260715Z AUTO 00000KT 10SM BKN060 BKN075 OVC085 15/15 A3018 RMK AO2 T01450145
KTBX 260715Z AUTO 32021KT OVC002 M01/M01 A2999 RMK AO2 PWINO
KTCC 260653Z AUTO 28004KT 10SM CLR 11/M04 A2977 RMK AO2 SLP043 T01061039 402441028
KTCL 260653Z AUTO 19005KT 10SM OVC010 15/14 A3002 RMK AO2 CIG 007V013 SLP164 T01500144
KTCM 260658Z AUTO 00000KT 10SM FEW065 OVC130 06/05 A3001 RMK AO2 SLP168 T00560054 $
KTCS 260653Z AUTO 33008KT 10SM CLR 14/M05 A2992 RMK AO2 SLP067 T01391050 402440056
KTDF 260700Z AUTO 20004KT 10SM CLR 14/10 A3021 RMK AO2
KTDR 260656Z AUTO 14003KT 10SM -SHRA BKN110 18/17 A3007 RMK AO2 SLP186 T01840174 $
KTDZ 260653Z AUTO 06008G16KT 7SM OVC006 04/03 A3007 RMK AO2 SLP186 T00390028
KTEB 260651Z 06013G19KT 10SM -RA FEW038 OVC050 06/01 A3041 RMK AO2 RAB01 SLP299 P0000 T00560011
KTEW 260713Z AUTO 07004KT 10SM OVC011 05/03 A3007 RMK AO2 T00450033
KTEX 260615Z AUTO 29009G15KT 270V330 1SM SN OVC003 00/00 A2997 RMK AO2 T10021002
KTFP 260715Z AUTO 15007KT 10SM BKN007 BKN011 22/21 A2990 RMK AO2 T02220212
KTGI 260653Z AUTO 36007KT 10SM BKN060 14/11 A3022 RMK AO1
KTHA 260715Z AUTO 14007KT 10SM BKN075 BKN100 13/13 A3001 RMK
KTHV 260653Z AUTO 07010KT 10SM OVC080 08/05 A3029 RMK AO2 SLP260 T00830050
KTIF 260715Z AUTO 16008KT 1SM BR OVC003 04/04 A2988 RMK AO2 T00410038
KTIK 260658Z AUTO 09006KT 10SM CLR 07/05 A2990 RMK AO2 SLP132 T00690051 $
KTIP 260715Z AUTO 14010KT 10SM SCT025 BKN030 OVC055 15/14 A2987 RMK AO2 T01530140
KTIW 260653Z AUTO 00000KT 10SM FEW031 SCT055 07/04 A3002 RMK AO2 SLP166 T00670039
KTKC 260713Z AUTO 08005KT 5SM BR OVC004 03/03 A2996 RMK AO2 T00300025
KTKI 260653Z AUTO 11004KT 10SM CLR 09/09 A2991 RMK AO2 SLP133 T00940089
KTKV 260715Z AUTO 00000KT 10SM OVC006 00/00 A3001 RMK AO2 T00001005
KTKX 260715Z AUTO 00000KT 9SM SCT075 OVC100 14/11 A2990 RMK AO2
KTLH 260653Z AUTO 11005KT 10SM BKN070 OVC090 17/15 A3012 RMK AO2 SLP199 T01670150
KTMA 260650Z AUTO 14005KT 10SM CLR 17/15 A3013 RMK AO2 T01720147
KTMB 260653Z AUTO 11007KT 10SM FEW034 FEW047 SCT060 22/18 A3007 RMK AO2 SLP182 T02220178
KTME 260715Z AUTO 19006KT 3SM BR OVC005 19/19 A2994 RMK AO2
KTMK 260715Z AUTO 00000KT 10SM BKN048 BKN055 OVC110 06/05 A3002 RMK AO2
KTNB 260715Z AUTO 24003KT 10SM OVC014 12/08 A3019 RMK AO2 T01170077
KTNU 260715Z AUTO 03009KT 2 1/2SM BR OVC003 05/05 A2984 RMK AO2 PWINO
KTOA 260247Z 27006KT 10SM SCT015 14/11 A3003
KTOB 260713Z AUTO 04006KT 4SM BR OVC004 01/01 A2994 RMK AO2
KTOC 260657Z AUTO 16005KT 10SM SCT070 OVC090 18/13 A3014 RMK AO2
KTOI 260653Z AUTO 17004KT 10SM FEW110 16/16 A3007 RMK AO2 SLP178 T01610156
KTOL 260652Z 07011KT 10SM OVC007 03/02 A3005 RMK AO2 SLP181 T00330022
KTOP 260703Z AUTO 34003KT 10SM BKN013 OVC027 07/06 A2989 RMK AO2 T00670061
KTOR 260653Z AUTO 12005KT 10SM CLR 09/M01 A2980 RMK AO2 SLP069 T00891011 401891022
KTPA 260653Z 11006KT 10SM FEW060 21/16 A3012 RMK AO2 SLP199 T02060156
KTPF 260715Z AUTO 10006KT 10SM SCT110 20/17 A3012 RMK AO2
KTPH 260656Z AUTO 02009KT 10SM CLR 04/ A3004 RMK AO2 SLP154 T0044 $
KTPL 260651Z AUTO 14004KT 10SM CLR 16/10 A2992 RMK AO2 SLP139 T01560100
KTQE 260654Z AUTO 33007KT 9SM OVC006 04/03 A2991 RMK AO2 CIG 004V008 SLP129 T00440033
KTQH 260715Z AUTO 00000KT M1/4SM FG VV000 05/05 A2993 RMK AO2
KTRI 260653Z 00000KT 10SM FEW070 14/08 A3010 RMK AO2 SLP174 T01390078
KTRK 260715Z AUTO 00000KT 10SM CLR M02/M03 A3008 RMK AO2
KTRL 260653Z AUTO 00000KT 10SM CLR 10/08 A2992 RMK AO2 SLP129 T01000078
KTRM 260652Z AUTO 31012KT 10SM CLR 19/09 A2989 RMK AO2 SLP124 T01940094
KTSP 260715Z AUTO 31011KT 6SM BR SCT018 OVC025 06/06 A3010 RMK AO2
KTTA 260710Z AUTO 00000KT 10SM CLR 11/10 A3019 RMK AO2 T01070096
KTTD 260653Z AUTO 08003KT 10SM FEW035 OVC055 08/06 A3004 RMK AO2 SLP172 T00830056
KTTF 260714Z AUTO 07007KT 10SM SCT010 BKN065 04/03 A3007 RMK AO2 T00390028
KTTN 260713Z AUTO 08007KT 10SM OVC009 06/04 A3036 RMK AO2 T00610039
KTTS 260658Z AUTO 14003KT 10SM CLR 16/15 A3012 RMK AO2 SLP204 T01610145 $
KTUL 260653Z 00000KT 10SM BKN250 08/06 A2992 RMK AO2 SLP130 T00780061 $
KTUP 260716Z AUTO 15008KT 10SM OVC009 16/13 A2996 RMK AO2 T01560133 PWINO $
KTUS 260653Z 00000KT 10SM CLR 18/M03 A2996 RMK AO2 SLP110 T01781028 402780083
KTVC 260653Z AUTO 11007G15KT 10SM -RA OVC012 03/01 A3007 RMK AO2 RAB17 SLP189 P0002 T00330011
KTVF 260706Z AUTO 00000KT 1 1/4SM BR BKN018 M01/M01 A3002 RMK AO2 FZRANO $
KTVI 260715Z AUTO 00000KT 10SM SCT120 17/15 A3014 RMK AO2
KTVL 260653Z AUTO 19003KT 10SM CLR M01/M03 A3006 RMK AO2 SLP171 T10111028
KTVR 260653Z AUTO 00000KT 10SM CLR 16/15 A2994 RMK AO2 SLP145 T01610150
KTWF 260653Z AUTO 20008KT 10SM CLR 03/M02 A3002 RMK AO2 SLP152 T00331017 401170017
KTWM 260713Z AUTO 07010KT 5SM HZ OVC004 01/M02 A3005 RMK AO2
KTXK 260653Z AUTO 00000KT 10SM CLR 13/10 A2992 RMK AO2 SLP130 T01280100
KTYQ 260715Z AUTO 14005KT 10SM RA SCT025 SCT050 OVC075 14/13 A2995 RMK AO2 T01370127
KTYR 260653Z AUTO 15005KT 10SM CLR 12/11 A2992 RMK AO2 SLP128 T01170106
KTYS 260653Z 17009KT 10SM BKN100 OVC250 19/09 A3002 RMK AO2 RAB37E47 SLP158 P0000 T01940089
KTZR 260715Z AUTO 00000KT 10SM CLR 14/10 A3000 RMK AO2 T01430097
KU68 260715Z AUTO 00000KT 10SM CLR 03/00 A2993 RMK AO2
KUAO 260653Z AUTO 19004KT 10SM OVC049 08/05 A3004 RMK AO2 SLP173 T00830050
KUBE 260715Z AUTO 09004KT 4SM BR OVC005 01/00 A3000 RMK AO2
KUCP 260656Z AUTO 12005KT 10SM BKN075 BKN090 14/10 A3011 RMK AO2 SLP207 T01440100
KUDG 260656Z AUTO 13003KT 10SM CLR 13/11 A3020 RMK AO2 SLP230 T01280111
KUES 260715Z AUTO 06010KT 1/2SM FG OVC003 02/02 A2996 RMK AO2
KUGN 260655Z AUTO 05007KT 1/2SM FG VV002 05/05 A2993 RMK AO2 RAE50 SLP143 P0002 T00500050 $
KUIL 260653Z AUTO 08007KT 10SM SCT044 SCT060 OVC120 04/03 A2997 RMK AO2 SLP150 T00390028
KUIN 260654Z AUTO 19010KT 10SM BKN005 OVC034 13/12 A2978 RMK AO2 SLP083 T01280122
KUKF 260700Z AUTO 25003KT 10SM CLR 12/09 A3023 RMK AO2
KUKI 260656Z AUTO 32003KT 10SM CLR 08/06 A3011 RMK AO2 SLP193 T00780061
KUKT 260715Z AUTO 08006KT 10SM OVC009 05/03 A3036 RMK AO1
KULM 260714Z AUTO 07006KT 7SM DZ OVC007 03/02 A2996 RMK AO2 P0001
KUNI 260715Z AUTO 16004KT 10SM CLR 16/09 A3002 RMK AO2 T01620093
KUNO 260701Z AUTO 26005KT 10SM OVC009 09/08 A2990 RMK AO2 T00940078
KUNU 260715Z AUTO 07009KT 5SM BR OVC004 04/03 A2996 RMK AO2 T00350031
KUNV 260715Z AUTO 04006KT 10SM BKN016 OVC022 05/04 A3026 RMK AO2 T00530038
KUOX 260715Z AUTO 16006KT 10SM OVC008 14/13 A2996 RMK AO2
KUSE 260715Z AUTO 07007KT 10SM OVC006 04/03 A3005 RMK AO2
KUTA 260715Z AUTO 18003KT 10SM OVC007 14/13 A2994 RMK AO2 TSNO
KUTS 260653Z AUTO 00000KT 10SM CLR 13/10 A2993 RMK AO2 SLP133 T01330100 $
KUUU 260653Z AUTO 01006KT 10SM CLR 01/M01 A3042 RMK AO2 SLP302 T00061006
KUVA 260715Z AUTO 00000KT 10SM CLR 14/11 A2988 RMK AO2 T01410111
KUXL 260715Z AUTO 00000KT 1/2SM FG OVC003 20/20 A2996 RMK AO2 T02000200
KUYF 260715Z AUTO 13004KT 10SM SCT085 15/11 A2999 RMK AO2
KUZA 260654Z AUTO 20005KT 10SM CLR 14/12 A3020 RMK AO2 SLP218 T01440117
KVAD 260658Z AUTO 15003KT 10SM BKN037 16/14 A3013 RMK AO2 SLP204 T01630137 $
KVAF 260715Z AUTO 20014KT 4SM BR CLR 23/23 A2993 RMK A01
KVAY 260654Z AUTO 06008G15KT 10SM BKN015 OVC110 06/03 A3035 RMK AO2 SLP278 T00610033
KVBG 260658Z AUTO 35010KT 9SM CLR 11/11 A3008 RMK AO2 SLP189 T01100110
KVBS 260715Z AUTO 00000KT 10SM OVC005 21/21 A2994 RMK A01
KVBT 260715Z AUTO 00000KT 10SM SCT008 OVC016 08/06 A2991 RMK AO1
KVBW 260715Z AUTO 00000KT 10SM CLR 09/08 A3015 RMK AO2 T00860081
KVCB 260653Z AUTO 23003KT 10SM CLR 11/08 A3008 RMK AO2 SLP186 T01110078
KVCT 260704Z AUTO 18013KT 7SM SCT007 BKN012 BKN018 21/19 A2991 RMK AO2 T02110194
KVCV 260715Z AUTO 24007KT 10SM CLR 08/03 A3004 RMK AO2
KVDF 260715Z AUTO 00000KT 10SM CLR 17/15 A3013 RMK AO2
KVDI 260715Z AUTO 13004KT 10SM SCT050 BKN080 17/15 A3016 RMK AO2
KVEL 260653Z AUTO 09007KT 10SM FEW070 OVC100 07/01 A2990 RMK AO2 SLP096 T00720011 401500011
KVER 260715Z AUTO 30005KT 10SM OVC009 09/ A2984 RMK AO2 T0092
KVES 260715Z AUTO 36006KT 10SM OVC060 11/10 A3000 RMK AO2
KVGT 260653Z AUTO 19004KT 10SM CLR 15/02 A2997 RMK AO2 SLP157 T01500022
KVIH 260653Z AUTO 22009KT 10SM OVC009 09/08 A2986 RMK AO2 SLP109 T00890078 $
KVIS 260656Z AUTO 10005KT 10SM CLR 10/09 A3010 RMK AO2 SLP203 T01000089
KVJI 260715Z AUTO 21006KT 10SM CLR 16/09 A3011 RMK AO2 T01560085
KVKS 260715Z AUTO VRB04KT 10SM CLR 17/16 A2992 RMK A01
KVKY 260715Z AUTO 00000KT 10SM BKN030 BKN038 BKN048 21/18 A3004 RMK A01
KVLD 260653Z AUTO 00000KT 10SM SCT037 14/13 A3015 RMK AO2 SLP215 T01440133
KVLL 260714Z AUTO 07008KT 10SM SCT010 BKN120 04/02 A3011 RMK AO2 T00360017
KVNC 260715Z AUTO 09007KT 10SM 18/17 A3010 RMK AO2
KVNY 260651Z AUTO 00000KT 10SM CLR 13/09 A3003 RMK AO2 SLP164 T01330089
KVOA 260715Z AUTO 16013KT 9SM CLR 22/18 A3002 RMK A01
KVOK 260713Z AUTO 05004KT 10SM UP OVC003 02/02 A2997 RMK AO2
KVPC 260653Z AUTO 16007KT 10SM -RA BKN075 OVC090 16/14 A3008 RMK AO2 SLP177 P0003 T01560139
KVPS 260655Z 16007KT 10SM SCT009 BKN150 18/17 A3006 RMK AO2A SLP185 T0180171 $
KVPZ 260704Z AUTO 10011KT 4SM BR FEW006 BKN048 OVC080 10/09 A2993 RMK AO2 T01000089
KVQQ 260715Z AUTO 00000KT 2SM BR OVC060 13/13 A3015 RMK AO2
KVQT 260715Z AUTO VRB05KT 3SM BR SCT014 SCT020 23/22 A2998 RMK A01
KVRB 260653Z AUTO 12009KT 10SM CLR 21/17 A3012 RMK AO2 SLP197 T02060167
KVSF 260654Z AUTO 00000KT 10SM CLR M04/M06 A3046 RMK AO2 SLP325 T10441061
KVTA 260654Z AUTO 00000KT 10SM CLR 13/09 A3001 RMK AO2 SLP160 T01330094
KVTI 260715Z AUTO 04006KT 3SM BR OVC003 05/05 A2986 RMK AO2
KVTN 260709Z AUTO 16009KT 10SM OVC005 04/03 A2987 RMK AO2 T00440028
KVUJ 260700Z AUTO 00000KT 10SM CLR 11/10 A3024 RMK AO2 T01120098
KVUO 260653Z AUTO 00000KT 10SM FEW049 OVC060 08/07 A3003 RMK AO2 SLP169 T00830072
KVVG 260650Z AUTO 00000KT 10SM 17/16 A3004 RMK A01
KVVV 260713Z AUTO 00000KT 4SM BR OVC013 02/01 A2999 RMK AO2
KVWU 260710Z AUTO 14003KT 10SM BKN010 M01/M02 A3003 RMK AO2
KVYS 260715Z AUTO 10008KT 3/4SM BR OVC002 11/11 A2985 RMK AO2 T01100106
KW13 260715Z AUTO 00000KT 10SM CLR 13/09 A3016 RMK AO1 T01260092
KW22 260715Z AUTO 00000KT 10SM FEW039 SCT048 SCT055 14/09 A3011 RMK AO2
KW29 260655Z AUTO 07013G20KT 7SM HZ OVC080 09/05 A3028 RMK AO2 TSNO
KW31 260715Z AUTO 17003KT 10SM CLR 14/12 A3019 RMK AO1 T01420115
KW43 260655Z AUTO 36008KT 10SM SCT060 OVC080 06/02 A2988 RMK AO2
KW63 260715Z AUTO 20005KT 10SM CLR 15/11 A3019 RMK AO1
KW75 260715Z AUTO 20003KT 10SM CLR 16/12 A3020 RMK AO1 T01600115
KW78 260715Z AUTO 00000KT 10SM CLR 15/10 A3018 RMK AO1 T01500103
KW81 260650Z AUTO 18003KT 10SM CLR 15/11 A3018 RMK AO1 T01460111
KW96 260715Z AUTO 00000KT 10SM CLR 15/11 A3019 RMK AO1 T01540113
KW99 260715Z AUTO 26003KT 10SM OVC075 11/10 A3016 RMK AO2 T01060095
KWAL 260712Z AUTO 03012KT 8SM BKN006 BKN060 08/08 A3025 RMK AO2 T00830078
KWDG 260655Z AUTO 00000KT 10SM CLR 05/04 A2992 RMK AO2
KWDR 260357Z AUTO 12006KT 10SM SCT060 SCT080 19/11 A3017 RMK AO1
KWHP 260250Z 11005KT 10SM BKN065 14/10 A3006 RMK LAST
KWJF 260656Z AUTO 26016KT 10SM CLR 10/06 A3004 RMK AO2 SLP170 T01000056
KWLD 260654Z AUTO 00000KT 10SM OVC012 08/05 A2993 RMK AO2 SLP138 T00780050
KWMC 260656Z AUTO 18006KT 10SM CLR 03/M03 A3002 RMK AO2 SLP160 T00281028 TSNO
KWRB 260658Z AUTO 16006KT 10SM CLR 18/14 A3012 RMK AO2 SLP200 T01780136
KWRI 260658Z AUTO 05012KT 10SM OVC012 06/04 A3033 RMK AO2 SLP270 T00560035
KWRL 260653Z AUTO 25004KT 10SM SCT036 BKN046 OVC070 05/04 A2992 RMK AO2 SLP132 T00500044 401280017 $
KWST 260653Z AUTO 00000KT 10SM CLR 00/M01 A3043 RMK AO2 SLP305 T00001011
KWVI 260653Z AUTO 01003KT 10SM CLR 10/10 A3013 RMK AO2 SLP201 T01000100
KWVL 260656Z AUTO 00000KT 10SM CLR M03/M14 A3044 RMK AO2 SLP350 T10281144 FZRANO
KWWD 260656Z AUTO 07014G21KT 10SM BKN007 OVC095 07/05 A3030 RMK AO2 SLP264 T00670050 $
KWWR 260715Z AUTO 10007KT 10SM CLR 06/03 A2991 RMK AO2
KWYS 260710Z AUTO 00000KT 10SM UP FEW020 BKN027 OVC032 M01/M02 A2998 RMK AO2
KX60 260715Z AUTO 00000KT 10SM CLR 16/15 A3014 RMK A01
KXBP 260715Z AUTO 17004KT 10SM CLR 13/08 A2991 RMK AO2 T01250075
KXIH 260715Z AUTO 24009KT 5SM BR BKN005 22/21 A2993 RMK A01
KXLL 260715Z AUTO 04007KT 10SM OVC009 05/02 A3037 RMK AO2
KXMR 260658Z AUTO 12008KT 10SM CLR 20/15 A3011 RMK AO2 SLP199 T01970154 $
KXNA 260653Z AUTO 00000KT 10SM OVC015 08/07 A2990 RMK AO2 SLP124 T00830072
KXPY 260715Z AUTO 18008KT 10SM FEW012 FEW025 22/20 A3000 RMK A01
KXSA 260715Z AUTO 17004KT 10SM CLR 15/05 A3020 RMK AO2 T01510050
KXVG 260716Z AUTO 00000KT 5SM BR OVC011 00/M01 A3003 RMK AO2
KY19 260715Z AUTO 15005KT 10SM BKN065 OVC075 04/01 A2993 RMK AO2
KY23 260715Z AUTO 00000KT 2 1/2SM BR OVC007 01/01 A3001 RMK AO2 T00110009
KY31 260713Z AUTO 07010G15KT 7SM -RA OVC004 02/01 A3013 RMK AO2 P0002 T00150008
KY49 260715Z AUTO 10003KT 10SM BKN012 OVC017 00/M02 A3002 RMK AO2 T10051018
KY50 260656Z AUTO 06011KT 2 1/2SM UP BR OVC003 02/01 A3000 RMK AO2 UPE05B41 SLP185 P0000 T00170011
KY51 260715Z AUTO 07010KT 4SM OVC004 02/02 A2993 RMK AO1 T00200020
KY63 260713Z AUTO 00000KT 10SM OVC016 03/02 A3000 RMK AO2 T00260017
KY70 260714Z AUTO 07011KT 4SM -RA OVC004 04/03 A3006 RMK AO2 T00350030
KYIP 260653Z 07009KT 10SM OVC011 05/03 A3009 RMK AO2 SLP191 T00500028
KYKM 260653Z AUTO 25006KT 10SM CLR 07/02 A3000 RMK AO2 SLP163 T00670017
KYKN 260715Z AUTO 07004KT 5SM OVC003 03/02 A2993 RMK AO1
KYNG 260651Z 09008KT 10SM BKN090 OVC170 12/09 A3010 RMK AO2 SLP194 T01220094
KZPH 260715Z AUTO 00000KT 10SM CLR 15/14 A3013 RMK AO2 T01520136
KZZV 260653Z AUTO 14005KT 10SM SCT080 17/09 A3003 RMK AO2 SLP164 T01670094